Time,TemperatureF,DewpointF,PressureIn,WindDirection,WindDirectionDegrees,WindSpeedMPH,WindSpeedGustMPH,Humidity,HourlyPrecipIn,Conditions,Clouds,dailyrainin,SoftwareType,DateUTC
2013-03-05 00:00:00,54.0,32.6,30.09,North,0,3.0,4.0,44,0.00,,SKC,0.00,VWS V14.01,2013-03-05 07:00:00,
2013-03-05 00:01:00,54.0,32.6,30.09,North,0,3.0,4.0,44,0.00,,SKC,0.00,VWS V14.01,2013-03-05 07:01:00,
2013-03-05 00:02:00,54.0,32.6,30.09,NE,45,5.0,6.0,44,0.00,,SKC,0.00,VWS V14.01,2013-03-05 07:02:00,
2013-03-05 00:03:00,54.0,32.6,30.09,NNE,22,5.0,5.0,44,0.00,,SKC,0.00,VWS V14.01,2013-03-05 07:03:00,
2013-03-05 00:04:00,54.0,32.6,30.09,NE,45,5.0,6.0,44,0.00,,SKC,0.00,VWS V14.01,2013-03-05 07:04:00,
2013-03-05 00:05:00,54.0,32.6,30.09,NNE,22,6.0,6.0,44,0.00,,SKC,0.00,VWS V14.01,2013-03-05 07:05:00,
2013-03-05 00:06:00,54.0,32.6,30.09,North,0,5.0,6.0,44,0.00,,SKC,0.00,VWS V14.01,2013-03-05 07:06:00,
2013-03-05 00:07:00,54.0,32.6,30.09,North,0,5.0,6.0,44,0.00,,SKC,0.00,VWS V14.01,2013-03-05 07:07:00,
2013-03-05 00:08:00,54.0,32.6,30.09,North,0,5.0,6.0,44,0.00,,SKC,0.00,VWS V14.01,2013-03-05 07:08:00,
2013-03-05 00:09:00,54.0,32.6,30.09,North,0,5.0,6.0,44,0.00,,SKC,0.00,VWS V14.01,2013-03-05 07:09:00,
2013-03-05 00:10:00,54.0,32.6,30.09,NNE,22,3.0,4.0,44,0.00,,SKC,0.00,VWS V14.01,2013-03-05 07:10:00,
2013-03-05 00:11:00,54.0,32.6,30.09,North,0,4.0,6.0,44,0.00,,SKC,0.00,VWS V14.01,2013-03-05 07:11:00,
2013-03-05 00:12:00,54.0,32.0,30.09,North,0,4.0,6.0,43,0.00,,SKC,0.00,VWS V14.01,2013-03-05 07:12:00,
2013-03-05 00:13:00,54.0,32.0,30.09,North,0,4.0,6.0,43,0.00,,SKC,0.00,VWS V14.01,2013-03-05 07:13:00,
2013-03-05 00:14:00,54.0,32.0,30.09,North,0,4.0,6.0,43,0.00,,SKC,0.00,VWS V14.01,2013-03-05 07:14:00,
2013-03-05 00:15:00,54.0,32.6,30.09,NNE,22,6.0,6.0,44,0.00,,SKC,0.00,VWS V14.01,2013-03-05 07:15:00,
2013-03-05 00:16:00,54.0,32.6,30.09,NE,45,5.0,5.0,44,0.00,,SKC,0.00,VWS V14.01,2013-03-05 07:16:00,
2013-03-05 00:17:00,54.0,32.6,30.09,North,0,5.0,6.0,44,0.00,,SKC,0.00,VWS V14.01,2013-03-05 07:17:00,
2013-03-05 00:18:00,54.0,32.6,30.09,NNW,338,6.0,6.0,44,0.00,,SKC,0.00,VWS V14.01,2013-03-05 07:18:00,
2013-03-05 00:19:00,54.0,32.6,30.09,North,0,5.0,6.0,44,0.00,,SKC,0.00,VWS V14.01,2013-03-05 07:19:00,
2013-03-05 00:20:00,54.0,32.6,30.09,North,0,5.0,5.0,44,0.00,,SKC,0.00,VWS V14.01,2013-03-05 07:20:00,
2013-03-05 00:21:00,54.0,32.6,30.09,North,0,5.0,6.0,44,0.00,,SKC,0.00,VWS V14.01,2013-03-05 07:21:00,
2013-03-05 00:22:00,54.0,32.6,30.10,North,0,4.0,6.0,44,0.00,,SKC,0.00,VWS V14.01,2013-03-05 07:22:00,
2013-03-05 00:23:00,54.0,32.6,30.09,North,0,4.0,5.0,44,0.00,,SKC,0.00,VWS V14.01,2013-03-05 07:23:00,
2013-03-05 00:24:00,54.0,32.6,30.10,North,0,4.0,6.0,44,0.00,,SKC,0.00,VWS V14.01,2013-03-05 07:24:00,
2013-03-05 00:25:00,54.0,32.6,30.10,North,0,6.0,6.0,44,0.00,,SKC,0.00,VWS V14.01,2013-03-05 07:25:00,
2013-03-05 00:26:00,54.0,32.6,30.10,NNE,22,5.0,6.0,44,0.00,,SKC,0.00,VWS V14.01,2013-03-05 07:26:00,
2013-03-05 00:27:00,54.0,33.2,30.10,North,0,5.0,7.0,45,0.00,,SKC,0.00,VWS V14.01,2013-03-05 07:27:00,
2013-03-05 00:28:00,54.0,33.2,30.10,NNE,22,5.0,5.0,45,0.00,,SKC,0.00,VWS V14.01,2013-03-05 07:28:00,
2013-03-05 00:29:00,54.0,33.2,30.10,North,0,5.0,7.0,45,0.00,,SKC,0.00,VWS V14.01,2013-03-05 07:29:00,
2013-03-05 00:30:00,54.0,33.2,30.10,NNE,22,4.0,6.0,45,0.00,,SKC,0.00,VWS V14.01,2013-03-05 07:30:00,
2013-03-05 00:31:00,54.0,33.2,30.10,NNE,22,5.0,6.0,45,0.00,,SKC,0.00,VWS V14.01,2013-03-05 07:31:00,
2013-03-05 00:32:00,54.0,33.2,30.10,NNE,22,4.0,4.0,45,0.00,,SKC,0.00,VWS V14.01,2013-03-05 07:32:00,
2013-03-05 00:33:00,54.0,33.2,30.10,NNE,22,5.0,5.0,45,0.00,,SKC,0.00,VWS V14.01,2013-03-05 07:33:00,
2013-03-05 00:34:00,54.0,33.2,30.10,NNE,22,4.0,4.0,45,0.00,,SKC,0.00,VWS V14.01,2013-03-05 07:34:00,
2013-03-05 00:35:00,54.0,33.2,30.10,North,0,4.0,5.0,45,0.00,,SKC,0.00,VWS V14.01,2013-03-05 07:35:00,
2013-03-05 00:36:00,53.0,32.2,30.10,North,0,6.0,6.0,45,0.00,,SKC,0.00,VWS V14.01,2013-03-05 07:36:00,
2013-03-05 00:37:00,53.0,32.2,30.10,NE,45,5.0,5.0,45,0.00,,SKC,0.00,VWS V14.01,2013-03-05 07:37:00,
2013-03-05 00:38:00,53.0,32.2,30.10,North,0,5.0,6.0,45,0.00,,SKC,0.00,VWS V14.01,2013-03-05 07:38:00,
2013-03-05 00:39:00,53.0,32.2,30.10,NE,45,5.0,5.0,45,0.00,,SKC,0.00,VWS V14.01,2013-03-05 07:39:00,
2013-03-05 00:40:00,53.0,32.2,30.10,North,0,2.0,3.0,45,0.00,,SKC,0.00,VWS V14.01,2013-03-05 07:40:00,
2013-03-05 00:41:00,53.0,32.2,30.10,NNE,22,6.0,6.0,45,0.00,,SKC,0.00,VWS V14.01,2013-03-05 07:41:00,
2013-03-05 00:42:00,53.0,32.2,30.10,NNE,22,6.0,6.0,45,0.00,,SKC,0.00,VWS V14.01,2013-03-05 07:42:00,
2013-03-05 00:43:00,53.0,32.2,30.10,NNE,22,6.0,7.0,45,0.00,,SKC,0.00,VWS V14.01,2013-03-05 07:43:00,
2013-03-05 00:44:00,53.0,32.2,30.10,NNE,22,6.0,6.0,45,0.00,,SKC,0.00,VWS V14.01,2013-03-05 07:44:00,
2013-03-05 00:45:00,53.0,32.2,30.10,North,0,5.0,6.0,45,0.00,,SKC,0.00,VWS V14.01,2013-03-05 07:45:00,
2013-03-05 00:46:00,53.0,32.2,30.10,North,0,4.0,6.0,45,0.00,,SKC,0.00,VWS V14.01,2013-03-05 07:46:00,
2013-03-05 00:47:00,53.0,32.2,30.10,NNW,338,6.0,6.0,45,0.00,,SKC,0.00,VWS V14.01,2013-03-05 07:47:00,
2013-03-05 00:48:00,53.0,32.2,30.10,North,0,4.0,5.0,45,0.00,,SKC,0.00,VWS V14.01,2013-03-05 07:48:00,
2013-03-05 00:49:00,53.0,32.2,30.10,NNW,338,6.0,6.0,45,0.00,,SKC,0.00,VWS V14.01,2013-03-05 07:49:00,
2013-03-05 00:50:00,53.0,32.2,30.10,North,0,5.0,5.0,45,0.00,,SKC,0.00,VWS V14.01,2013-03-05 07:50:00,
2013-03-05 00:51:00,53.0,32.2,30.10,NNE,22,3.0,3.0,45,0.00,,SKC,0.00,VWS V14.01,2013-03-05 07:51:00,
2013-03-05 00:52:00,53.0,32.2,30.10,North,0,5.0,6.0,45,0.00,,SKC,0.00,VWS V14.01,2013-03-05 07:52:00,
2013-03-05 00:53:00,53.0,32.2,30.10,NE,45,3.0,4.0,45,0.00,,SKC,0.00,VWS V14.01,2013-03-05 07:53:00,
2013-03-05 00:54:00,53.0,32.2,30.10,North,0,5.0,6.0,45,0.00,,SKC,0.00,VWS V14.01,2013-03-05 07:54:00,
2013-03-05 00:55:00,53.0,32.2,30.10,North,0,5.0,6.0,45,0.00,,SKC,0.00,VWS V14.01,2013-03-05 07:55:00,
2013-03-05 00:56:00,53.0,32.2,30.10,NNE,22,3.0,3.0,45,0.00,,SKC,0.00,VWS V14.01,2013-03-05 07:56:00,
2013-03-05 00:57:00,53.0,32.2,30.10,NNW,338,2.0,3.0,45,0.00,,SKC,0.00,VWS V14.01,2013-03-05 07:57:00,
2013-03-05 00:58:00,54.0,33.2,30.10,North,0,3.0,4.0,45,0.00,,SKC,0.00,VWS V14.01,2013-03-05 07:58:00,
2013-03-05 00:59:00,53.0,32.2,30.10,NNW,338,2.0,3.0,45,0.00,,SKC,0.00,VWS V14.01,2013-03-05 07:59:00,
2013-03-05 01:00:00,54.0,33.2,30.10,NNE,22,5.0,5.0,45,0.00,,SKC,0.00,VWS V14.01,2013-03-05 08:00:00,
2013-03-05 01:01:00,54.0,33.2,30.10,NNW,338,3.0,5.0,45,0.00,,SKC,0.00,VWS V14.01,2013-03-05 08:01:00,
2013-03-05 01:02:00,54.0,33.2,30.10,North,0,3.0,5.0,45,0.00,,SKC,0.00,VWS V14.01,2013-03-05 08:02:00,
2013-03-05 01:03:00,53.0,32.2,30.10,NNE,22,4.0,6.0,45,0.00,,SKC,0.00,VWS V14.01,2013-03-05 08:03:00,
2013-03-05 01:04:00,54.0,33.2,30.10,North,0,3.0,5.0,45,0.00,,SKC,0.00,VWS V14.01,2013-03-05 08:04:00,
2013-03-05 01:05:00,54.0,33.2,30.10,North,0,4.0,5.0,45,0.00,,SKC,0.00,VWS V14.01,2013-03-05 08:05:00,
2013-03-05 01:06:00,54.0,33.2,30.10,North,0,5.0,6.0,45,0.00,,SKC,0.00,VWS V14.01,2013-03-05 08:06:00,
2013-03-05 01:07:00,54.0,33.2,30.10,North,0,5.0,6.0,45,0.00,,SKC,0.00,VWS V14.01,2013-03-05 08:07:00,
2013-03-05 01:08:00,54.0,33.2,30.10,NNE,22,6.0,7.0,45,0.00,,SKC,0.00,VWS V14.01,2013-03-05 08:08:00,
2013-03-05 01:09:00,54.0,33.2,30.10,North,0,5.0,6.0,45,0.00,,SKC,0.00,VWS V14.01,2013-03-05 08:09:00,
2013-03-05 01:10:00,54.0,33.2,30.10,NNE,22,6.0,8.0,45,0.00,,SKC,0.00,VWS V14.01,2013-03-05 08:10:00,
2013-03-05 01:11:00,54.0,33.2,30.10,North,0,5.0,5.0,45,0.00,,SKC,0.00,VWS V14.01,2013-03-05 08:11:00,
2013-03-05 01:12:00,53.0,32.8,30.10,NNE,22,4.0,5.0,46,0.00,,SKC,0.00,VWS V14.01,2013-03-05 08:12:00,
2013-03-05 01:13:00,53.0,32.2,30.10,North,0,6.0,6.0,45,0.00,,SKC,0.00,VWS V14.01,2013-03-05 08:13:00,
2013-03-05 01:14:00,53.0,32.8,30.10,NNE,22,4.0,5.0,46,0.00,,SKC,0.00,VWS V14.01,2013-03-05 08:14:00,
2013-03-05 01:15:00,53.0,32.8,30.10,North,0,6.0,6.0,46,0.00,,SKC,0.00,VWS V14.01,2013-03-05 08:15:00,
2013-03-05 01:16:00,53.0,32.8,30.10,North,0,5.0,7.0,46,0.00,,SKC,0.00,VWS V14.01,2013-03-05 08:16:00,
2013-03-05 01:17:00,53.0,32.8,30.10,NNE,22,5.0,6.0,46,0.00,,SKC,0.00,VWS V14.01,2013-03-05 08:17:00,
2013-03-05 01:18:00,53.0,32.8,30.10,North,0,5.0,5.0,46,0.00,,SKC,0.00,VWS V14.01,2013-03-05 08:18:00,
2013-03-05 01:19:00,53.0,32.8,30.10,NNE,22,5.0,6.0,46,0.00,,SKC,0.00,VWS V14.01,2013-03-05 08:19:00,
2013-03-05 01:20:00,53.0,32.8,30.10,North,0,5.0,7.0,46,0.00,,SKC,0.00,VWS V14.01,2013-03-05 08:20:00,
2013-03-05 01:21:00,53.0,32.8,30.10,North,0,5.0,5.0,46,0.00,,SKC,0.00,VWS V14.01,2013-03-05 08:21:00,
2013-03-05 01:22:00,53.0,32.8,30.10,North,0,4.0,5.0,46,0.00,,SKC,0.00,VWS V14.01,2013-03-05 08:22:00,
2013-03-05 01:23:00,53.0,32.8,30.10,NNE,22,6.0,6.0,46,0.00,,SKC,0.00,VWS V14.01,2013-03-05 08:23:00,
2013-03-05 01:24:00,53.0,32.8,30.10,North,0,4.0,5.0,46,0.00,,SKC,0.00,VWS V14.01,2013-03-05 08:24:00,
2013-03-05 01:25:00,53.0,32.8,30.10,North,0,4.0,5.0,46,0.00,,SKC,0.00,VWS V14.01,2013-03-05 08:25:00,
2013-03-05 01:26:00,53.0,32.8,30.10,NNE,22,5.0,5.0,46,0.00,,SKC,0.00,VWS V14.01,2013-03-05 08:26:00,
2013-03-05 01:27:00,53.0,32.8,30.10,North,0,4.0,5.0,46,0.00,,SKC,0.00,VWS V14.01,2013-03-05 08:27:00,
2013-03-05 01:28:00,53.0,32.8,30.10,North,0,5.0,5.0,46,0.00,,SKC,0.00,VWS V14.01,2013-03-05 08:28:00,
2013-03-05 01:29:00,53.0,32.8,30.10,North,0,4.0,5.0,46,0.00,,SKC,0.00,VWS V14.01,2013-03-05 08:29:00,
2013-03-05 01:30:00,53.0,32.8,30.10,North,0,5.0,6.0,46,0.00,,SKC,0.00,VWS V14.01,2013-03-05 08:30:00,
2013-03-05 01:31:00,53.0,32.8,30.10,NNE,22,4.0,5.0,46,0.00,,SKC,0.00,VWS V14.01,2013-03-05 08:31:00,
2013-03-05 01:32:00,53.0,32.8,30.10,North,0,5.0,5.0,46,0.00,,SKC,0.00,VWS V14.01,2013-03-05 08:32:00,
2013-03-05 01:33:00,53.0,32.8,30.10,North,0,3.0,5.0,46,0.00,,SKC,0.00,VWS V14.01,2013-03-05 08:33:00,
2013-03-05 01:34:00,53.0,32.8,30.10,North,0,5.0,5.0,46,0.00,,SKC,0.00,VWS V14.01,2013-03-05 08:34:00,
2013-03-05 01:35:00,53.0,32.8,30.10,North,0,3.0,3.0,46,0.00,,SKC,0.00,VWS V14.01,2013-03-05 08:35:00,
2013-03-05 01:36:00,53.0,32.8,30.10,North,0,4.0,6.0,46,0.00,,SKC,0.00,VWS V14.01,2013-03-05 08:36:00,
2013-03-05 01:37:00,53.0,32.8,30.10,North,0,5.0,6.0,46,0.00,,SKC,0.00,VWS V14.01,2013-03-05 08:37:00,
2013-03-05 01:38:00,53.0,32.8,30.10,North,0,4.0,5.0,46,0.00,,SKC,0.00,VWS V14.01,2013-03-05 08:38:00,
2013-03-05 01:39:00,53.0,32.8,30.10,North,0,5.0,6.0,46,0.00,,SKC,0.00,VWS V14.01,2013-03-05 08:39:00,
2013-03-05 01:40:00,53.0,32.8,30.10,NNE,22,5.0,6.0,46,0.00,,SKC,0.00,VWS V14.01,2013-03-05 08:40:00,
2013-03-05 01:41:00,53.0,32.8,30.10,NNE,22,2.0,3.0,46,0.00,,SKC,0.00,VWS V14.01,2013-03-05 08:41:00,
2013-03-05 01:42:00,53.0,32.8,30.10,NNE,22,1.0,2.0,46,0.00,,SKC,0.00,VWS V14.01,2013-03-05 08:42:00,
2013-03-05 01:43:00,53.0,32.8,30.10,NE,45,3.0,5.0,46,0.00,,SKC,0.00,VWS V14.01,2013-03-05 08:43:00,
2013-03-05 01:44:00,53.0,32.8,30.10,NNE,22,1.0,2.0,46,0.00,,SKC,0.00,VWS V14.01,2013-03-05 08:44:00,
2013-03-05 01:45:00,53.0,32.8,30.10,NE,45,1.0,2.0,46,0.00,,SKC,0.00,VWS V14.01,2013-03-05 08:45:00,
2013-03-05 01:46:00,53.0,33.3,30.10,East,90,1.0,1.0,47,0.00,,SKC,0.00,VWS V14.01,2013-03-05 08:46:00,
2013-03-05 01:47:00,52.0,32.9,30.10,East,90,0.0,0.0,48,0.00,,SKC,0.00,VWS V14.01,2013-03-05 08:47:00,
2013-03-05 01:48:00,53.0,33.3,30.10,East,90,0.0,0.0,47,0.00,,SKC,0.00,VWS V14.01,2013-03-05 08:48:00,
2013-03-05 01:49:00,52.0,32.9,30.10,East,90,0.0,0.0,48,0.00,,SKC,0.00,VWS V14.01,2013-03-05 08:49:00,
2013-03-05 01:50:00,52.0,32.9,30.10,East,90,0.0,0.0,48,0.00,,SKC,0.00,VWS V14.01,2013-03-05 08:50:00,
2013-03-05 01:51:00,52.0,33.5,30.10,East,90,0.0,0.0,49,0.00,,SKC,0.00,VWS V14.01,2013-03-05 08:51:00,
2013-03-05 01:52:00,51.0,33.0,30.10,East,90,0.0,0.0,50,0.00,,SKC,0.00,VWS V14.01,2013-03-05 08:52:00,
2013-03-05 01:53:00,51.0,32.5,30.10,East,90,0.0,0.0,49,0.00,,SKC,0.00,VWS V14.01,2013-03-05 08:53:00,
2013-03-05 01:54:00,51.0,33.0,30.10,East,90,0.0,0.0,50,0.00,,SKC,0.00,VWS V14.01,2013-03-05 08:54:00,
2013-03-05 01:55:00,51.0,33.5,30.10,East,90,0.0,0.0,51,0.00,,SKC,0.00,VWS V14.01,2013-03-05 08:55:00,
2013-03-05 01:56:00,50.0,32.6,30.10,East,90,0.0,0.0,51,0.00,,SKC,0.00,VWS V14.01,2013-03-05 08:56:00,
2013-03-05 01:57:00,49.0,32.6,30.10,NNE,22,0.0,0.0,53,0.00,,SKC,0.00,VWS V14.01,2013-03-05 08:57:00,
2013-03-05 01:58:00,49.0,32.2,30.10,NNW,338,0.0,0.0,52,0.00,,SKC,0.00,VWS V14.01,2013-03-05 08:58:00,
2013-03-05 01:59:00,49.0,32.6,30.10,NNE,22,0.0,0.0,53,0.00,,SKC,0.00,VWS V14.01,2013-03-05 08:59:00,
2013-03-05 02:00:00,49.0,32.6,30.10,NNE,22,2.0,3.0,53,0.00,,SKC,0.00,VWS V14.01,2013-03-05 09:00:00,
2013-03-05 02:01:00,50.0,33.6,30.10,NE,45,2.0,3.0,53,0.00,,SKC,0.00,VWS V14.01,2013-03-05 09:01:00,
2013-03-05 02:02:00,50.0,33.6,30.10,SE,135,0.0,0.0,53,0.00,,SKC,0.00,VWS V14.01,2013-03-05 09:02:00,
2013-03-05 02:03:00,50.0,33.1,30.10,NNE,22,0.0,0.0,52,0.00,,SKC,0.00,VWS V14.01,2013-03-05 09:03:00,
2013-03-05 02:04:00,50.0,33.6,30.10,SE,135,0.0,0.0,53,0.00,,SKC,0.00,VWS V14.01,2013-03-05 09:04:00,
2013-03-05 02:05:00,50.0,33.6,30.10,SE,135,1.0,1.0,53,0.00,,SKC,0.00,VWS V14.01,2013-03-05 09:05:00,
2013-03-05 02:06:00,49.0,32.6,30.10,SE,135,5.0,5.0,53,0.00,,SKC,0.00,VWS V14.01,2013-03-05 09:06:00,
2013-03-05 02:07:00,49.0,33.1,30.10,SSE,158,0.0,0.0,54,0.00,,SKC,0.00,VWS V14.01,2013-03-05 09:07:00,
2013-03-05 02:08:00,49.0,33.1,30.10,SSE,158,0.0,1.0,54,0.00,,SKC,0.00,VWS V14.01,2013-03-05 09:08:00,
2013-03-05 02:09:00,49.0,33.1,30.10,SSE,158,0.0,0.0,54,0.00,,SKC,0.00,VWS V14.01,2013-03-05 09:09:00,
2013-03-05 02:10:00,49.0,33.5,30.10,SSE,158,0.0,0.0,55,0.00,,SKC,0.00,VWS V14.01,2013-03-05 09:10:00,
2013-03-05 02:11:00,49.0,33.5,30.10,SSE,158,0.0,0.0,55,0.00,,SKC,0.00,VWS V14.01,2013-03-05 09:11:00,
2013-03-05 02:12:00,48.0,32.6,30.10,SSE,158,0.0,0.0,55,0.00,,SKC,0.00,VWS V14.01,2013-03-05 09:12:00,
2013-03-05 02:13:00,48.0,32.6,30.10,SSE,158,0.0,0.0,55,0.00,,SKC,0.00,VWS V14.01,2013-03-05 09:13:00,
2013-03-05 02:14:00,48.0,32.6,30.10,SSE,158,0.0,0.0,55,0.00,,SKC,0.00,VWS V14.01,2013-03-05 09:14:00,
2013-03-05 02:15:00,48.0,33.1,30.10,SSE,158,0.0,0.0,56,0.00,,SKC,0.00,VWS V14.01,2013-03-05 09:15:00,
2013-03-05 02:16:00,48.0,33.1,30.10,NE,45,0.0,0.0,56,0.00,,SKC,0.00,VWS V14.01,2013-03-05 09:16:00,
2013-03-05 02:17:00,48.0,33.5,30.10,North,0,0.0,0.0,57,0.00,,SKC,0.00,VWS V14.01,2013-03-05 09:17:00,
2013-03-05 02:18:00,48.0,33.1,30.10,North,0,0.0,0.0,56,0.00,,SKC,0.00,VWS V14.01,2013-03-05 09:18:00,
2013-03-05 02:19:00,48.0,33.5,30.10,North,0,0.0,0.0,57,0.00,,SKC,0.00,VWS V14.01,2013-03-05 09:19:00,
2013-03-05 02:20:00,48.0,33.5,30.10,SE,135,0.0,0.0,57,0.00,,SKC,0.00,VWS V14.01,2013-03-05 09:20:00,
2013-03-05 02:21:00,48.0,33.5,30.10,SE,135,0.0,0.0,57,0.00,,SKC,0.00,VWS V14.01,2013-03-05 09:21:00,
2013-03-05 02:22:00,47.0,32.6,30.10,SSE,158,0.0,0.0,57,0.00,,SKC,0.00,VWS V14.01,2013-03-05 09:22:00,
2013-03-05 02:23:00,48.0,33.5,30.10,SSE,158,0.0,0.0,57,0.00,,SKC,0.00,VWS V14.01,2013-03-05 09:23:00,
2013-03-05 02:24:00,47.0,32.6,30.10,SSE,158,0.0,0.0,57,0.00,,SKC,0.00,VWS V14.01,2013-03-05 09:24:00,
2013-03-05 02:25:00,47.0,33.0,30.10,SSE,158,0.0,0.0,58,0.00,,SKC,0.00,VWS V14.01,2013-03-05 09:25:00,
2013-03-05 02:26:00,47.0,33.0,30.10,SSE,158,0.0,0.0,58,0.00,,SKC,0.00,VWS V14.01,2013-03-05 09:26:00,
2013-03-05 02:27:00,47.0,33.4,30.10,East,90,0.0,0.0,59,0.00,,SKC,0.00,VWS V14.01,2013-03-05 09:27:00,
2013-03-05 02:28:00,47.0,33.0,30.10,East,90,0.0,0.0,58,0.00,,SKC,0.00,VWS V14.01,2013-03-05 09:28:00,
2013-03-05 02:29:00,47.0,33.4,30.10,East,90,0.0,0.0,59,0.00,,SKC,0.00,VWS V14.01,2013-03-05 09:29:00,
2013-03-05 02:30:00,47.0,33.4,30.09,NNE,22,0.0,1.0,59,0.00,,SKC,0.00,VWS V14.01,2013-03-05 09:30:00,
2013-03-05 02:31:00,47.0,33.4,30.10,NNE,22,0.0,0.0,59,0.00,,SKC,0.00,VWS V14.01,2013-03-05 09:31:00,
2013-03-05 02:32:00,47.0,33.4,30.09,East,90,0.0,0.0,59,0.00,,SKC,0.00,VWS V14.01,2013-03-05 09:32:00,
2013-03-05 02:33:00,47.0,33.4,30.09,NNE,22,0.0,0.0,59,0.00,,SKC,0.00,VWS V14.01,2013-03-05 09:33:00,
2013-03-05 02:34:00,47.0,33.4,30.09,East,90,0.0,0.0,59,0.00,,SKC,0.00,VWS V14.01,2013-03-05 09:34:00,
2013-03-05 02:35:00,47.0,33.4,30.09,ESE,112,0.0,0.0,59,0.00,,SKC,0.00,VWS V14.01,2013-03-05 09:35:00,
2013-03-05 02:36:00,47.0,33.4,30.09,ESE,112,0.0,0.0,59,0.00,,SKC,0.00,VWS V14.01,2013-03-05 09:36:00,
2013-03-05 02:37:00,47.0,33.4,30.09,ESE,112,0.0,0.0,59,0.00,,SKC,0.00,VWS V14.01,2013-03-05 09:37:00,
2013-03-05 02:38:00,47.0,33.4,30.09,ESE,112,0.0,0.0,59,0.00,,SKC,0.00,VWS V14.01,2013-03-05 09:38:00,
2013-03-05 02:39:00,47.0,33.4,30.09,ESE,112,0.0,0.0,59,0.00,,SKC,0.00,VWS V14.01,2013-03-05 09:39:00,
2013-03-05 02:40:00,47.0,33.4,30.09,ESE,112,0.0,0.0,59,0.00,,SKC,0.00,VWS V14.01,2013-03-05 09:40:00,
2013-03-05 02:41:00,47.0,33.4,30.09,ESE,112,0.0,0.0,59,0.00,,SKC,0.00,VWS V14.01,2013-03-05 09:41:00,
2013-03-05 02:42:00,47.0,33.4,30.09,ESE,112,0.0,0.0,59,0.00,,SKC,0.00,VWS V14.01,2013-03-05 09:42:00,
2013-03-05 02:43:00,47.0,33.4,30.09,ESE,112,0.0,0.0,59,0.00,,SKC,0.00,VWS V14.01,2013-03-05 09:43:00,
2013-03-05 02:44:00,47.0,33.4,30.09,ESE,112,0.0,0.0,59,0.00,,SKC,0.00,VWS V14.01,2013-03-05 09:44:00,
2013-03-05 02:45:00,47.0,33.4,30.09,ESE,112,0.0,0.0,59,0.00,,SKC,0.00,VWS V14.01,2013-03-05 09:45:00,
2013-03-05 02:46:00,47.0,33.4,30.09,ESE,112,0.0,0.0,59,0.00,,SKC,0.00,VWS V14.01,2013-03-05 09:46:00,
2013-03-05 02:47:00,47.0,33.8,30.09,East,90,0.0,0.0,60,0.00,,SKC,0.00,VWS V14.01,2013-03-05 09:47:00,
2013-03-05 02:48:00,47.0,33.8,30.09,ESE,112,0.0,0.0,60,0.00,,SKC,0.00,VWS V14.01,2013-03-05 09:48:00,
2013-03-05 02:49:00,47.0,33.8,30.09,East,90,0.0,0.0,60,0.00,,SKC,0.00,VWS V14.01,2013-03-05 09:49:00,
2013-03-05 02:50:00,47.0,33.8,30.09,East,90,0.0,0.0,60,0.00,,SKC,0.00,VWS V14.01,2013-03-05 09:50:00,
2013-03-05 02:51:00,47.0,33.8,30.09,East,90,0.0,0.0,60,0.00,,SKC,0.00,VWS V14.01,2013-03-05 09:51:00,
2013-03-05 02:52:00,47.0,33.4,30.09,East,90,0.0,0.0,59,0.00,,SKC,0.00,VWS V14.01,2013-03-05 09:52:00,
2013-03-05 02:53:00,47.0,33.4,30.09,East,90,0.0,0.0,59,0.00,,SKC,0.00,VWS V14.01,2013-03-05 09:53:00,
2013-03-05 02:54:00,47.0,33.4,30.09,East,90,0.0,0.0,59,0.00,,SKC,0.00,VWS V14.01,2013-03-05 09:54:00,
2013-03-05 02:55:00,47.0,33.4,30.09,East,90,0.0,0.0,59,0.00,,SKC,0.00,VWS V14.01,2013-03-05 09:55:00,
2013-03-05 02:56:00,47.0,33.4,30.09,East,90,0.0,0.0,59,0.00,,SKC,0.00,VWS V14.01,2013-03-05 09:56:00,
2013-03-05 02:57:00,47.0,33.4,30.09,East,90,0.0,0.0,59,0.00,,SKC,0.00,VWS V14.01,2013-03-05 09:57:00,
2013-03-05 02:58:00,47.0,33.4,30.09,East,90,0.0,0.0,59,0.00,,SKC,0.00,VWS V14.01,2013-03-05 09:58:00,
2013-03-05 02:59:00,47.0,33.4,30.09,East,90,0.0,0.0,59,0.00,,SKC,0.00,VWS V14.01,2013-03-05 09:59:00,
2013-03-05 03:00:00,47.0,33.4,30.09,SE,135,2.0,3.0,59,0.00,,SKC,0.00,VWS V14.01,2013-03-05 10:00:00,
2013-03-05 03:01:00,47.0,33.4,30.09,SE,135,0.0,1.0,59,0.00,,SKC,0.00,VWS V14.01,2013-03-05 10:01:00,
2013-03-05 03:02:00,47.0,33.4,30.09,ENE,68,0.0,0.0,59,0.00,,SKC,0.00,VWS V14.01,2013-03-05 10:02:00,
2013-03-05 03:03:00,47.0,33.4,30.09,SE,135,0.0,0.0,59,0.00,,SKC,0.00,VWS V14.01,2013-03-05 10:03:00,
2013-03-05 03:04:00,47.0,33.4,30.09,ENE,68,0.0,0.0,59,0.00,,SKC,0.00,VWS V14.01,2013-03-05 10:04:00,
2013-03-05 03:05:00,47.0,33.8,30.09,ENE,68,0.0,0.0,60,0.00,,SKC,0.00,VWS V14.01,2013-03-05 10:05:00,
2013-03-05 03:06:00,47.0,33.8,30.09,NE,45,0.0,0.0,60,0.00,,SKC,0.00,VWS V14.01,2013-03-05 10:06:00,
2013-03-05 03:07:00,46.0,32.9,30.08,NE,45,0.0,0.0,60,0.00,,SKC,0.00,VWS V14.01,2013-03-05 10:07:00,
2013-03-05 03:08:00,46.0,32.9,30.09,NE,45,0.0,0.0,60,0.00,,SKC,0.00,VWS V14.01,2013-03-05 10:08:00,
2013-03-05 03:09:00,46.0,32.9,30.08,NE,45,0.0,0.0,60,0.00,,SKC,0.00,VWS V14.01,2013-03-05 10:09:00,
2013-03-05 03:10:00,46.0,32.9,30.09,NNE,22,0.0,0.0,60,0.00,,SKC,0.00,VWS V14.01,2013-03-05 10:10:00,
2013-03-05 03:11:00,46.0,32.9,30.09,NNE,22,0.0,0.0,60,0.00,,SKC,0.00,VWS V14.01,2013-03-05 10:11:00,
2013-03-05 03:12:00,46.0,33.3,30.09,North,0,0.0,0.0,61,0.00,,SKC,0.00,VWS V14.01,2013-03-05 10:12:00,
2013-03-05 03:13:00,46.0,33.3,30.09,NNE,22,0.0,0.0,61,0.00,,SKC,0.00,VWS V14.01,2013-03-05 10:13:00,
2013-03-05 03:14:00,46.0,33.3,30.09,North,0,0.0,0.0,61,0.00,,SKC,0.00,VWS V14.01,2013-03-05 10:14:00,
2013-03-05 03:15:00,46.0,33.3,30.09,North,0,0.0,0.0,61,0.00,,SKC,0.00,VWS V14.01,2013-03-05 10:15:00,
2013-03-05 03:16:00,46.0,33.3,30.09,NNE,22,0.0,0.0,61,0.00,,SKC,0.00,VWS V14.01,2013-03-05 10:16:00,
2013-03-05 03:17:00,46.0,33.3,30.09,ENE,68,1.0,3.0,61,0.00,,SKC,0.00,VWS V14.01,2013-03-05 10:17:00,
2013-03-05 03:18:00,46.0,33.3,30.09,ENE,68,3.0,3.0,61,0.00,,SKC,0.00,VWS V14.01,2013-03-05 10:18:00,
2013-03-05 03:19:00,46.0,33.3,30.09,ENE,68,1.0,3.0,61,0.00,,SKC,0.00,VWS V14.01,2013-03-05 10:19:00,
2013-03-05 03:20:00,46.0,33.3,30.09,NNE,22,2.0,3.0,61,0.00,,SKC,0.00,VWS V14.01,2013-03-05 10:20:00,
2013-03-05 03:21:00,46.0,33.3,30.09,North,0,3.0,4.0,61,0.00,,SKC,0.00,VWS V14.01,2013-03-05 10:21:00,
2013-03-05 03:22:00,46.0,33.3,30.09,NNE,22,2.0,3.0,61,0.00,,SKC,0.00,VWS V14.01,2013-03-05 10:22:00,
2013-03-05 03:23:00,46.0,33.3,30.08,North,0,2.0,3.0,61,0.00,,SKC,0.00,VWS V14.01,2013-03-05 10:23:00,
2013-03-05 03:24:00,46.0,33.3,30.09,NNE,22,2.0,3.0,61,0.00,,SKC,0.00,VWS V14.01,2013-03-05 10:24:00,
2013-03-05 03:25:00,46.0,33.3,30.09,NNE,22,0.0,0.0,61,0.00,,SKC,0.00,VWS V14.01,2013-03-05 10:25:00,
2013-03-05 03:26:00,46.0,33.3,30.09,NNE,22,0.0,0.0,61,0.00,,SKC,0.00,VWS V14.01,2013-03-05 10:26:00,
2013-03-05 03:27:00,46.0,33.3,30.09,NNE,22,0.0,0.0,61,0.00,,SKC,0.00,VWS V14.01,2013-03-05 10:27:00,
2013-03-05 03:28:00,46.0,33.3,30.09,NNE,22,0.0,0.0,61,0.00,,SKC,0.00,VWS V14.01,2013-03-05 10:28:00,
2013-03-05 03:29:00,46.0,33.3,30.09,NNE,22,0.0,0.0,61,0.00,,SKC,0.00,VWS V14.01,2013-03-05 10:29:00,
2013-03-05 03:30:00,46.0,33.3,30.09,NNE,22,0.0,0.0,61,0.00,,SKC,0.00,VWS V14.01,2013-03-05 10:30:00,
2013-03-05 03:31:00,46.0,33.3,30.09,NNE,22,0.0,1.0,61,0.00,,SKC,0.00,VWS V14.01,2013-03-05 10:31:00,
2013-03-05 03:32:00,47.0,33.8,30.09,NNE,22,0.0,0.0,60,0.00,,SKC,0.00,VWS V14.01,2013-03-05 10:32:00,
2013-03-05 03:33:00,47.0,33.8,30.09,NNE,22,0.0,0.0,60,0.00,,SKC,0.00,VWS V14.01,2013-03-05 10:33:00,
2013-03-05 03:34:00,47.0,33.8,30.09,NNE,22,0.0,0.0,60,0.00,,SKC,0.00,VWS V14.01,2013-03-05 10:34:00,
2013-03-05 03:35:00,47.0,33.8,30.09,NNE,22,0.0,0.0,60,0.00,,SKC,0.00,VWS V14.01,2013-03-05 10:35:00,
2013-03-05 03:36:00,46.0,32.9,30.09,NNE,22,0.0,0.0,60,0.00,,SKC,0.00,VWS V14.01,2013-03-05 10:36:00,
2013-03-05 03:37:00,46.0,33.3,30.09,NE,45,0.0,0.0,61,0.00,,SKC,0.00,VWS V14.01,2013-03-05 10:37:00,
2013-03-05 03:38:00,46.0,33.3,30.09,NE,45,0.0,0.0,61,0.00,,SKC,0.00,VWS V14.01,2013-03-05 10:38:00,
2013-03-05 03:39:00,46.0,33.3,30.09,NE,45,0.0,0.0,61,0.00,,SKC,0.00,VWS V14.01,2013-03-05 10:39:00,
2013-03-05 03:40:00,46.0,33.3,30.09,NE,45,0.0,0.0,61,0.00,,SKC,0.00,VWS V14.01,2013-03-05 10:40:00,
2013-03-05 03:41:00,46.0,33.3,30.09,NE,45,0.0,0.0,61,0.00,,SKC,0.00,VWS V14.01,2013-03-05 10:41:00,
2013-03-05 03:42:00,46.0,33.3,30.09,NNE,22,0.0,0.0,61,0.00,,SKC,0.00,VWS V14.01,2013-03-05 10:42:00,
2013-03-05 03:43:00,46.0,33.3,30.09,NE,45,0.0,0.0,61,0.00,,SKC,0.00,VWS V14.01,2013-03-05 10:43:00,
2013-03-05 03:44:00,46.0,33.3,30.09,NNE,22,0.0,0.0,61,0.00,,SKC,0.00,VWS V14.01,2013-03-05 10:44:00,
2013-03-05 03:45:00,46.0,33.3,30.09,NNE,22,0.0,0.0,61,0.00,,SKC,0.00,VWS V14.01,2013-03-05 10:45:00,
2013-03-05 03:46:00,46.0,33.3,30.09,NNE,22,0.0,0.0,61,0.00,,SKC,0.00,VWS V14.01,2013-03-05 10:46:00,
2013-03-05 03:47:00,46.0,33.3,30.09,NNE,22,0.0,0.0,61,0.00,,SKC,0.00,VWS V14.01,2013-03-05 10:47:00,
2013-03-05 03:48:00,46.0,33.3,30.09,NNE,22,0.0,0.0,61,0.00,,SKC,0.00,VWS V14.01,2013-03-05 10:48:00,
2013-03-05 03:49:00,46.0,33.3,30.09,NNE,22,0.0,0.0,61,0.00,,SKC,0.00,VWS V14.01,2013-03-05 10:49:00,
2013-03-05 03:50:00,46.0,33.3,30.09,NE,45,0.0,1.0,61,0.00,,SKC,0.00,VWS V14.01,2013-03-05 10:50:00,
2013-03-05 03:51:00,46.0,33.3,30.09,ENE,68,2.0,3.0,61,0.00,,SKC,0.00,VWS V14.01,2013-03-05 10:51:00,
2013-03-05 03:52:00,46.0,33.7,30.08,NE,45,0.0,0.0,62,0.00,,SKC,0.00,VWS V14.01,2013-03-05 10:52:00,
2013-03-05 03:53:00,46.0,33.7,30.09,NE,45,0.0,0.0,62,0.00,,SKC,0.00,VWS V14.01,2013-03-05 10:53:00,
2013-03-05 03:54:00,46.0,33.7,30.08,NE,45,0.0,0.0,62,0.00,,SKC,0.00,VWS V14.01,2013-03-05 10:54:00,
2013-03-05 03:55:00,46.0,33.7,30.08,NE,45,1.0,1.0,62,0.00,,SKC,0.00,VWS V14.01,2013-03-05 10:55:00,
2013-03-05 03:56:00,46.0,33.7,30.09,NE,45,3.0,3.0,62,0.00,,SKC,0.00,VWS V14.01,2013-03-05 10:56:00,
2013-03-05 03:57:00,46.0,33.7,30.08,NE,45,0.0,0.0,62,0.00,,SKC,0.00,VWS V14.01,2013-03-05 10:57:00,
2013-03-05 03:58:00,46.0,33.7,30.08,NE,45,1.0,1.0,62,0.00,,SKC,0.00,VWS V14.01,2013-03-05 10:58:00,
2013-03-05 03:59:00,46.0,33.7,30.08,NE,45,0.0,0.0,62,0.00,,SKC,0.00,VWS V14.01,2013-03-05 10:59:00,
2013-03-05 04:00:00,46.0,33.7,30.09,NE,45,0.0,0.0,62,0.00,,SKC,0.00,VWS V14.01,2013-03-05 11:00:00,
2013-03-05 04:01:00,46.0,33.7,30.08,NE,45,0.0,0.0,62,0.00,,SKC,0.00,VWS V14.01,2013-03-05 11:01:00,
2013-03-05 04:02:00,46.0,33.7,30.08,NNE,22,4.0,4.0,62,0.00,,SKC,0.00,VWS V14.01,2013-03-05 11:02:00,
2013-03-05 04:03:00,46.0,33.7,30.08,North,0,3.0,4.0,62,0.00,,SKC,0.00,VWS V14.01,2013-03-05 11:03:00,
2013-03-05 04:04:00,46.0,33.7,30.08,NNE,22,4.0,4.0,62,0.00,,SKC,0.00,VWS V14.01,2013-03-05 11:04:00,
2013-03-05 04:05:00,46.0,33.7,30.08,NNE,22,3.0,4.0,62,0.00,,SKC,0.00,VWS V14.01,2013-03-05 11:05:00,
2013-03-05 04:06:00,46.0,33.7,30.08,North,0,3.0,3.0,62,0.00,,SKC,0.00,VWS V14.01,2013-03-05 11:06:00,
2013-03-05 04:07:00,46.0,33.7,30.08,ENE,68,3.0,5.0,62,0.00,,SKC,0.00,VWS V14.01,2013-03-05 11:07:00,
2013-03-05 04:08:00,46.0,33.7,30.08,East,90,3.0,3.0,62,0.00,,SKC,0.00,VWS V14.01,2013-03-05 11:08:00,
2013-03-05 04:09:00,46.0,33.7,30.08,ENE,68,3.0,5.0,62,0.00,,SKC,0.00,VWS V14.01,2013-03-05 11:09:00,
2013-03-05 04:10:00,46.0,33.7,30.08,NNE,22,1.0,1.0,62,0.00,,SKC,0.00,VWS V14.01,2013-03-05 11:10:00,
2013-03-05 04:11:00,46.0,33.7,30.08,NNE,22,2.0,3.0,62,0.00,,SKC,0.00,VWS V14.01,2013-03-05 11:11:00,
2013-03-05 04:12:00,46.0,33.7,30.08,NNE,22,3.0,5.0,62,0.00,,SKC,0.00,VWS V14.01,2013-03-05 11:12:00,
2013-03-05 04:13:00,46.0,33.7,30.08,NE,45,2.0,2.0,62,0.00,,SKC,0.00,VWS V14.01,2013-03-05 11:13:00,
2013-03-05 04:14:00,46.0,33.7,30.08,NNE,22,3.0,5.0,62,0.00,,SKC,0.00,VWS V14.01,2013-03-05 11:14:00,
2013-03-05 04:15:00,46.0,33.7,30.08,NE,45,3.0,3.0,62,0.00,,SKC,0.00,VWS V14.01,2013-03-05 11:15:00,
2013-03-05 04:16:00,46.0,33.7,30.08,NNE,22,3.0,3.0,62,0.00,,SKC,0.00,VWS V14.01,2013-03-05 11:16:00,
2013-03-05 04:17:00,46.0,33.7,30.08,NNE,22,4.0,5.0,62,0.00,,SKC,0.00,VWS V14.01,2013-03-05 11:17:00,
2013-03-05 04:18:00,46.0,33.7,30.08,NNE,22,5.0,5.0,62,0.00,,SKC,0.00,VWS V14.01,2013-03-05 11:18:00,
2013-03-05 04:19:00,46.0,33.7,30.08,NNE,22,4.0,5.0,62,0.00,,SKC,0.00,VWS V14.01,2013-03-05 11:19:00,
2013-03-05 04:20:00,46.0,33.7,30.08,North,0,3.0,4.0,62,0.00,,SKC,0.00,VWS V14.01,2013-03-05 11:20:00,
2013-03-05 04:21:00,46.0,33.7,30.08,NE,45,3.0,5.0,62,0.00,,SKC,0.00,VWS V14.01,2013-03-05 11:21:00,
2013-03-05 04:22:00,46.0,33.7,30.09,NNE,22,3.0,4.0,62,0.00,,SKC,0.00,VWS V14.01,2013-03-05 11:22:00,
2013-03-05 04:23:00,46.0,33.7,30.09,NNE,22,3.0,3.0,62,0.00,,SKC,0.00,VWS V14.01,2013-03-05 11:23:00,
2013-03-05 04:24:00,46.0,33.7,30.09,NNE,22,3.0,4.0,62,0.00,,SKC,0.00,VWS V14.01,2013-03-05 11:24:00,
2013-03-05 04:25:00,46.0,33.7,30.09,NNE,22,3.0,4.0,62,0.00,,SKC,0.00,VWS V14.01,2013-03-05 11:25:00,
2013-03-05 04:26:00,46.0,33.7,30.09,NNE,22,3.0,4.0,62,0.00,,SKC,0.00,VWS V14.01,2013-03-05 11:26:00,
2013-03-05 04:27:00,45.0,32.8,30.08,North,0,3.0,4.0,62,0.00,,SKC,0.00,VWS V14.01,2013-03-05 11:27:00,
2013-03-05 04:28:00,46.0,33.7,30.08,North,0,4.0,4.0,62,0.00,,SKC,0.00,VWS V14.01,2013-03-05 11:28:00,
2013-03-05 04:29:00,45.0,32.8,30.08,North,0,3.0,4.0,62,0.00,,SKC,0.00,VWS V14.01,2013-03-05 11:29:00,
2013-03-05 04:30:00,45.0,32.8,30.09,North,0,5.0,5.0,62,0.00,,SKC,0.00,VWS V14.01,2013-03-05 11:30:00,
2013-03-05 04:31:00,46.0,33.7,30.09,NNE,22,2.0,3.0,62,0.00,,SKC,0.00,VWS V14.01,2013-03-05 11:31:00,
2013-03-05 04:32:00,45.0,32.8,30.09,NE,45,0.0,0.0,62,0.00,,SKC,0.00,VWS V14.01,2013-03-05 11:32:00,
2013-03-05 04:33:00,45.0,32.8,30.09,NE,45,1.0,1.0,62,0.00,,SKC,0.00,VWS V14.01,2013-03-05 11:33:00,
2013-03-05 04:34:00,45.0,32.8,30.09,NE,45,0.0,0.0,62,0.00,,SKC,0.00,VWS V14.01,2013-03-05 11:34:00,
2013-03-05 04:35:00,45.0,33.2,30.09,ENE,68,0.0,0.0,63,0.00,,SKC,0.00,VWS V14.01,2013-03-05 11:35:00,
2013-03-05 04:36:00,45.0,33.2,30.09,ENE,68,0.0,0.0,63,0.00,,SKC,0.00,VWS V14.01,2013-03-05 11:36:00,
2013-03-05 04:37:00,45.0,33.2,30.09,NE,45,0.0,0.0,63,0.00,,SKC,0.00,VWS V14.01,2013-03-05 11:37:00,
2013-03-05 04:38:00,45.0,33.2,30.09,NE,45,0.0,0.0,63,0.00,,SKC,0.00,VWS V14.01,2013-03-05 11:38:00,
2013-03-05 04:39:00,45.0,33.2,30.09,NE,45,0.0,0.0,63,0.00,,SKC,0.00,VWS V14.01,2013-03-05 11:39:00,
2013-03-05 04:40:00,45.0,33.2,30.09,NE,45,0.0,0.0,63,0.00,,SKC,0.00,VWS V14.01,2013-03-05 11:40:00,
2013-03-05 04:41:00,45.0,33.2,30.09,NE,45,0.0,0.0,63,0.00,,SKC,0.00,VWS V14.01,2013-03-05 11:41:00,
2013-03-05 04:42:00,45.0,33.6,30.08,NE,45,0.0,0.0,64,0.00,,SKC,0.00,VWS V14.01,2013-03-05 11:42:00,
2013-03-05 04:43:00,45.0,33.2,30.08,NE,45,0.0,0.0,63,0.00,,SKC,0.00,VWS V14.01,2013-03-05 11:43:00,
2013-03-05 04:44:00,45.0,33.6,30.08,NE,45,0.0,0.0,64,0.00,,SKC,0.00,VWS V14.01,2013-03-05 11:44:00,
2013-03-05 04:45:00,45.0,33.6,30.08,ENE,68,0.0,0.0,64,0.00,,SKC,0.00,VWS V14.01,2013-03-05 11:45:00,
2013-03-05 04:46:00,45.0,33.6,30.08,ENE,68,0.0,0.0,64,0.00,,SKC,0.00,VWS V14.01,2013-03-05 11:46:00,
2013-03-05 04:47:00,45.0,33.6,30.08,ENE,68,0.0,0.0,64,0.00,,SKC,0.00,VWS V14.01,2013-03-05 11:47:00,
2013-03-05 04:48:00,45.0,33.6,30.08,ENE,68,0.0,0.0,64,0.00,,SKC,0.00,VWS V14.01,2013-03-05 11:48:00,
2013-03-05 04:49:00,45.0,33.6,30.08,ENE,68,0.0,0.0,64,0.00,,SKC,0.00,VWS V14.01,2013-03-05 11:49:00,
2013-03-05 04:50:00,45.0,33.6,30.08,ENE,68,0.0,0.0,64,0.00,,SKC,0.00,VWS V14.01,2013-03-05 11:50:00,
2013-03-05 04:51:00,45.0,33.6,30.08,ENE,68,0.0,0.0,64,0.00,,SKC,0.00,VWS V14.01,2013-03-05 11:51:00,
2013-03-05 04:52:00,45.0,33.6,30.08,ENE,68,0.0,0.0,64,0.00,,SKC,0.00,VWS V14.01,2013-03-05 11:52:00,
2013-03-05 04:53:00,45.0,33.6,30.08,ENE,68,0.0,0.0,64,0.00,,SKC,0.00,VWS V14.01,2013-03-05 11:53:00,
2013-03-05 04:54:00,45.0,33.6,30.08,ENE,68,0.0,0.0,64,0.00,,SKC,0.00,VWS V14.01,2013-03-05 11:54:00,
2013-03-05 04:55:00,45.0,33.6,30.08,ENE,68,0.0,0.0,64,0.00,,SKC,0.00,VWS V14.01,2013-03-05 11:55:00,
2013-03-05 04:56:00,45.0,33.6,30.08,ENE,68,0.0,0.0,64,0.00,,SKC,0.00,VWS V14.01,2013-03-05 11:56:00,
2013-03-05 04:57:00,44.0,33.0,30.08,ENE,68,0.0,0.0,65,0.00,,SKC,0.00,VWS V14.01,2013-03-05 11:57:00,
2013-03-05 04:58:00,44.0,33.0,30.08,ENE,68,0.0,0.0,65,0.00,,SKC,0.00,VWS V14.01,2013-03-05 11:58:00,
2013-03-05 04:59:00,44.0,33.0,30.08,ENE,68,0.0,0.0,65,0.00,,SKC,0.00,VWS V14.01,2013-03-05 11:59:00,
2013-03-05 05:00:00,44.0,33.0,30.08,ENE,68,0.0,0.0,65,0.00,,SKC,0.00,VWS V14.01,2013-03-05 12:00:00,
2013-03-05 05:01:00,44.0,33.0,30.08,ENE,68,0.0,0.0,65,0.00,,SKC,0.00,VWS V14.01,2013-03-05 12:01:00,
2013-03-05 05:02:00,44.0,33.0,30.08,NE,45,0.0,0.0,65,0.00,,SKC,0.00,VWS V14.01,2013-03-05 12:02:00,
2013-03-05 05:03:00,44.0,33.0,30.08,ENE,68,0.0,0.0,65,0.00,,SKC,0.00,VWS V14.01,2013-03-05 12:03:00,
2013-03-05 05:04:00,44.0,33.0,30.08,NE,45,0.0,0.0,65,0.00,,SKC,0.00,VWS V14.01,2013-03-05 12:04:00,
2013-03-05 05:05:00,44.0,33.0,30.08,ENE,68,0.0,0.0,65,0.00,,SKC,0.00,VWS V14.01,2013-03-05 12:05:00,
2013-03-05 05:06:00,44.0,33.0,30.08,East,90,0.0,0.0,65,0.00,,SKC,0.00,VWS V14.01,2013-03-05 12:06:00,
2013-03-05 05:07:00,44.0,33.4,30.08,North,0,1.0,1.0,66,0.00,,SKC,0.00,VWS V14.01,2013-03-05 12:07:00,
2013-03-05 05:08:00,44.0,33.4,30.08,NE,45,0.0,0.0,66,0.00,,SKC,0.00,VWS V14.01,2013-03-05 12:08:00,
2013-03-05 05:09:00,44.0,33.4,30.08,North,0,1.0,1.0,66,0.00,,SKC,0.00,VWS V14.01,2013-03-05 12:09:00,
2013-03-05 05:10:00,44.0,33.4,30.08,North,0,0.0,0.0,66,0.00,,SKC,0.00,VWS V14.01,2013-03-05 12:10:00,
2013-03-05 05:11:00,44.0,33.4,30.08,North,0,0.0,0.0,66,0.00,,SKC,0.00,VWS V14.01,2013-03-05 12:11:00,
2013-03-05 05:12:00,43.0,32.8,30.08,East,90,0.0,0.0,67,0.00,,SKC,0.00,VWS V14.01,2013-03-05 12:12:00,
2013-03-05 05:13:00,44.0,33.8,30.08,North,0,0.0,0.0,67,0.00,,SKC,0.00,VWS V14.01,2013-03-05 12:13:00,
2013-03-05 05:14:00,43.0,32.8,30.08,East,90,0.0,0.0,67,0.00,,SKC,0.00,VWS V14.01,2013-03-05 12:14:00,
2013-03-05 05:15:00,43.0,32.8,30.08,East,90,3.0,5.0,67,0.00,,SKC,0.00,VWS V14.01,2013-03-05 12:15:00,
2013-03-05 05:16:00,43.0,32.8,30.08,NE,45,2.0,3.0,67,0.00,,SKC,0.00,VWS V14.01,2013-03-05 12:16:00,
2013-03-05 05:17:00,43.0,32.8,30.08,North,0,0.0,1.0,67,0.00,,SKC,0.00,VWS V14.01,2013-03-05 12:17:00,
2013-03-05 05:18:00,43.0,32.8,30.08,North,0,1.0,3.0,67,0.00,,SKC,0.00,VWS V14.01,2013-03-05 12:18:00,
2013-03-05 05:19:00,43.0,32.8,30.08,North,0,0.0,1.0,67,0.00,,SKC,0.00,VWS V14.01,2013-03-05 12:19:00,
2013-03-05 05:20:00,43.0,32.8,30.08,North,0,0.0,0.0,67,0.00,,SKC,0.00,VWS V14.01,2013-03-05 12:20:00,
2013-03-05 05:21:00,43.0,32.8,30.09,ESE,112,0.0,0.0,67,0.00,,SKC,0.00,VWS V14.01,2013-03-05 12:21:00,
2013-03-05 05:22:00,43.0,32.8,30.09,ESE,112,0.0,0.0,67,0.00,,SKC,0.00,VWS V14.01,2013-03-05 12:22:00,
2013-03-05 05:23:00,43.0,32.8,30.09,ESE,112,0.0,0.0,67,0.00,,SKC,0.00,VWS V14.01,2013-03-05 12:23:00,
2013-03-05 05:24:00,43.0,32.8,30.09,ESE,112,0.0,0.0,67,0.00,,SKC,0.00,VWS V14.01,2013-03-05 12:24:00,
2013-03-05 05:25:00,43.0,32.8,30.09,ENE,68,0.0,0.0,67,0.00,,SKC,0.00,VWS V14.01,2013-03-05 12:25:00,
2013-03-05 05:26:00,43.0,32.8,30.09,ENE,68,0.0,0.0,67,0.00,,SKC,0.00,VWS V14.01,2013-03-05 12:26:00,
2013-03-05 05:27:00,44.0,33.8,30.09,NNE,22,0.0,0.0,67,0.00,,SKC,0.00,VWS V14.01,2013-03-05 12:27:00,
2013-03-05 05:28:00,43.0,32.8,30.09,NNE,22,0.0,0.0,67,0.00,,SKC,0.00,VWS V14.01,2013-03-05 12:28:00,
2013-03-05 05:29:00,44.0,33.8,30.09,NNE,22,0.0,0.0,67,0.00,,SKC,0.00,VWS V14.01,2013-03-05 12:29:00,
2013-03-05 05:30:00,44.0,33.8,30.09,NNE,22,0.0,0.0,67,0.00,,SKC,0.00,VWS V14.01,2013-03-05 12:30:00,
2013-03-05 05:31:00,44.0,33.8,30.09,NNE,22,0.0,0.0,67,0.00,,SKC,0.00,VWS V14.01,2013-03-05 12:31:00,
2013-03-05 05:32:00,44.0,33.4,30.09,NNE,22,0.0,0.0,66,0.00,,SKC,0.00,VWS V14.01,2013-03-05 12:32:00,
2013-03-05 05:33:00,44.0,33.4,30.09,NNE,22,0.0,0.0,66,0.00,,SKC,0.00,VWS V14.01,2013-03-05 12:33:00,
2013-03-05 05:34:00,44.0,33.4,30.09,NNE,22,0.0,0.0,66,0.00,,SKC,0.00,VWS V14.01,2013-03-05 12:34:00,
2013-03-05 05:35:00,44.0,33.4,30.09,NNE,22,0.0,0.0,66,0.00,,SKC,0.00,VWS V14.01,2013-03-05 12:35:00,
2013-03-05 05:36:00,44.0,33.4,30.09,NNE,22,0.0,0.0,66,0.00,,SKC,0.00,VWS V14.01,2013-03-05 12:36:00,
2013-03-05 05:37:00,44.0,33.0,30.09,NNE,22,4.0,4.0,65,0.00,,SKC,0.00,VWS V14.01,2013-03-05 12:37:00,
2013-03-05 05:38:00,44.0,33.0,30.09,NNE,22,0.0,0.0,65,0.00,,SKC,0.00,VWS V14.01,2013-03-05 12:38:00,
2013-03-05 05:39:00,44.0,33.0,30.09,NNE,22,4.0,4.0,65,0.00,,SKC,0.00,VWS V14.01,2013-03-05 12:39:00,
2013-03-05 05:40:00,44.0,33.0,30.09,NE,45,3.0,3.0,65,0.00,,SKC,0.00,VWS V14.01,2013-03-05 12:40:00,
2013-03-05 05:41:00,45.0,34.0,30.09,NNE,22,3.0,3.0,65,0.00,,SKC,0.00,VWS V14.01,2013-03-05 12:41:00,
2013-03-05 05:42:00,45.0,33.6,30.09,NE,45,0.0,0.0,64,0.00,,SKC,0.00,VWS V14.01,2013-03-05 12:42:00,
2013-03-05 05:43:00,45.0,33.6,30.09,NNE,22,0.0,0.0,64,0.00,,SKC,0.00,VWS V14.01,2013-03-05 12:43:00,
2013-03-05 05:44:00,45.0,33.6,30.09,NE,45,0.0,0.0,64,0.00,,SKC,0.00,VWS V14.01,2013-03-05 12:44:00,
2013-03-05 05:45:00,45.0,33.6,30.09,NE,45,0.0,0.0,64,0.00,,SKC,0.00,VWS V14.01,2013-03-05 12:45:00,
2013-03-05 05:46:00,45.0,33.6,30.09,NNE,22,0.0,0.0,64,0.00,,SKC,0.00,VWS V14.01,2013-03-05 12:46:00,
2013-03-05 05:47:00,45.0,33.6,30.09,NNE,22,3.0,4.0,64,0.00,,SKC,0.00,VWS V14.01,2013-03-05 12:47:00,
2013-03-05 05:48:00,45.0,33.6,30.09,NNE,22,3.0,3.0,64,0.00,,SKC,0.00,VWS V14.01,2013-03-05 12:48:00,
2013-03-05 05:49:00,45.0,33.6,30.09,NNE,22,3.0,4.0,64,0.00,,SKC,0.00,VWS V14.01,2013-03-05 12:49:00,
2013-03-05 05:50:00,45.0,33.2,30.09,NNE,22,3.0,3.0,63,0.00,,SKC,0.00,VWS V14.01,2013-03-05 12:50:00,
2013-03-05 05:51:00,45.0,33.2,30.09,NNE,22,2.0,2.0,63,0.00,,SKC,0.00,VWS V14.01,2013-03-05 12:51:00,
2013-03-05 05:52:00,45.0,33.2,30.09,NE,45,0.0,0.0,63,0.00,,SKC,0.00,VWS V14.01,2013-03-05 12:52:00,
2013-03-05 05:53:00,45.0,33.2,30.09,North,0,0.0,1.0,63,0.00,,SKC,0.00,VWS V14.01,2013-03-05 12:53:00,
2013-03-05 05:54:00,45.0,33.2,30.09,NE,45,0.0,0.0,63,0.00,,SKC,0.00,VWS V14.01,2013-03-05 12:54:00,
2013-03-05 05:55:00,45.0,32.8,30.09,NE,45,0.0,1.0,62,0.00,,SKC,0.00,VWS V14.01,2013-03-05 12:55:00,
2013-03-05 05:56:00,45.0,32.8,30.09,NE,45,0.0,1.0,62,0.00,,SKC,0.00,VWS V14.01,2013-03-05 12:56:00,
2013-03-05 05:57:00,45.0,32.8,30.09,NNE,22,3.0,3.0,62,0.00,,SKC,0.00,VWS V14.01,2013-03-05 12:57:00,
2013-03-05 05:58:00,45.0,32.8,30.09,NNE,22,2.0,2.0,62,0.00,,SKC,0.00,VWS V14.01,2013-03-05 12:58:00,
2013-03-05 05:59:00,45.0,32.8,30.09,NNE,22,3.0,3.0,62,0.00,,SKC,0.00,VWS V14.01,2013-03-05 12:59:00,
2013-03-05 06:00:00,45.0,32.8,30.08,NNE,22,1.0,2.0,62,0.00,,SKC,0.00,VWS V14.01,2013-03-05 13:00:00,
2013-03-05 06:01:00,45.0,32.8,30.08,NNE,22,2.0,2.0,62,0.00,,SKC,0.00,VWS V14.01,2013-03-05 13:01:00,
2013-03-05 06:02:00,46.0,33.7,30.08,NNE,22,5.0,5.0,62,0.00,,SKC,0.00,VWS V14.01,2013-03-05 13:02:00,
2013-03-05 06:03:00,46.0,33.7,30.08,NNE,22,2.0,2.0,62,0.00,,SKC,0.00,VWS V14.01,2013-03-05 13:03:00,
2013-03-05 06:04:00,46.0,33.7,30.08,NNE,22,5.0,5.0,62,0.00,,SKC,0.00,VWS V14.01,2013-03-05 13:04:00,
2013-03-05 06:05:00,46.0,33.3,30.08,NNE,22,1.0,3.0,61,0.00,,SKC,0.00,VWS V14.01,2013-03-05 13:05:00,
2013-03-05 06:06:00,46.0,33.3,30.08,NNE,22,2.0,3.0,61,0.00,,SKC,0.00,VWS V14.01,2013-03-05 13:06:00,
2013-03-05 06:07:00,46.0,33.3,30.09,NNE,22,0.0,0.0,61,0.00,,SKC,0.00,VWS V14.01,2013-03-05 13:07:00,
2013-03-05 06:08:00,46.0,33.3,30.08,NE,45,0.0,1.0,61,0.00,,SKC,0.00,VWS V14.01,2013-03-05 13:08:00,
2013-03-05 06:09:00,46.0,33.3,30.09,NNE,22,0.0,0.0,61,0.00,,SKC,0.00,VWS V14.01,2013-03-05 13:09:00,
2013-03-05 06:10:00,46.0,33.3,30.09,NNE,22,0.0,0.0,61,0.00,,SKC,0.00,VWS V14.01,2013-03-05 13:10:00,
2013-03-05 06:11:00,46.0,33.3,30.08,NNE,22,1.0,2.0,61,0.00,,SKC,0.00,VWS V14.01,2013-03-05 13:11:00,
2013-03-05 06:12:00,46.0,33.3,30.08,NNE,22,3.0,4.0,61,0.00,,SKC,0.00,VWS V14.01,2013-03-05 13:12:00,
2013-03-05 06:13:00,46.0,33.3,30.08,NE,45,2.0,3.0,61,0.00,,SKC,0.00,VWS V14.01,2013-03-05 13:13:00,
2013-03-05 06:14:00,46.0,33.3,30.08,NNE,22,3.0,4.0,61,0.00,,SKC,0.00,VWS V14.01,2013-03-05 13:14:00,
2013-03-05 06:15:00,46.0,33.3,30.08,North,0,4.0,5.0,61,0.00,,SKC,0.00,VWS V14.01,2013-03-05 13:15:00,
2013-03-05 06:16:00,46.0,33.3,30.08,North,0,3.0,3.0,61,0.00,,SKC,0.00,VWS V14.01,2013-03-05 13:16:00,
2013-03-05 06:17:00,46.0,33.3,30.08,North,0,3.0,3.0,61,0.00,,SKC,0.00,VWS V14.01,2013-03-05 13:17:00,
2013-03-05 06:18:00,46.0,33.3,30.08,NE,45,4.0,6.0,61,0.00,,SKC,0.00,VWS V14.01,2013-03-05 13:18:00,
2013-03-05 06:19:00,46.0,33.3,30.08,North,0,3.0,3.0,61,0.00,,SKC,0.00,VWS V14.01,2013-03-05 13:19:00,
2013-03-05 06:20:00,46.0,33.3,30.08,NNE,22,2.0,2.0,61,0.00,,SKC,0.00,VWS V14.01,2013-03-05 13:20:00,
2013-03-05 06:21:00,46.0,33.3,30.08,NNE,22,1.0,3.0,61,0.00,,SKC,0.00,VWS V14.01,2013-03-05 13:21:00,
2013-03-05 06:22:00,46.0,33.3,30.08,NNE,22,3.0,3.0,61,0.00,,SKC,0.00,VWS V14.01,2013-03-05 13:22:00,
2013-03-05 06:23:00,46.0,33.3,30.08,NNE,22,1.0,2.0,61,0.00,,SKC,0.00,VWS V14.01,2013-03-05 13:23:00,
2013-03-05 06:24:00,46.0,33.3,30.08,NNE,22,3.0,3.0,61,0.00,,SKC,0.00,VWS V14.01,2013-03-05 13:24:00,
2013-03-05 06:25:00,45.0,32.4,30.08,NE,45,2.0,3.0,61,0.00,,SKC,0.00,VWS V14.01,2013-03-05 13:25:00,
2013-03-05 06:26:00,45.0,32.4,30.08,NE,45,3.0,4.0,61,0.00,,SKC,0.00,VWS V14.01,2013-03-05 13:26:00,
2013-03-05 06:27:00,45.0,32.8,30.08,NE,45,1.0,2.0,62,0.00,,SKC,0.00,VWS V14.01,2013-03-05 13:27:00,
2013-03-05 06:28:00,45.0,32.8,30.08,NE,45,2.0,3.0,62,0.00,,SKC,0.00,VWS V14.01,2013-03-05 13:28:00,
2013-03-05 06:29:00,45.0,32.8,30.08,NE,45,1.0,2.0,62,0.00,,SKC,0.00,VWS V14.01,2013-03-05 13:29:00,
2013-03-05 06:30:00,45.0,32.8,30.08,NE,45,2.0,2.0,62,0.00,,SKC,0.00,VWS V14.01,2013-03-05 13:30:00,
2013-03-05 06:31:00,45.0,32.8,30.08,NNE,22,3.0,3.0,62,0.00,,SKC,0.00,VWS V14.01,2013-03-05 13:31:00,
2013-03-05 06:32:00,45.0,32.8,30.08,NE,45,3.0,3.0,62,0.00,,SKC,0.00,VWS V14.01,2013-03-05 13:32:00,
2013-03-05 06:33:00,45.0,32.8,30.08,NNE,22,3.0,3.0,62,0.00,,SKC,0.00,VWS V14.01,2013-03-05 13:33:00,
2013-03-05 06:34:00,45.0,32.8,30.08,NE,45,3.0,3.0,62,0.00,,SKC,0.00,VWS V14.01,2013-03-05 13:34:00,
2013-03-05 06:35:00,45.0,32.8,30.08,NE,45,3.0,3.0,62,0.00,,SKC,0.00,VWS V14.01,2013-03-05 13:35:00,
2013-03-05 06:36:00,45.0,32.8,30.08,ENE,68,2.0,3.0,62,0.00,,SKC,0.00,VWS V14.01,2013-03-05 13:36:00,
2013-03-05 06:37:00,45.0,33.2,30.08,NNE,22,3.0,3.0,63,0.00,,SKC,0.00,VWS V14.01,2013-03-05 13:37:00,
2013-03-05 06:38:00,45.0,33.2,30.08,NE,45,2.0,2.0,63,0.00,,SKC,0.00,VWS V14.01,2013-03-05 13:38:00,
2013-03-05 06:39:00,45.0,33.2,30.08,NNE,22,3.0,3.0,63,0.00,,SKC,0.00,VWS V14.01,2013-03-05 13:39:00,
2013-03-05 06:40:00,44.0,32.2,30.08,NE,45,3.0,3.0,63,0.00,,SKC,0.00,VWS V14.01,2013-03-05 13:40:00,
2013-03-05 06:41:00,44.0,32.2,30.08,NNE,22,3.0,3.0,63,0.00,,SKC,0.00,VWS V14.01,2013-03-05 13:41:00,
2013-03-05 06:42:00,44.0,32.6,30.08,North,0,3.0,3.0,64,0.00,,SKC,0.00,VWS V14.01,2013-03-05 13:42:00,
2013-03-05 06:43:00,44.0,32.2,30.08,NE,45,3.0,3.0,63,0.00,,SKC,0.00,VWS V14.01,2013-03-05 13:43:00,
2013-03-05 06:44:00,44.0,32.6,30.08,North,0,3.0,3.0,64,0.00,,SKC,0.00,VWS V14.01,2013-03-05 13:44:00,
2013-03-05 06:45:00,44.0,32.6,30.08,NE,45,1.0,1.0,64,0.00,,SKC,0.00,VWS V14.01,2013-03-05 13:45:00,
2013-03-05 06:46:00,44.0,32.6,30.08,NE,45,1.0,2.0,64,0.00,,SKC,0.00,VWS V14.01,2013-03-05 13:46:00,
2013-03-05 06:47:00,44.0,32.6,30.08,NE,45,3.0,3.0,64,0.00,,SKC,0.00,VWS V14.01,2013-03-05 13:47:00,
2013-03-05 06:48:00,44.0,32.6,30.08,NNE,22,2.0,2.0,64,0.00,,SKC,0.00,VWS V14.01,2013-03-05 13:48:00,
2013-03-05 06:49:00,44.0,32.6,30.08,NE,45,3.0,3.0,64,0.00,,SKC,0.00,VWS V14.01,2013-03-05 13:49:00,
2013-03-05 06:50:00,44.0,32.6,30.09,NE,45,4.0,5.0,64,0.00,,SKC,0.00,VWS V14.01,2013-03-05 13:50:00,
2013-03-05 06:51:00,44.0,32.6,30.09,NE,45,2.0,3.0,64,0.00,,SKC,0.00,VWS V14.01,2013-03-05 13:51:00,
2013-03-05 06:52:00,44.0,32.6,30.08,North,0,5.0,5.0,64,0.00,,SKC,0.00,VWS V14.01,2013-03-05 13:52:00,
2013-03-05 06:53:00,44.0,32.6,30.08,NNE,22,5.0,5.0,64,0.00,,SKC,0.00,VWS V14.01,2013-03-05 13:53:00,
2013-03-05 06:54:00,44.0,32.6,30.08,North,0,5.0,5.0,64,0.00,,SKC,0.00,VWS V14.01,2013-03-05 13:54:00,
2013-03-05 06:55:00,44.0,32.6,30.09,NNE,22,6.0,6.0,64,0.00,,SKC,0.00,VWS V14.01,2013-03-05 13:55:00,
2013-03-05 06:56:00,45.0,33.6,30.08,NNE,22,4.0,5.0,64,0.00,,SKC,0.00,VWS V14.01,2013-03-05 13:56:00,
2013-03-05 06:57:00,45.0,33.2,30.09,ENE,68,3.0,3.0,63,0.00,,SKC,0.00,VWS V14.01,2013-03-05 13:57:00,
2013-03-05 06:58:00,45.0,33.6,30.09,NE,45,1.0,2.0,64,0.00,,SKC,0.00,VWS V14.01,2013-03-05 13:58:00,
2013-03-05 06:59:00,45.0,33.2,30.09,ENE,68,3.0,3.0,63,0.00,,SKC,0.00,VWS V14.01,2013-03-05 13:59:00,
2013-03-05 07:00:00,45.0,33.2,30.09,NNE,22,2.0,3.0,63,0.00,,SKC,0.00,VWS V14.01,2013-03-05 14:00:00,
2013-03-05 07:01:00,45.0,33.2,30.09,NNE,22,3.0,4.0,63,0.00,,SKC,0.00,VWS V14.01,2013-03-05 14:01:00,
2013-03-05 07:02:00,45.0,33.2,30.08,NNE,22,3.0,5.0,63,0.00,,SKC,0.00,VWS V14.01,2013-03-05 14:02:00,
2013-03-05 07:03:00,45.0,33.2,30.09,NNW,338,5.0,6.0,63,0.00,,SKC,0.00,VWS V14.01,2013-03-05 14:03:00,
2013-03-05 07:04:00,45.0,33.2,30.08,NNE,22,3.0,5.0,63,0.00,,SKC,0.00,VWS V14.01,2013-03-05 14:04:00,
2013-03-05 07:05:00,45.0,33.2,30.08,NNE,22,3.0,3.0,63,0.00,,SKC,0.00,VWS V14.01,2013-03-05 14:05:00,
2013-03-05 07:06:00,45.0,33.2,30.09,ENE,68,1.0,2.0,63,0.00,,SKC,0.00,VWS V14.01,2013-03-05 14:06:00,
2013-03-05 07:07:00,45.0,33.2,30.09,ESE,112,3.0,3.0,63,0.00,,SKC,0.00,VWS V14.01,2013-03-05 14:07:00,
2013-03-05 07:08:00,45.0,32.8,30.09,SE,135,4.0,4.0,62,0.00,,SKC,0.00,VWS V14.01,2013-03-05 14:08:00,
2013-03-05 07:09:00,45.0,32.8,30.09,ESE,112,3.0,4.0,62,0.00,,SKC,0.00,VWS V14.01,2013-03-05 14:09:00,
2013-03-05 07:10:00,45.0,32.8,30.09,SE,135,4.0,4.0,62,0.00,,SKC,0.00,VWS V14.01,2013-03-05 14:10:00,
2013-03-05 07:11:00,45.0,32.8,30.09,ESE,112,1.0,2.0,62,0.00,,SKC,0.00,VWS V14.01,2013-03-05 14:11:00,
2013-03-05 07:12:00,45.0,33.2,30.09,ENE,68,1.0,1.0,63,0.00,,SKC,0.00,VWS V14.01,2013-03-05 14:12:00,
2013-03-05 07:13:00,45.0,33.2,30.09,ENE,68,0.0,0.0,63,0.00,,SKC,0.00,VWS V14.01,2013-03-05 14:13:00,
2013-03-05 07:14:00,45.0,33.2,30.09,ENE,68,0.0,0.0,63,0.00,,SKC,0.00,VWS V14.01,2013-03-05 14:14:00,
2013-03-05 07:15:00,45.0,33.2,30.09,ENE,68,0.0,0.0,63,0.00,,SKC,0.00,VWS V14.01,2013-03-05 14:15:00,
2013-03-05 07:16:00,45.0,33.2,30.09,SE,135,0.0,0.0,63,0.00,,SKC,0.00,VWS V14.01,2013-03-05 14:16:00,
2013-03-05 07:17:00,45.0,33.2,30.09,SE,135,1.0,1.0,63,0.00,,SKC,0.00,VWS V14.01,2013-03-05 14:17:00,
2013-03-05 07:18:00,45.0,33.2,30.09,ESE,112,0.0,0.0,63,0.00,,SKC,0.00,VWS V14.01,2013-03-05 14:18:00,
2013-03-05 07:19:00,45.0,33.2,30.09,SE,135,0.0,0.0,63,0.00,,SKC,0.00,VWS V14.01,2013-03-05 14:19:00,
2013-03-05 07:20:00,45.0,33.2,30.09,ESE,112,0.0,0.0,63,0.00,,SKC,0.00,VWS V14.01,2013-03-05 14:20:00,
2013-03-05 07:22:00,45.0,33.2,30.09,ESE,112,0.0,1.0,63,0.00,,SKC,0.00,VWS V14.01,2013-03-05 14:22:00,
2013-03-05 07:23:00,45.0,33.2,30.09,East,90,0.0,0.0,63,0.00,,SKC,0.00,VWS V14.01,2013-03-05 14:23:00,
2013-03-05 07:24:00,45.0,33.2,30.09,ESE,112,0.0,0.0,63,0.00,,SKC,0.00,VWS V14.01,2013-03-05 14:24:00,
2013-03-05 07:25:00,45.0,33.2,30.09,East,90,0.0,0.0,63,0.00,,SKC,0.00,VWS V14.01,2013-03-05 14:25:00,
2013-03-05 07:26:00,45.0,33.6,30.09,East,90,2.0,2.0,64,0.00,,SKC,0.00,VWS V14.01,2013-03-05 14:26:00,
2013-03-05 07:27:00,45.0,33.6,30.09,ENE,68,2.0,3.0,64,0.00,,SKC,0.00,VWS V14.01,2013-03-05 14:27:00,
2013-03-05 07:28:00,45.0,33.6,30.09,ENE,68,0.0,0.0,64,0.00,,SKC,0.00,VWS V14.01,2013-03-05 14:28:00,
2013-03-05 07:29:00,45.0,33.6,30.08,ENE,68,0.0,0.0,64,0.00,,SKC,0.00,VWS V14.01,2013-03-05 14:29:00,
2013-03-05 07:30:00,45.0,33.6,30.09,ENE,68,0.0,0.0,64,0.00,,SKC,0.00,VWS V14.01,2013-03-05 14:30:00,
2013-03-05 07:31:00,45.0,33.6,30.09,ENE,68,1.0,1.0,64,0.00,,SKC,0.00,VWS V14.01,2013-03-05 14:31:00,
2013-03-05 07:32:00,45.0,33.6,30.09,ENE,68,0.0,1.0,64,0.00,,SKC,0.00,VWS V14.01,2013-03-05 14:32:00,
2013-03-05 07:33:00,45.0,33.6,30.09,ENE,68,0.0,0.0,64,0.00,,SKC,0.00,VWS V14.01,2013-03-05 14:33:00,
2013-03-05 07:34:00,45.0,33.6,30.09,ENE,68,0.0,0.0,64,0.00,,SKC,0.00,VWS V14.01,2013-03-05 14:34:00,
2013-03-05 07:35:00,45.0,33.6,30.09,ENE,68,0.0,0.0,64,0.00,,SKC,0.00,VWS V14.01,2013-03-05 14:35:00,
2013-03-05 07:36:00,45.0,33.6,30.09,ENE,68,0.0,0.0,64,0.00,,SKC,0.00,VWS V14.01,2013-03-05 14:36:00,
2013-03-05 07:37:00,45.0,33.6,30.09,ENE,68,0.0,0.0,64,0.00,,SKC,0.00,VWS V14.01,2013-03-05 14:37:00,
2013-03-05 07:38:00,46.0,34.1,30.09,ENE,68,0.0,0.0,63,0.00,,SKC,0.00,VWS V14.01,2013-03-05 14:38:00,
2013-03-05 07:39:00,46.0,34.1,30.09,ENE,68,0.0,0.0,63,0.00,,SKC,0.00,VWS V14.01,2013-03-05 14:39:00,
2013-03-05 07:40:00,46.0,34.1,30.09,ENE,68,0.0,0.0,63,0.00,,SKC,0.00,VWS V14.01,2013-03-05 14:40:00,
2013-03-05 07:41:00,46.0,34.1,30.09,ENE,68,0.0,0.0,63,0.00,,SKC,0.00,VWS V14.01,2013-03-05 14:41:00,
2013-03-05 07:42:00,46.0,34.1,30.09,ENE,68,1.0,1.0,63,0.00,,SKC,0.00,VWS V14.01,2013-03-05 14:42:00,
2013-03-05 07:43:00,46.0,33.7,30.09,NE,45,2.0,3.0,62,0.00,,SKC,0.00,VWS V14.01,2013-03-05 14:43:00,
2013-03-05 07:44:00,46.0,34.1,30.09,ENE,68,2.0,2.0,63,0.00,,SKC,0.00,VWS V14.01,2013-03-05 14:44:00,
2013-03-05 07:45:00,46.0,33.7,30.09,NE,45,2.0,3.0,62,0.00,,SKC,0.00,VWS V14.01,2013-03-05 14:45:00,
2013-03-05 07:46:00,46.0,33.7,30.09,North,0,3.0,3.0,62,0.00,,SKC,0.00,VWS V14.01,2013-03-05 14:46:00,
2013-03-05 07:48:00,47.0,34.3,30.09,NE,45,2.0,2.0,61,0.00,,SKC,0.00,VWS V14.01,2013-03-05 14:48:00,
2013-03-05 07:49:00,47.0,34.7,30.09,NNE,22,2.0,2.0,62,0.00,,SKC,0.00,VWS V14.01,2013-03-05 14:49:00,
2013-03-05 07:50:00,47.0,34.3,30.09,NE,45,2.0,2.0,61,0.00,,SKC,0.00,VWS V14.01,2013-03-05 14:50:00,
2013-03-05 07:51:00,47.0,34.3,30.10,NE,45,1.0,1.0,61,0.00,,SKC,0.00,VWS V14.01,2013-03-05 14:51:00,
2013-03-05 07:52:00,47.0,34.3,30.10,NE,45,1.0,1.0,61,0.00,,SKC,0.00,VWS V14.01,2013-03-05 14:52:00,
2013-03-05 07:53:00,48.0,34.4,30.10,NE,45,2.0,2.0,59,0.00,,SKC,0.00,VWS V14.01,2013-03-05 14:53:00,
2013-03-05 07:54:00,48.0,34.8,30.10,ENE,68,3.0,4.0,60,0.00,,SKC,0.00,VWS V14.01,2013-03-05 14:54:00,
2013-03-05 07:55:00,48.0,34.4,30.10,NE,45,2.0,2.0,59,0.00,,SKC,0.00,VWS V14.01,2013-03-05 14:55:00,
2013-03-05 07:56:00,48.0,34.4,30.10,NE,45,2.0,3.0,59,0.00,,SKC,0.00,VWS V14.01,2013-03-05 14:56:00,
2013-03-05 07:57:00,48.0,33.9,30.10,NE,45,2.0,2.0,58,0.00,,SKC,0.00,VWS V14.01,2013-03-05 14:57:00,
2013-03-05 07:58:00,49.0,34.5,30.10,ENE,68,2.0,2.0,57,0.00,,SKC,0.00,VWS V14.01,2013-03-05 14:58:00,
2013-03-05 07:59:00,49.0,34.9,30.10,NNE,22,1.0,1.0,58,0.00,,SKC,0.00,VWS V14.01,2013-03-05 14:59:00,
2013-03-05 08:00:00,49.0,34.5,30.10,ENE,68,2.0,2.0,57,0.00,,SKC,0.00,VWS V14.01,2013-03-05 15:00:00,
2013-03-05 08:01:00,49.0,34.5,30.10,NE,45,1.0,2.0,57,0.00,,SKC,0.00,VWS V14.01,2013-03-05 15:01:00,
2013-03-05 08:02:00,49.0,34.5,30.10,NE,45,1.0,2.0,57,0.00,,SKC,0.00,VWS V14.01,2013-03-05 15:02:00,
2013-03-05 08:03:00,50.0,34.9,30.10,NE,45,1.0,2.0,56,0.00,,SKC,0.00,VWS V14.01,2013-03-05 15:03:00,
2013-03-05 08:04:00,49.0,34.0,30.10,ENE,68,3.0,3.0,56,0.00,,SKC,0.00,VWS V14.01,2013-03-05 15:04:00,
2013-03-05 08:05:00,50.0,34.9,30.10,NE,45,1.0,2.0,56,0.00,,SKC,0.00,VWS V14.01,2013-03-05 15:05:00,
2013-03-05 08:06:00,50.0,34.9,30.10,NNE,22,1.0,2.0,56,0.00,,SKC,0.00,VWS V14.01,2013-03-05 15:06:00,
2013-03-05 08:07:00,50.0,34.5,30.10,NE,45,3.0,3.0,55,0.00,,SKC,0.00,VWS V14.01,2013-03-05 15:07:00,
2013-03-05 08:08:00,50.0,34.5,30.10,NE,45,2.0,3.0,55,0.00,,SKC,0.00,VWS V14.01,2013-03-05 15:08:00,
2013-03-05 08:09:00,50.0,34.0,30.10,ENE,68,0.0,1.0,54,0.00,,SKC,0.00,VWS V14.01,2013-03-05 15:09:00,
2013-03-05 08:10:00,50.0,34.0,30.10,NE,45,1.0,1.0,54,0.00,,SKC,0.00,VWS V14.01,2013-03-05 15:10:00,
2013-03-05 08:11:00,50.0,34.0,30.10,ENE,68,0.0,1.0,54,0.00,,SKC,0.00,VWS V14.01,2013-03-05 15:11:00,
2013-03-05 08:12:00,51.0,35.0,30.11,ENE,68,0.0,1.0,54,0.00,,SKC,0.00,VWS V14.01,2013-03-05 15:12:00,
2013-03-05 08:13:00,51.0,35.0,30.11,East,90,0.0,1.0,54,0.00,,SKC,0.00,VWS V14.01,2013-03-05 15:13:00,
2013-03-05 08:14:00,51.0,35.0,30.11,ENE,68,1.0,1.0,54,0.00,,SKC,0.00,VWS V14.01,2013-03-05 15:14:00,
2013-03-05 08:15:00,51.0,34.5,30.11,ENE,68,2.0,2.0,53,0.00,,SKC,0.00,VWS V14.01,2013-03-05 15:15:00,
2013-03-05 08:16:00,51.0,35.0,30.11,ENE,68,1.0,1.0,54,0.00,,SKC,0.00,VWS V14.01,2013-03-05 15:16:00,
2013-03-05 08:17:00,51.0,34.5,30.11,ENE,68,0.0,0.0,53,0.00,,SKC,0.00,VWS V14.01,2013-03-05 15:17:00,
2013-03-05 08:18:00,51.0,34.5,30.11,ENE,68,0.0,0.0,53,0.00,,SKC,0.00,VWS V14.01,2013-03-05 15:18:00,
2013-03-05 08:19:00,51.0,34.5,30.11,ENE,68,0.0,0.0,53,0.00,,SKC,0.00,VWS V14.01,2013-03-05 15:19:00,
2013-03-05 08:20:00,51.0,34.5,30.11,NE,45,0.0,0.0,53,0.00,,SKC,0.00,VWS V14.01,2013-03-05 15:20:00,
2013-03-05 08:21:00,51.0,34.5,30.11,ENE,68,0.0,0.0,53,0.00,,SKC,0.00,VWS V14.01,2013-03-05 15:21:00,
2013-03-05 08:22:00,51.0,34.5,30.11,NE,45,0.0,0.0,53,0.00,,SKC,0.00,VWS V14.01,2013-03-05 15:22:00,
2013-03-05 08:23:00,51.0,34.5,30.11,ENE,68,0.0,1.0,53,0.00,,SKC,0.00,VWS V14.01,2013-03-05 15:23:00,
2013-03-05 08:24:00,51.0,34.5,30.11,NE,45,0.0,0.0,53,0.00,,SKC,0.00,VWS V14.01,2013-03-05 15:24:00,
2013-03-05 08:25:00,51.0,34.5,30.11,ENE,68,0.0,0.0,53,0.00,,SKC,0.00,VWS V14.01,2013-03-05 15:25:00,
2013-03-05 08:26:00,51.0,34.5,30.11,NE,45,0.0,0.0,53,0.00,,SKC,0.00,VWS V14.01,2013-03-05 15:26:00,
2013-03-05 08:27:00,51.0,34.5,30.11,ENE,68,0.0,0.0,53,0.00,,SKC,0.00,VWS V14.01,2013-03-05 15:27:00,
2013-03-05 08:28:00,52.0,35.4,30.11,ENE,68,0.0,0.0,53,0.00,,SKC,0.00,VWS V14.01,2013-03-05 15:28:00,
2013-03-05 08:29:00,52.0,35.4,30.11,NNE,22,0.0,0.0,53,0.00,,SKC,0.00,VWS V14.01,2013-03-05 15:29:00,
2013-03-05 08:30:00,52.0,35.4,30.11,NE,45,0.0,0.0,53,0.00,,SKC,0.00,VWS V14.01,2013-03-05 15:30:00,
2013-03-05 08:31:00,52.0,35.4,30.11,NNE,22,0.0,0.0,53,0.00,,SKC,0.00,VWS V14.01,2013-03-05 15:31:00,
2013-03-05 08:32:00,52.0,35.4,30.11,NE,45,0.0,0.0,53,0.00,,SKC,0.00,VWS V14.01,2013-03-05 15:32:00,
2013-03-05 08:33:00,52.0,34.9,30.11,NE,45,0.0,0.0,52,0.00,,SKC,0.00,VWS V14.01,2013-03-05 15:33:00,
2013-03-05 08:34:00,53.0,35.4,30.12,ENE,68,3.0,3.0,51,0.00,,SKC,0.00,VWS V14.01,2013-03-05 15:34:00,
2013-03-05 08:35:00,53.0,35.9,30.12,ENE,68,0.0,1.0,52,0.00,,SKC,0.00,VWS V14.01,2013-03-05 15:35:00,
2013-03-05 08:36:00,53.0,35.4,30.12,ENE,68,3.0,3.0,51,0.00,,SKC,0.00,VWS V14.01,2013-03-05 15:36:00,
2013-03-05 08:37:00,53.0,35.4,30.12,East,90,2.0,3.0,51,0.00,,SKC,0.00,VWS V14.01,2013-03-05 15:37:00,
2013-03-05 08:38:00,53.0,35.4,30.12,ENE,68,4.0,4.0,51,0.00,,SKC,0.00,VWS V14.01,2013-03-05 15:38:00,
2013-03-05 08:39:00,53.0,34.4,30.12,NNE,22,1.0,2.0,49,0.00,,SKC,0.00,VWS V14.01,2013-03-05 15:39:00,
2013-03-05 08:40:00,53.0,34.4,30.12,NE,45,3.0,4.0,49,0.00,,SKC,0.00,VWS V14.01,2013-03-05 15:40:00,
2013-03-05 08:41:00,53.0,34.4,30.12,NNE,22,1.0,2.0,49,0.00,,SKC,0.00,VWS V14.01,2013-03-05 15:41:00,
2013-03-05 08:42:00,54.0,35.3,30.12,NE,45,1.0,2.0,49,0.00,,SKC,0.00,VWS V14.01,2013-03-05 15:42:00,
2013-03-05 08:43:00,54.0,35.3,30.12,ENE,68,2.0,3.0,49,0.00,,SKC,0.00,VWS V14.01,2013-03-05 15:43:00,
2013-03-05 08:44:00,54.0,34.8,30.12,ENE,68,2.0,2.0,48,0.00,,SKC,0.00,VWS V14.01,2013-03-05 15:44:00,
2013-03-05 08:45:00,54.0,34.8,30.12,ENE,68,3.0,3.0,48,0.00,,SKC,0.00,VWS V14.01,2013-03-05 15:45:00,
2013-03-05 08:46:00,54.0,34.8,30.12,ENE,68,2.0,2.0,48,0.00,,SKC,0.00,VWS V14.01,2013-03-05 15:46:00,
2013-03-05 08:47:00,54.0,34.8,30.12,ENE,68,3.0,3.0,48,0.00,,SKC,0.00,VWS V14.01,2013-03-05 15:47:00,
2013-03-05 08:48:00,54.0,34.8,30.12,ENE,68,0.0,1.0,48,0.00,,SKC,0.00,VWS V14.01,2013-03-05 15:48:00,
2013-03-05 08:49:00,55.0,35.2,30.12,ENE,68,0.0,0.0,47,0.00,,SKC,0.00,VWS V14.01,2013-03-05 15:49:00,
2013-03-05 08:50:00,55.0,35.7,30.12,East,90,0.0,0.0,48,0.00,,SKC,0.00,VWS V14.01,2013-03-05 15:50:00,
2013-03-05 08:51:00,55.0,35.2,30.12,ENE,68,0.0,0.0,47,0.00,,SKC,0.00,VWS V14.01,2013-03-05 15:51:00,
2013-03-05 08:52:00,55.0,35.2,30.12,ENE,68,0.0,0.0,47,0.00,,SKC,0.00,VWS V14.01,2013-03-05 15:52:00,
2013-03-05 08:53:00,55.0,34.6,30.12,ENE,68,0.0,0.0,46,0.00,,SKC,0.00,VWS V14.01,2013-03-05 15:53:00,
2013-03-05 08:54:00,56.0,35.5,30.13,ENE,68,2.0,3.0,46,0.00,,SKC,0.00,VWS V14.01,2013-03-05 15:54:00,
2013-03-05 08:55:00,55.0,35.2,30.13,ENE,68,1.0,2.0,47,0.00,,SKC,0.00,VWS V14.01,2013-03-05 15:55:00,
2013-03-05 08:56:00,56.0,35.5,30.13,ENE,68,2.0,3.0,46,0.00,,SKC,0.00,VWS V14.01,2013-03-05 15:56:00,
2013-03-05 08:57:00,56.0,35.5,30.13,NE,45,1.0,1.0,46,0.00,,SKC,0.00,VWS V14.01,2013-03-05 15:57:00,
2013-03-05 08:58:00,56.0,35.5,30.13,ENE,68,0.0,0.0,46,0.00,,SKC,0.00,VWS V14.01,2013-03-05 15:58:00,
2013-03-05 08:59:00,56.0,35.0,30.13,East,90,2.0,3.0,45,0.00,,SKC,0.00,VWS V14.01,2013-03-05 15:59:00,
2013-03-05 09:00:00,56.0,35.0,30.13,ESE,112,3.0,3.0,45,0.00,,SKC,0.00,VWS V14.01,2013-03-05 16:00:00,
2013-03-05 09:01:00,56.0,35.0,30.13,East,90,2.0,3.0,45,0.00,,SKC,0.00,VWS V14.01,2013-03-05 16:01:00,
2013-03-05 09:02:00,56.0,35.0,30.13,ENE,68,2.0,2.0,45,0.00,,SKC,0.00,VWS V14.01,2013-03-05 16:02:00,
2013-03-05 09:03:00,56.0,35.0,30.13,ENE,68,4.0,4.0,45,0.00,,SKC,0.00,VWS V14.01,2013-03-05 16:03:00,
2013-03-05 09:04:00,57.0,35.9,30.13,ENE,68,4.0,5.0,45,0.00,,SKC,0.00,VWS V14.01,2013-03-05 16:04:00,
2013-03-05 09:05:00,57.0,35.3,30.13,ENE,68,5.0,5.0,44,0.00,,SKC,0.00,VWS V14.01,2013-03-05 16:05:00,
2013-03-05 09:06:00,57.0,35.9,30.13,ENE,68,4.0,5.0,45,0.00,,SKC,0.00,VWS V14.01,2013-03-05 16:06:00,
2013-03-05 09:07:00,57.0,35.3,30.13,ENE,68,4.0,5.0,44,0.00,,SKC,0.00,VWS V14.01,2013-03-05 16:07:00,
2013-03-05 09:08:00,57.0,35.3,30.13,ENE,68,6.0,6.0,44,0.00,,SKC,0.00,VWS V14.01,2013-03-05 16:08:00,
2013-03-05 09:09:00,57.0,34.2,30.13,ENE,68,4.0,5.0,42,0.00,,SKC,0.00,VWS V14.01,2013-03-05 16:09:00,
2013-03-05 09:10:00,57.0,34.8,30.13,ENE,68,5.0,5.0,43,0.00,,SKC,0.00,VWS V14.01,2013-03-05 16:10:00,
2013-03-05 09:11:00,57.0,34.2,30.13,ENE,68,4.0,5.0,42,0.00,,SKC,0.00,VWS V14.01,2013-03-05 16:11:00,
2013-03-05 09:12:00,57.0,34.8,30.12,NNE,22,3.0,5.0,43,0.00,,SKC,0.00,VWS V14.01,2013-03-05 16:12:00,
2013-03-05 09:13:00,58.0,35.7,30.12,ENE,68,5.0,5.0,43,0.00,,SKC,0.00,VWS V14.01,2013-03-05 16:13:00,
2013-03-05 09:14:00,58.0,35.7,30.12,ENE,68,4.0,4.0,43,0.00,,SKC,0.00,VWS V14.01,2013-03-05 16:14:00,
2013-03-05 09:15:00,58.0,35.7,30.12,NE,45,2.0,3.0,43,0.00,,SKC,0.00,VWS V14.01,2013-03-05 16:15:00,
2013-03-05 09:16:00,58.0,35.7,30.12,ENE,68,4.0,4.0,43,0.00,,SKC,0.00,VWS V14.01,2013-03-05 16:16:00,
2013-03-05 09:17:00,58.0,35.1,30.12,NE,45,1.0,2.0,42,0.00,,SKC,0.00,VWS V14.01,2013-03-05 16:17:00,
2013-03-05 09:18:00,59.0,36.0,30.12,NE,45,3.0,3.0,42,0.00,,SKC,0.00,VWS V14.01,2013-03-05 16:18:00,
2013-03-05 09:19:00,59.0,36.0,30.12,East,90,3.0,4.0,42,0.00,,SKC,0.00,VWS V14.01,2013-03-05 16:19:00,
2013-03-05 09:20:00,59.0,36.0,30.12,NE,45,1.0,2.0,42,0.00,,SKC,0.00,VWS V14.01,2013-03-05 16:20:00,
2013-03-05 09:21:00,59.0,36.0,30.12,East,90,3.0,4.0,42,0.00,,SKC,0.00,VWS V14.01,2013-03-05 16:21:00,
2013-03-05 09:22:00,59.0,36.0,30.12,NE,45,3.0,3.0,42,0.00,,SKC,0.00,VWS V14.01,2013-03-05 16:22:00,
2013-03-05 09:23:00,59.0,35.3,30.12,NE,45,4.0,5.0,41,0.00,,SKC,0.00,VWS V14.01,2013-03-05 16:23:00,
2013-03-05 09:24:00,60.0,36.2,30.13,ENE,68,0.0,0.0,41,0.00,,SKC,0.00,VWS V14.01,2013-03-05 16:24:00,
2013-03-05 09:25:00,59.0,35.3,30.13,NE,45,2.0,2.0,41,0.00,,SKC,0.00,VWS V14.01,2013-03-05 16:25:00,
2013-03-05 09:26:00,60.0,36.2,30.13,ENE,68,0.0,0.0,41,0.00,,SKC,0.00,VWS V14.01,2013-03-05 16:26:00,
2013-03-05 09:27:00,60.0,35.6,30.12,NE,45,1.0,1.0,40,0.00,,SKC,0.00,VWS V14.01,2013-03-05 16:27:00,
2013-03-05 09:28:00,60.0,35.6,30.12,NE,45,0.0,0.0,40,0.00,,SKC,0.00,VWS V14.01,2013-03-05 16:28:00,
2013-03-05 09:29:00,60.0,35.6,30.12,NE,45,0.0,1.0,40,0.00,,SKC,0.00,VWS V14.01,2013-03-05 16:29:00,
2013-03-05 09:30:00,60.0,35.6,30.12,NNE,22,3.0,3.0,40,0.00,,SKC,0.00,VWS V14.01,2013-03-05 16:30:00,
2013-03-05 09:31:00,60.0,35.6,30.12,NE,45,0.0,1.0,40,0.00,,SKC,0.00,VWS V14.01,2013-03-05 16:31:00,
2013-03-05 09:32:00,61.0,35.9,30.12,ENE,68,3.0,4.0,39,0.00,,SKC,0.00,VWS V14.01,2013-03-05 16:32:00,
2013-03-05 09:33:00,61.0,35.9,30.12,North,0,3.0,3.0,39,0.00,,SKC,0.00,VWS V14.01,2013-03-05 16:33:00,
2013-03-05 09:34:00,61.0,35.2,30.12,NNE,22,1.0,3.0,38,0.00,,SKC,0.00,VWS V14.01,2013-03-05 16:34:00,
2013-03-05 09:35:00,61.0,34.6,30.12,NNE,22,1.0,3.0,37,0.00,,SKC,0.00,VWS V14.01,2013-03-05 16:35:00,
2013-03-05 09:36:00,61.0,35.2,30.12,NNE,22,1.0,3.0,38,0.00,,SKC,0.00,VWS V14.01,2013-03-05 16:36:00,
2013-03-05 09:37:00,61.0,35.2,30.12,NE,45,0.0,0.0,38,0.00,,SKC,0.00,VWS V14.01,2013-03-05 16:37:00,
2013-03-05 09:38:00,61.0,35.2,30.12,NE,45,1.0,2.0,38,0.00,,SKC,0.00,VWS V14.01,2013-03-05 16:38:00,
2013-03-05 09:39:00,61.0,35.2,30.12,North,0,1.0,2.0,38,0.00,,SKC,0.00,VWS V14.01,2013-03-05 16:39:00,
2013-03-05 09:40:00,61.0,35.2,30.12,NNE,22,0.0,1.0,38,0.00,,SKC,0.00,VWS V14.01,2013-03-05 16:40:00,
2013-03-05 09:41:00,61.0,35.2,30.12,North,0,1.0,2.0,38,0.00,,SKC,0.00,VWS V14.01,2013-03-05 16:41:00,
2013-03-05 09:42:00,61.0,35.2,30.12,NE,45,0.0,0.0,38,0.00,,SKC,0.00,VWS V14.01,2013-03-05 16:42:00,
2013-03-05 09:43:00,61.0,35.2,30.12,NE,45,1.0,1.0,38,0.00,,SKC,0.00,VWS V14.01,2013-03-05 16:43:00,
2013-03-05 09:44:00,61.0,34.6,30.12,ENE,68,0.0,0.0,37,0.00,,SKC,0.00,VWS V14.01,2013-03-05 16:44:00,
2013-03-05 09:45:00,61.0,34.6,30.12,ENE,68,0.0,0.0,37,0.00,,SKC,0.00,VWS V14.01,2013-03-05 16:45:00,
2013-03-05 09:46:00,61.0,34.6,30.12,ENE,68,0.0,0.0,37,0.00,,SKC,0.00,VWS V14.01,2013-03-05 16:46:00,
2013-03-05 09:47:00,61.0,34.6,30.12,ENE,68,0.0,0.0,37,0.00,,SKC,0.00,VWS V14.01,2013-03-05 16:47:00,
2013-03-05 09:48:00,61.0,34.6,30.12,NNE,22,0.0,0.0,37,0.00,,SKC,0.00,VWS V14.01,2013-03-05 16:48:00,
2013-03-05 09:49:00,61.0,34.6,30.12,NNE,22,0.0,0.0,37,0.00,,SKC,0.00,VWS V14.01,2013-03-05 16:49:00,
2013-03-05 09:50:00,61.0,34.6,30.12,NNE,22,0.0,0.0,37,0.00,,SKC,0.00,VWS V14.01,2013-03-05 16:50:00,
2013-03-05 09:51:00,61.0,34.6,30.12,NNE,22,0.0,0.0,37,0.00,,SKC,0.00,VWS V14.01,2013-03-05 16:51:00,
2013-03-05 09:52:00,61.0,34.6,30.12,NE,45,0.0,0.0,37,0.00,,SKC,0.00,VWS V14.01,2013-03-05 16:52:00,
2013-03-05 09:53:00,61.0,34.6,30.12,ESE,112,0.0,0.0,37,0.00,,SKC,0.00,VWS V14.01,2013-03-05 16:53:00,
2013-03-05 09:54:00,62.0,34.8,30.12,East,90,3.0,3.0,36,0.00,,SKC,0.00,VWS V14.01,2013-03-05 16:54:00,
2013-03-05 09:55:00,62.0,35.5,30.12,ENE,68,0.0,0.0,37,0.00,,SKC,0.00,VWS V14.01,2013-03-05 16:55:00,
2013-03-05 09:56:00,62.0,34.8,30.12,East,90,3.0,3.0,36,0.00,,SKC,0.00,VWS V14.01,2013-03-05 16:56:00,
2013-03-05 09:57:00,62.0,34.8,30.12,East,90,3.0,3.0,36,0.00,,SKC,0.00,VWS V14.01,2013-03-05 16:57:00,
2013-03-05 09:58:00,62.0,34.8,30.12,East,90,0.0,0.0,36,0.00,,SKC,0.00,VWS V14.01,2013-03-05 16:58:00,
2013-03-05 09:59:00,62.0,34.8,30.12,NE,45,0.0,0.0,36,0.00,,SKC,0.00,VWS V14.01,2013-03-05 16:59:00,
2013-03-05 10:00:00,62.0,34.8,30.12,NE,45,0.0,0.0,36,0.00,,SKC,0.00,VWS V14.01,2013-03-05 17:00:00,
2013-03-05 10:01:00,62.0,34.8,30.12,NE,45,0.0,0.0,36,0.00,,SKC,0.00,VWS V14.01,2013-03-05 17:01:00,
2013-03-05 10:02:00,62.0,34.8,30.12,East,90,0.0,0.0,36,0.00,,SKC,0.00,VWS V14.01,2013-03-05 17:02:00,
2013-03-05 10:03:00,62.0,34.8,30.12,South,180,1.0,2.0,36,0.00,,SKC,0.00,VWS V14.01,2013-03-05 17:03:00,
2013-03-05 10:04:00,63.0,34.9,30.12,SE,135,3.0,3.0,35,0.00,,SKC,0.00,VWS V14.01,2013-03-05 17:04:00,
2013-03-05 10:05:00,63.0,34.9,30.12,SE,135,3.0,3.0,35,0.00,,SKC,0.00,VWS V14.01,2013-03-05 17:05:00,
2013-03-05 10:06:00,63.0,34.9,30.12,SE,135,3.0,3.0,35,0.00,,SKC,0.00,VWS V14.01,2013-03-05 17:06:00,
2013-03-05 10:07:00,63.0,34.9,30.12,ESE,112,0.0,0.0,35,0.00,,SKC,0.00,VWS V14.01,2013-03-05 17:07:00,
2013-03-05 10:08:00,63.0,34.2,30.12,ESE,112,0.0,0.0,34,0.00,,SKC,0.00,VWS V14.01,2013-03-05 17:08:00,
2013-03-05 10:09:00,63.0,34.2,30.12,East,90,0.0,0.0,34,0.00,,SKC,0.00,VWS V14.01,2013-03-05 17:09:00,
2013-03-05 10:10:00,63.0,34.2,30.12,ESE,112,2.0,3.0,34,0.00,,SKC,0.00,VWS V14.01,2013-03-05 17:10:00,
2013-03-05 10:11:00,63.0,34.2,30.12,East,90,0.0,0.0,34,0.00,,SKC,0.00,VWS V14.01,2013-03-05 17:11:00,
2013-03-05 10:12:00,64.0,35.8,30.12,East,90,3.0,3.0,35,0.00,,SKC,0.00,VWS V14.01,2013-03-05 17:12:00,
2013-03-05 10:13:00,64.0,35.8,30.12,SE,135,1.0,1.0,35,0.00,,SKC,0.00,VWS V14.01,2013-03-05 17:13:00,
2013-03-05 10:14:00,64.0,35.1,30.12,NNE,22,0.0,0.0,34,0.00,,SKC,0.00,VWS V14.01,2013-03-05 17:14:00,
2013-03-05 10:15:00,64.0,35.1,30.12,NNE,22,0.0,0.0,34,0.00,,SKC,0.00,VWS V14.01,2013-03-05 17:15:00,
2013-03-05 10:16:00,64.0,35.1,30.12,NNE,22,0.0,0.0,34,0.00,,SKC,0.00,VWS V14.01,2013-03-05 17:16:00,
2013-03-05 10:17:00,64.0,35.1,30.12,East,90,0.0,1.0,34,0.00,,SKC,0.00,VWS V14.01,2013-03-05 17:17:00,
2013-03-05 10:18:00,64.0,35.1,30.12,East,90,0.0,0.0,34,0.00,,SKC,0.00,VWS V14.01,2013-03-05 17:18:00,
2013-03-05 10:19:00,65.0,35.2,30.12,South,180,0.0,1.0,33,0.00,,SKC,0.00,VWS V14.01,2013-03-05 17:19:00,
2013-03-05 10:20:00,65.0,35.2,30.12,South,180,0.0,1.0,33,0.00,,SKC,0.00,VWS V14.01,2013-03-05 17:20:00,
2013-03-05 10:21:00,65.0,35.2,30.12,South,180,0.0,1.0,33,0.00,,SKC,0.00,VWS V14.01,2013-03-05 17:21:00,
2013-03-05 10:22:00,65.0,35.2,30.12,SSW,202,0.0,0.0,33,0.00,,SKC,0.00,VWS V14.01,2013-03-05 17:22:00,
2013-03-05 10:23:00,65.0,35.2,30.12,NW,315,0.0,1.0,33,0.00,,SKC,0.00,VWS V14.01,2013-03-05 17:23:00,
2013-03-05 10:24:00,66.0,35.3,30.12,ESE,112,2.0,3.0,32,0.00,,SKC,0.00,VWS V14.01,2013-03-05 17:24:00,
2013-03-05 10:25:00,66.0,36.1,30.12,WNW,292,0.0,0.0,33,0.00,,SKC,0.00,VWS V14.01,2013-03-05 17:25:00,
2013-03-05 10:26:00,66.0,35.3,30.12,ESE,112,2.0,3.0,32,0.00,,SKC,0.00,VWS V14.01,2013-03-05 17:26:00,
2013-03-05 10:27:00,66.0,35.3,30.12,SSE,158,1.0,1.0,32,0.00,,SKC,0.00,VWS V14.01,2013-03-05 17:27:00,
2013-03-05 10:28:00,66.0,35.3,30.12,SE,135,3.0,3.0,32,0.00,,SKC,0.00,VWS V14.01,2013-03-05 17:28:00,
2013-03-05 10:29:00,66.0,35.3,30.12,ESE,112,5.0,5.0,32,0.00,,SKC,0.00,VWS V14.01,2013-03-05 17:29:00,
2013-03-05 10:30:00,66.0,35.3,30.12,ENE,68,3.0,3.0,32,0.00,,SKC,0.00,VWS V14.01,2013-03-05 17:30:00,
2013-03-05 10:31:00,66.0,35.3,30.12,ESE,112,5.0,5.0,32,0.00,,SKC,0.00,VWS V14.01,2013-03-05 17:31:00,
2013-03-05 10:32:00,66.0,34.5,30.12,SE,135,4.0,4.0,31,0.00,,SKC,0.00,VWS V14.01,2013-03-05 17:32:00,
2013-03-05 10:33:00,65.0,34.5,30.12,East,90,3.0,5.0,32,0.00,,SKC,0.00,VWS V14.01,2013-03-05 17:33:00,
2013-03-05 10:34:00,66.0,35.3,30.12,SE,135,3.0,3.0,32,0.00,,SKC,0.00,VWS V14.01,2013-03-05 17:34:00,
2013-03-05 10:35:00,66.0,35.3,30.11,SSE,158,1.0,2.0,32,0.00,,SKC,0.00,VWS V14.01,2013-03-05 17:35:00,
2013-03-05 10:36:00,66.0,35.3,30.12,SE,135,3.0,3.0,32,0.00,,SKC,0.00,VWS V14.01,2013-03-05 17:36:00,
2013-03-05 10:37:00,66.0,34.5,30.12,SSE,158,3.0,3.0,31,0.00,,SKC,0.00,VWS V14.01,2013-03-05 17:37:00,
2013-03-05 10:38:00,66.0,34.5,30.11,SSE,158,0.0,0.0,31,0.00,,SKC,0.00,VWS V14.01,2013-03-05 17:38:00,
2013-03-05 10:39:00,66.0,34.5,30.11,WNW,292,0.0,0.0,31,0.00,,SKC,0.00,VWS V14.01,2013-03-05 17:39:00,
2013-03-05 10:40:00,66.0,34.5,30.12,WNW,292,0.0,0.0,31,0.00,,SKC,0.00,VWS V14.01,2013-03-05 17:40:00,
2013-03-05 10:41:00,66.0,34.5,30.11,WNW,292,0.0,0.0,31,0.00,,SKC,0.00,VWS V14.01,2013-03-05 17:41:00,
2013-03-05 10:42:00,66.0,34.5,30.12,East,90,1.0,1.0,31,0.00,,SKC,0.00,VWS V14.01,2013-03-05 17:42:00,
2013-03-05 10:43:00,66.0,34.5,30.12,East,90,3.0,3.0,31,0.00,,SKC,0.00,VWS V14.01,2013-03-05 17:43:00,
2013-03-05 10:44:00,66.0,34.5,30.12,ESE,112,0.0,0.0,31,0.00,,SKC,0.00,VWS V14.01,2013-03-05 17:44:00,
2013-03-05 10:45:00,66.0,33.7,30.12,East,90,3.0,3.0,30,0.00,,SKC,0.00,VWS V14.01,2013-03-05 17:45:00,
2013-03-05 10:46:00,66.0,34.5,30.12,ESE,112,0.0,0.0,31,0.00,,SKC,0.00,VWS V14.01,2013-03-05 17:46:00,
2013-03-05 10:47:00,67.0,34.6,30.12,SSE,158,2.0,2.0,30,0.00,,SKC,0.00,VWS V14.01,2013-03-05 17:47:00,
2013-03-05 10:48:00,67.0,35.4,30.12,SSE,158,0.0,0.0,31,0.00,,SKC,0.00,VWS V14.01,2013-03-05 17:48:00,
2013-03-05 10:49:00,68.0,35.4,30.12,North,0,0.0,0.0,30,0.00,,SKC,0.00,VWS V14.01,2013-03-05 17:49:00,
2013-03-05 10:50:00,67.0,34.6,30.12,WNW,292,0.0,0.0,30,0.00,,SKC,0.00,VWS V14.01,2013-03-05 17:50:00,
2013-03-05 10:51:00,68.0,35.4,30.12,North,0,0.0,0.0,30,0.00,,SKC,0.00,VWS V14.01,2013-03-05 17:51:00,
2013-03-05 10:52:00,68.0,35.4,30.12,NE,45,0.0,0.0,30,0.00,,SKC,0.00,VWS V14.01,2013-03-05 17:52:00,
2013-03-05 10:53:00,68.0,34.6,30.12,NE,45,0.0,0.0,29,0.00,,SKC,0.00,VWS V14.01,2013-03-05 17:53:00,
2013-03-05 10:54:00,69.0,34.6,30.12,NE,45,0.0,1.0,28,0.00,,SKC,0.00,VWS V14.01,2013-03-05 17:54:00,
2013-03-05 10:55:00,68.0,34.6,30.12,NE,45,0.0,0.0,29,0.00,,SKC,0.00,VWS V14.01,2013-03-05 17:55:00,
2013-03-05 10:56:00,69.0,34.6,30.12,NE,45,0.0,1.0,28,0.00,,SKC,0.00,VWS V14.01,2013-03-05 17:56:00,
2013-03-05 10:57:00,69.0,34.6,30.12,NE,45,0.0,0.0,28,0.00,,SKC,0.00,VWS V14.01,2013-03-05 17:57:00,
2013-03-05 10:58:00,69.0,33.7,30.12,ENE,68,0.0,0.0,27,0.00,,SKC,0.00,VWS V14.01,2013-03-05 17:58:00,
2013-03-05 10:59:00,69.0,33.7,30.12,SSW,202,0.0,0.0,27,0.00,,SKC,0.00,VWS V14.01,2013-03-05 17:59:00,
2013-03-05 11:00:00,69.0,33.7,30.11,ESE,112,0.0,0.0,27,0.00,,SKC,0.00,VWS V14.01,2013-03-05 18:00:00,
2013-03-05 11:01:00,69.0,33.7,30.12,SSW,202,0.0,0.0,27,0.00,,SKC,0.00,VWS V14.01,2013-03-05 18:01:00,
2013-03-05 11:02:00,69.0,33.7,30.11,WSW,248,1.0,1.0,27,0.00,,SKC,0.00,VWS V14.01,2013-03-05 18:02:00,
2013-03-05 11:03:00,69.0,34.6,30.11,NW,315,5.0,5.0,28,0.00,,SKC,0.00,VWS V14.01,2013-03-05 18:03:00,
2013-03-05 11:04:00,68.0,33.7,30.11,NNW,338,3.0,3.0,28,0.00,,SKC,0.00,VWS V14.01,2013-03-05 18:04:00,
2013-03-05 11:05:00,68.0,33.7,30.11,West,270,2.0,2.0,28,0.00,,SKC,0.00,VWS V14.01,2013-03-05 18:05:00,
2013-03-05 11:06:00,68.0,33.7,30.11,NNW,338,3.0,3.0,28,0.00,,SKC,0.00,VWS V14.01,2013-03-05 18:06:00,
2013-03-05 11:07:00,68.0,33.7,30.12,North,0,3.0,5.0,28,0.00,,SKC,0.00,VWS V14.01,2013-03-05 18:07:00,
2013-03-05 11:08:00,68.0,33.7,30.11,NNE,22,3.0,3.0,28,0.00,,SKC,0.00,VWS V14.01,2013-03-05 18:08:00,
2013-03-05 11:09:00,69.0,34.6,30.11,NNE,22,0.0,0.0,28,0.00,,SKC,0.00,VWS V14.01,2013-03-05 18:09:00,
2013-03-05 11:10:00,69.0,34.6,30.11,NNE,22,2.0,3.0,28,0.00,,SKC,0.00,VWS V14.01,2013-03-05 18:10:00,
2013-03-05 11:11:00,69.0,34.6,30.11,NNE,22,0.0,0.0,28,0.00,,SKC,0.00,VWS V14.01,2013-03-05 18:11:00,
2013-03-05 11:12:00,69.0,33.7,30.11,NW,315,1.0,1.0,27,0.00,,SKC,0.00,VWS V14.01,2013-03-05 18:12:00,
2013-03-05 11:13:00,69.0,33.7,30.11,North,0,0.0,0.0,27,0.00,,SKC,0.00,VWS V14.01,2013-03-05 18:13:00,
2013-03-05 11:14:00,69.0,33.7,30.11,NE,45,2.0,3.0,27,0.00,,SKC,0.00,VWS V14.01,2013-03-05 18:14:00,
2013-03-05 11:15:00,69.0,33.7,30.11,NNE,22,6.0,6.0,27,0.00,,SKC,0.00,VWS V14.01,2013-03-05 18:15:00,
2013-03-05 11:16:00,69.0,33.7,30.11,NE,45,2.0,3.0,27,0.00,,SKC,0.00,VWS V14.01,2013-03-05 18:16:00,
2013-03-05 11:17:00,69.0,33.7,30.11,NE,45,3.0,5.0,27,0.00,,SKC,0.00,VWS V14.01,2013-03-05 18:17:00,
2013-03-05 11:18:00,69.0,33.7,30.11,NNE,22,5.0,5.0,27,0.00,,SKC,0.00,VWS V14.01,2013-03-05 18:18:00,
2013-03-05 11:19:00,69.0,32.7,30.11,NNW,338,4.0,4.0,26,0.00,,SKC,0.00,VWS V14.01,2013-03-05 18:19:00,
2013-03-05 11:20:00,69.0,32.7,30.11,North,0,4.0,4.0,26,0.00,,SKC,0.00,VWS V14.01,2013-03-05 18:20:00,
2013-03-05 11:21:00,69.0,32.7,30.11,NNW,338,4.0,4.0,26,0.00,,SKC,0.00,VWS V14.01,2013-03-05 18:21:00,
2013-03-05 11:22:00,69.0,32.7,30.11,NW,315,0.0,0.0,26,0.00,,SKC,0.00,VWS V14.01,2013-03-05 18:22:00,
2013-03-05 11:23:00,70.0,33.6,30.11,NW,315,0.0,1.0,26,0.00,,SKC,0.00,VWS V14.01,2013-03-05 18:23:00,
2013-03-05 11:24:00,70.0,32.6,30.10,NE,45,3.0,5.0,25,0.00,,SKC,0.00,VWS V14.01,2013-03-05 18:24:00,
2013-03-05 11:25:00,70.0,32.6,30.10,NE,45,1.0,2.0,25,0.00,,SKC,0.00,VWS V14.01,2013-03-05 18:25:00,
2013-03-05 11:26:00,70.0,32.6,30.10,NE,45,3.0,5.0,25,0.00,,SKC,0.00,VWS V14.01,2013-03-05 18:26:00,
2013-03-05 11:27:00,70.0,31.6,30.10,NE,45,3.0,3.0,24,0.00,,SKC,0.00,VWS V14.01,2013-03-05 18:27:00,
2013-03-05 11:28:00,70.0,32.6,30.10,North,0,5.0,5.0,25,0.00,,SKC,0.00,VWS V14.01,2013-03-05 18:28:00,
2013-03-05 11:29:00,70.0,31.6,30.10,ENE,68,6.0,8.0,24,0.00,,SKC,0.00,VWS V14.01,2013-03-05 18:29:00,
2013-03-05 11:30:00,70.0,32.6,30.10,NNE,22,5.0,5.0,25,0.00,,SKC,0.00,VWS V14.01,2013-03-05 18:30:00,
2013-03-05 11:31:00,70.0,31.6,30.10,ENE,68,6.0,8.0,24,0.00,,SKC,0.00,VWS V14.01,2013-03-05 18:31:00,
2013-03-05 11:32:00,70.0,31.6,30.10,NNE,22,4.0,5.0,24,0.00,,SKC,0.00,VWS V14.01,2013-03-05 18:32:00,
2013-03-05 11:33:00,70.0,31.6,30.10,NE,45,1.0,2.0,24,0.00,,SKC,0.00,VWS V14.01,2013-03-05 18:33:00,
2013-03-05 11:34:00,71.0,31.4,30.10,North,0,3.0,3.0,23,0.00,,SKC,0.00,VWS V14.01,2013-03-05 18:34:00,
2013-03-05 11:35:00,70.0,30.5,30.10,NNE,22,2.0,3.0,23,0.00,,SKC,0.00,VWS V14.01,2013-03-05 18:35:00,
2013-03-05 11:36:00,71.0,31.4,30.10,North,0,3.0,3.0,23,0.00,,SKC,0.00,VWS V14.01,2013-03-05 18:36:00,
2013-03-05 11:37:00,71.0,32.4,30.10,NNE,22,3.0,3.0,24,0.00,,SKC,0.00,VWS V14.01,2013-03-05 18:37:00,
2013-03-05 11:38:00,71.0,32.4,30.10,NNE,22,4.0,5.0,24,0.00,,SKC,0.00,VWS V14.01,2013-03-05 18:38:00,
2013-03-05 11:39:00,71.0,31.4,30.10,ENE,68,3.0,5.0,23,0.00,,SKC,0.00,VWS V14.01,2013-03-05 18:39:00,
2013-03-05 11:40:00,71.0,32.4,30.10,ENE,68,5.0,5.0,24,0.00,,SKC,0.00,VWS V14.01,2013-03-05 18:40:00,
2013-03-05 11:41:00,71.0,31.4,30.10,ENE,68,3.0,5.0,23,0.00,,SKC,0.00,VWS V14.01,2013-03-05 18:41:00,
2013-03-05 11:42:00,71.0,32.4,30.10,East,90,5.0,5.0,24,0.00,,SKC,0.00,VWS V14.01,2013-03-05 18:42:00,
2013-03-05 11:43:00,71.0,31.4,30.10,NE,45,4.0,5.0,23,0.00,,SKC,0.00,VWS V14.01,2013-03-05 18:43:00,
2013-03-05 11:44:00,71.0,31.4,30.10,NNE,22,6.0,10.0,23,0.00,,SKC,0.00,VWS V14.01,2013-03-05 18:44:00,
2013-03-05 11:45:00,71.0,31.4,30.10,ENE,68,9.0,10.0,23,0.00,,SKC,0.00,VWS V14.01,2013-03-05 18:45:00,
2013-03-05 11:46:00,71.0,31.4,30.10,NNE,22,6.0,10.0,23,0.00,,SKC,0.00,VWS V14.01,2013-03-05 18:46:00,
2013-03-05 11:47:00,71.0,31.4,30.10,NE,45,6.0,7.0,23,0.00,,SKC,0.00,VWS V14.01,2013-03-05 18:47:00,
2013-03-05 11:48:00,71.0,31.4,30.10,SE,135,2.0,2.0,23,0.00,,SKC,0.00,VWS V14.01,2013-03-05 18:48:00,
2013-03-05 11:49:00,72.0,32.2,30.10,NE,45,3.0,4.0,23,0.00,,SKC,0.00,VWS V14.01,2013-03-05 18:49:00,
2013-03-05 11:50:00,71.0,31.4,30.10,ENE,68,5.0,5.0,23,0.00,,SKC,0.00,VWS V14.01,2013-03-05 18:50:00,
2013-03-05 11:51:00,72.0,32.2,30.10,NE,45,3.0,4.0,23,0.00,,SKC,0.00,VWS V14.01,2013-03-05 18:51:00,
2013-03-05 11:52:00,72.0,32.2,30.10,ENE,68,7.0,7.0,23,0.00,,SKC,0.00,VWS V14.01,2013-03-05 18:52:00,
2013-03-05 11:53:00,72.0,32.2,30.10,East,90,6.0,8.0,23,0.00,,SKC,0.00,VWS V14.01,2013-03-05 18:53:00,
2013-03-05 11:54:00,72.0,31.1,30.10,NE,45,6.0,6.0,22,0.00,,SKC,0.00,VWS V14.01,2013-03-05 18:54:00,
2013-03-05 11:55:00,72.0,31.1,30.10,ESE,112,7.0,8.0,22,0.00,,SKC,0.00,VWS V14.01,2013-03-05 18:55:00,
2013-03-05 11:56:00,72.0,31.1,30.10,NE,45,6.0,6.0,22,0.00,,SKC,0.00,VWS V14.01,2013-03-05 18:56:00,
2013-03-05 11:57:00,73.0,32.0,30.10,East,90,5.0,6.0,22,0.00,,SKC,0.00,VWS V14.01,2013-03-05 18:57:00,
2013-03-05 11:58:00,72.0,31.1,30.10,East,90,9.0,9.0,22,0.00,,SKC,0.00,VWS V14.01,2013-03-05 18:58:00,
2013-03-05 11:59:00,73.0,32.0,30.10,SE,135,4.0,5.0,22,0.00,,SKC,0.00,VWS V14.01,2013-03-05 18:59:00,
2013-03-05 12:00:00,73.0,32.0,30.10,SSE,158,5.0,5.0,22,0.00,,SKC,0.00,VWS V14.01,2013-03-05 19:00:00,
2013-03-05 12:01:00,73.0,32.0,30.10,SE,135,4.0,5.0,22,0.00,,SKC,0.00,VWS V14.01,2013-03-05 19:01:00,
2013-03-05 12:02:00,73.0,32.0,30.10,SE,135,4.0,5.0,22,0.00,,SKC,0.00,VWS V14.01,2013-03-05 19:02:00,
2013-03-05 12:03:00,73.0,32.0,30.10,SSE,158,2.0,3.0,22,0.00,,SKC,0.00,VWS V14.01,2013-03-05 19:03:00,
2013-03-05 12:04:00,73.0,32.0,30.10,SSE,158,2.0,2.0,22,0.00,,SKC,0.00,VWS V14.01,2013-03-05 19:04:00,
2013-03-05 12:05:00,73.0,30.8,30.09,NE,45,6.0,6.0,21,0.00,,SKC,0.00,VWS V14.01,2013-03-05 19:05:00,
2013-03-05 12:06:00,73.0,32.0,30.09,NE,45,5.0,5.0,22,0.00,,SKC,0.00,VWS V14.01,2013-03-05 19:06:00,
2013-03-05 12:07:00,73.0,30.8,30.09,NE,45,6.0,6.0,21,0.00,,SKC,0.00,VWS V14.01,2013-03-05 19:07:00,
2013-03-05 12:08:00,73.0,32.0,30.09,ENE,68,5.0,5.0,22,0.00,,SKC,0.00,VWS V14.01,2013-03-05 19:08:00,
2013-03-05 12:09:00,73.0,32.0,30.09,ENE,68,5.0,6.0,22,0.00,,SKC,0.00,VWS V14.01,2013-03-05 19:09:00,
2013-03-05 12:10:00,73.0,30.8,30.09,NE,45,3.0,5.0,21,0.00,,SKC,0.00,VWS V14.01,2013-03-05 19:10:00,
2013-03-05 12:11:00,73.0,32.0,30.09,ENE,68,3.0,3.0,22,0.00,,SKC,0.00,VWS V14.01,2013-03-05 19:11:00,
2013-03-05 12:12:00,73.0,30.8,30.09,NE,45,3.0,5.0,21,0.00,,SKC,0.00,VWS V14.01,2013-03-05 19:12:00,
2013-03-05 12:13:00,73.0,32.0,30.09,NE,45,2.0,3.0,22,0.00,,SKC,0.00,VWS V14.01,2013-03-05 19:13:00,
2013-03-05 12:14:00,74.0,32.8,30.09,NNE,22,6.0,6.0,22,0.00,,SKC,0.00,VWS V14.01,2013-03-05 19:14:00,
2013-03-05 12:15:00,74.0,31.6,30.09,ENE,68,5.0,5.0,21,0.00,,SKC,0.00,VWS V14.01,2013-03-05 19:15:00,
2013-03-05 12:16:00,74.0,31.6,30.09,ENE,68,9.0,11.0,21,0.00,,SKC,0.00,VWS V14.01,2013-03-05 19:16:00,
2013-03-05 12:17:00,74.0,31.6,30.09,ENE,68,5.0,5.0,21,0.00,,SKC,0.00,VWS V14.01,2013-03-05 19:17:00,
2013-03-05 12:18:00,74.0,31.6,30.09,ESE,112,5.0,5.0,21,0.00,,SKC,0.00,VWS V14.01,2013-03-05 19:18:00,
2013-03-05 12:19:00,74.0,31.6,30.09,ENE,68,5.0,6.0,21,0.00,,SKC,0.00,VWS V14.01,2013-03-05 19:19:00,
2013-03-05 12:20:00,75.0,31.2,30.09,SW,225,2.0,3.0,20,0.00,,SKC,0.00,VWS V14.01,2013-03-05 19:20:00,
2013-03-05 12:21:00,75.0,32.5,30.09,SE,135,8.0,10.0,21,0.00,,SKC,0.00,VWS V14.01,2013-03-05 19:21:00,
2013-03-05 12:22:00,75.0,31.2,30.09,SW,225,2.0,3.0,20,0.00,,SKC,0.00,VWS V14.01,2013-03-05 19:22:00,
2013-03-05 12:23:00,75.0,32.5,30.09,West,270,2.0,4.0,21,0.00,,SKC,0.00,VWS V14.01,2013-03-05 19:23:00,
2013-03-05 12:24:00,75.0,31.2,30.08,NNE,22,6.0,8.0,20,0.00,,SKC,0.00,VWS V14.01,2013-03-05 19:24:00,
2013-03-05 12:25:00,75.0,30.0,30.08,SE,135,8.0,9.0,19,0.00,,SKC,0.00,VWS V14.01,2013-03-05 19:25:00,
2013-03-05 12:26:00,75.0,30.0,30.08,NE,45,9.0,9.0,19,0.00,,SKC,0.00,VWS V14.01,2013-03-05 19:26:00,
2013-03-05 12:27:00,75.0,30.0,30.08,SE,135,8.0,9.0,19,0.00,,SKC,0.00,VWS V14.01,2013-03-05 19:27:00,
2013-03-05 12:28:00,75.0,30.0,30.08,SSE,158,12.0,14.0,19,0.00,,SKC,0.00,VWS V14.01,2013-03-05 19:28:00,
2013-03-05 12:29:00,75.0,28.7,30.08,ESE,112,16.0,18.0,18,0.00,,SKC,0.00,VWS V14.01,2013-03-05 19:29:00,
2013-03-05 12:30:00,75.0,28.7,30.08,ESE,112,16.0,18.0,18,0.00,,SKC,0.00,VWS V14.01,2013-03-05 19:30:00,
2013-03-05 12:31:00,75.0,28.7,30.08,ESE,112,8.0,11.0,18,0.00,,SKC,0.00,VWS V14.01,2013-03-05 19:31:00,
2013-03-05 12:32:00,75.0,28.7,30.08,ESE,112,16.0,18.0,18,0.00,,SKC,0.00,VWS V14.01,2013-03-05 19:32:00,
2013-03-05 12:33:00,75.0,28.7,30.08,SE,135,10.0,13.0,18,0.00,,SKC,0.00,VWS V14.01,2013-03-05 19:33:00,
2013-03-05 12:34:00,75.0,28.7,30.08,ESE,112,9.0,10.0,18,0.00,,SKC,0.00,VWS V14.01,2013-03-05 19:34:00,
2013-03-05 12:35:00,75.0,28.7,30.08,SE,135,11.0,16.0,18,0.00,,SKC,0.00,VWS V14.01,2013-03-05 19:35:00,
2013-03-05 12:36:00,75.0,28.7,30.08,SSE,158,7.0,15.0,18,0.00,,SKC,0.00,VWS V14.01,2013-03-05 19:36:00,
2013-03-05 12:37:00,75.0,28.7,30.08,SE,135,11.0,16.0,18,0.00,,SKC,0.00,VWS V14.01,2013-03-05 19:37:00,
2013-03-05 12:38:00,75.0,28.7,30.08,ESE,112,11.0,12.0,18,0.00,,SKC,0.00,VWS V14.01,2013-03-05 19:38:00,
2013-03-05 12:39:00,75.0,28.7,30.08,ESE,112,8.0,9.0,18,0.00,,SKC,0.00,VWS V14.01,2013-03-05 19:39:00,
2013-03-05 12:40:00,75.0,28.7,30.08,SE,135,3.0,5.0,18,0.00,,SKC,0.00,VWS V14.01,2013-03-05 19:40:00,
2013-03-05 12:41:00,75.0,28.7,30.08,SE,135,10.0,10.0,18,0.00,,SKC,0.00,VWS V14.01,2013-03-05 19:41:00,
2013-03-05 12:42:00,75.0,28.7,30.08,SE,135,3.0,5.0,18,0.00,,SKC,0.00,VWS V14.01,2013-03-05 19:42:00,
2013-03-05 12:43:00,75.0,28.7,30.08,ESE,112,10.0,11.0,18,0.00,,SKC,0.00,VWS V14.01,2013-03-05 19:43:00,
2013-03-05 12:44:00,76.0,30.8,30.08,SE,135,10.0,10.0,19,0.00,,SKC,0.00,VWS V14.01,2013-03-05 19:44:00,
2013-03-05 12:45:00,76.0,29.5,30.07,SE,135,6.0,6.0,18,0.00,,SKC,0.00,VWS V14.01,2013-03-05 19:45:00,
2013-03-05 12:46:00,76.0,29.5,30.07,ESE,112,6.0,8.0,18,0.00,,SKC,0.00,VWS V14.01,2013-03-05 19:46:00,
2013-03-05 12:47:00,76.0,29.5,30.07,SE,135,6.0,6.0,18,0.00,,SKC,0.00,VWS V14.01,2013-03-05 19:47:00,
2013-03-05 12:48:00,75.0,28.7,30.07,SSE,158,11.0,13.0,18,0.00,,SKC,0.00,VWS V14.01,2013-03-05 19:48:00,
2013-03-05 12:49:00,75.0,28.7,30.08,SSE,158,8.0,11.0,18,0.00,,SKC,0.00,VWS V14.01,2013-03-05 19:49:00,
2013-03-05 12:50:00,75.0,28.7,30.07,ESE,112,6.0,10.0,18,0.00,,SKC,0.00,VWS V14.01,2013-03-05 19:50:00,
2013-03-05 12:51:00,75.0,28.7,30.08,SSE,158,11.0,11.0,18,0.00,,SKC,0.00,VWS V14.01,2013-03-05 19:51:00,
2013-03-05 12:52:00,75.0,28.7,30.07,ESE,112,6.0,10.0,18,0.00,,SKC,0.00,VWS V14.01,2013-03-05 19:52:00,
2013-03-05 12:53:00,75.0,28.7,30.07,ESE,112,8.0,9.0,18,0.00,,SKC,0.00,VWS V14.01,2013-03-05 19:53:00,
2013-03-05 12:54:00,75.0,28.7,30.07,SW,225,5.0,8.0,18,0.00,,SKC,0.00,VWS V14.01,2013-03-05 19:54:00,
2013-03-05 12:55:00,75.0,28.7,30.07,SE,135,7.0,8.0,18,0.00,,SKC,0.00,VWS V14.01,2013-03-05 19:55:00,
2013-03-05 12:56:00,75.0,28.7,30.07,SSW,202,6.0,6.0,18,0.00,,SKC,0.00,VWS V14.01,2013-03-05 19:56:00,
2013-03-05 12:57:00,75.0,28.7,30.07,SE,135,7.0,8.0,18,0.00,,SKC,0.00,VWS V14.01,2013-03-05 19:57:00,
2013-03-05 12:58:00,75.0,27.3,30.07,SE,135,13.0,13.0,17,0.00,,SKC,0.00,VWS V14.01,2013-03-05 19:58:00,
2013-03-05 12:59:00,75.0,28.7,30.07,SSE,158,3.0,6.0,18,0.00,,SKC,0.00,VWS V14.01,2013-03-05 19:59:00,
2013-03-05 13:00:00,75.0,28.7,30.06,ESE,112,5.0,7.0,18,0.00,,SKC,0.00,VWS V14.01,2013-03-05 20:00:00,
2013-03-05 13:01:00,75.0,28.7,30.07,SSE,158,7.0,10.0,18,0.00,,SKC,0.00,VWS V14.01,2013-03-05 20:01:00,
2013-03-05 13:02:00,75.0,28.7,30.06,ESE,112,5.0,7.0,18,0.00,,SKC,0.00,VWS V14.01,2013-03-05 20:02:00,
2013-03-05 13:03:00,75.0,28.7,30.07,South,180,5.0,5.0,18,0.00,,SKC,0.00,VWS V14.01,2013-03-05 20:03:00,
2013-03-05 13:04:00,75.0,28.7,30.06,SE,135,5.0,5.0,18,0.00,,SKC,0.00,VWS V14.01,2013-03-05 20:04:00,
2013-03-05 13:05:00,76.0,29.5,30.06,SE,135,8.0,8.0,18,0.00,,SKC,0.00,VWS V14.01,2013-03-05 20:05:00,
2013-03-05 13:06:00,76.0,29.5,30.06,SE,135,6.0,6.0,18,0.00,,SKC,0.00,VWS V14.01,2013-03-05 20:06:00,
2013-03-05 13:07:00,76.0,29.5,30.06,SE,135,8.0,8.0,18,0.00,,SKC,0.00,VWS V14.01,2013-03-05 20:07:00,
2013-03-05 13:08:00,76.0,28.1,30.06,SE,135,5.0,6.0,17,0.00,,SKC,0.00,VWS V14.01,2013-03-05 20:08:00,
2013-03-05 13:09:00,76.0,29.5,30.06,ESE,112,8.0,8.0,18,0.00,,SKC,0.00,VWS V14.01,2013-03-05 20:09:00,
2013-03-05 13:10:00,76.0,29.5,30.06,SE,135,9.0,9.0,18,0.00,,SKC,0.00,VWS V14.01,2013-03-05 20:10:00,
2013-03-05 13:11:00,76.0,29.5,30.06,SSE,158,5.0,7.0,18,0.00,,SKC,0.00,VWS V14.01,2013-03-05 20:11:00,
2013-03-05 13:12:00,76.0,29.5,30.06,SE,135,9.0,9.0,18,0.00,,SKC,0.00,VWS V14.01,2013-03-05 20:12:00,
2013-03-05 13:13:00,76.0,28.1,30.06,SSE,158,13.0,14.0,17,0.00,,SKC,0.00,VWS V14.01,2013-03-05 20:13:00,
2013-03-05 13:14:00,76.0,28.1,30.06,SE,135,11.0,11.0,17,0.00,,SKC,0.00,VWS V14.01,2013-03-05 20:14:00,
2013-03-05 13:15:00,76.0,28.1,30.06,SSE,158,10.0,12.0,17,0.00,,SKC,0.00,VWS V14.01,2013-03-05 20:15:00,
2013-03-05 13:16:00,77.0,28.9,30.06,SSE,158,6.0,10.0,17,0.00,,SKC,0.00,VWS V14.01,2013-03-05 20:16:00,
2013-03-05 13:17:00,76.0,28.1,30.06,SSE,158,10.0,12.0,17,0.00,,SKC,0.00,VWS V14.01,2013-03-05 20:17:00,
2013-03-05 13:18:00,77.0,28.9,30.06,SSE,158,10.0,12.0,17,0.00,,SKC,0.00,VWS V14.01,2013-03-05 20:18:00,
2013-03-05 13:19:00,76.0,28.1,30.06,SE,135,8.0,11.0,17,0.00,,SKC,0.00,VWS V14.01,2013-03-05 20:19:00,
2013-03-05 13:20:00,77.0,28.9,30.06,SW,225,5.0,8.0,17,0.00,,SKC,0.00,VWS V14.01,2013-03-05 20:20:00,
2013-03-05 13:21:00,76.0,28.1,30.06,South,180,5.0,6.0,17,0.00,,SKC,0.00,VWS V14.01,2013-03-05 20:21:00,
2013-03-05 13:22:00,77.0,28.9,30.06,SW,225,5.0,8.0,17,0.00,,SKC,0.00,VWS V14.01,2013-03-05 20:22:00,
2013-03-05 13:23:00,77.0,28.9,30.06,South,180,3.0,4.0,17,0.00,,SKC,0.00,VWS V14.01,2013-03-05 20:23:00,
2013-03-05 13:24:00,78.0,29.7,30.05,SSW,202,3.0,3.0,17,0.00,,SKC,0.00,VWS V14.01,2013-03-05 20:24:00,
2013-03-05 13:25:00,78.0,29.7,30.06,SE,135,8.0,10.0,17,0.00,,SKC,0.00,VWS V14.01,2013-03-05 20:25:00,
2013-03-05 13:26:00,78.0,29.7,30.05,South,180,8.0,11.0,17,0.00,,SKC,0.00,VWS V14.01,2013-03-05 20:26:00,
2013-03-05 13:27:00,78.0,29.7,30.06,SE,135,8.0,10.0,17,0.00,,SKC,0.00,VWS V14.01,2013-03-05 20:27:00,
2013-03-05 13:28:00,78.0,28.2,30.05,South,180,8.0,8.0,16,0.00,,SKC,0.00,VWS V14.01,2013-03-05 20:28:00,
2013-03-05 13:29:00,78.0,28.2,30.05,SE,135,10.0,11.0,16,0.00,,SKC,0.00,VWS V14.01,2013-03-05 20:29:00,
2013-03-05 13:30:00,77.0,27.4,30.05,SSE,158,5.0,8.0,16,0.00,,SKC,0.00,VWS V14.01,2013-03-05 20:30:00,
2013-03-05 13:31:00,77.0,27.4,30.05,SE,135,6.0,7.0,16,0.00,,SKC,0.00,VWS V14.01,2013-03-05 20:31:00,
2013-03-05 13:32:00,77.0,27.4,30.05,SSE,158,5.0,8.0,16,0.00,,SKC,0.00,VWS V14.01,2013-03-05 20:32:00,
2013-03-05 13:33:00,77.0,27.4,30.05,ENE,68,10.0,10.0,16,0.00,,SKC,0.00,VWS V14.01,2013-03-05 20:33:00,
2013-03-05 13:34:00,76.0,26.6,30.05,East,90,5.0,8.0,16,0.00,,SKC,0.00,VWS V14.01,2013-03-05 20:34:00,
2013-03-05 13:35:00,76.0,26.6,30.05,ESE,112,6.0,6.0,16,0.00,,SKC,0.00,VWS V14.01,2013-03-05 20:35:00,
2013-03-05 13:36:00,76.0,28.1,30.05,ESE,112,5.0,6.0,17,0.00,,SKC,0.00,VWS V14.01,2013-03-05 20:36:00,
2013-03-05 13:37:00,76.0,26.6,30.05,ESE,112,6.0,6.0,16,0.00,,SKC,0.00,VWS V14.01,2013-03-05 20:37:00,
2013-03-05 13:38:00,76.0,28.1,30.05,SE,135,8.0,8.0,17,0.00,,SKC,0.00,VWS V14.01,2013-03-05 20:38:00,
2013-03-05 13:39:00,77.0,28.9,30.05,SSE,158,8.0,9.0,17,0.00,,SKC,0.00,VWS V14.01,2013-03-05 20:39:00,
2013-03-05 13:40:00,77.0,28.9,30.05,SSE,158,7.0,11.0,17,0.00,,SKC,0.00,VWS V14.01,2013-03-05 20:40:00,
2013-03-05 13:41:00,77.0,28.9,30.05,SSE,158,10.0,10.0,17,0.00,,SKC,0.00,VWS V14.01,2013-03-05 20:41:00,
2013-03-05 13:42:00,77.0,28.9,30.05,SSE,158,7.0,11.0,17,0.00,,SKC,0.00,VWS V14.01,2013-03-05 20:42:00,
2013-03-05 13:43:00,76.0,28.1,30.05,ESE,112,8.0,12.0,17,0.00,,SKC,0.00,VWS V14.01,2013-03-05 20:43:00,
2013-03-05 13:44:00,76.0,28.1,30.05,ESE,112,10.0,12.0,17,0.00,,SKC,0.00,VWS V14.01,2013-03-05 20:44:00,
2013-03-05 13:45:00,76.0,28.1,30.04,ESE,112,11.0,12.0,17,0.00,,SKC,0.00,VWS V14.01,2013-03-05 20:45:00,
2013-03-05 13:46:00,76.0,28.1,30.05,ESE,112,9.0,12.0,17,0.00,,SKC,0.00,VWS V14.01,2013-03-05 20:46:00,
2013-03-05 13:47:00,76.0,28.1,30.04,ESE,112,11.0,12.0,17,0.00,,SKC,0.00,VWS V14.01,2013-03-05 20:47:00,
2013-03-05 13:48:00,76.0,28.1,30.05,ESE,112,9.0,10.0,17,0.00,,SKC,0.00,VWS V14.01,2013-03-05 20:48:00,
2013-03-05 13:49:00,76.0,28.1,30.04,ENE,68,8.0,9.0,17,0.00,,SKC,0.00,VWS V14.01,2013-03-05 20:49:00,
2013-03-05 13:50:00,76.0,30.8,30.04,South,180,6.0,9.0,19,0.00,,SKC,0.00,VWS V14.01,2013-03-05 20:50:00,
2013-03-05 13:51:00,76.0,29.5,30.04,South,180,10.0,10.0,18,0.00,,SKC,0.00,VWS V14.01,2013-03-05 20:51:00,
2013-03-05 13:52:00,76.0,30.8,30.04,South,180,6.0,9.0,19,0.00,,SKC,0.00,VWS V14.01,2013-03-05 20:52:00,
2013-03-05 13:53:00,76.0,30.8,30.04,SW,225,6.0,7.0,19,0.00,,SKC,0.00,VWS V14.01,2013-03-05 20:53:00,
2013-03-05 13:54:00,77.0,31.6,30.04,WSW,248,3.0,4.0,19,0.00,,SKC,0.00,VWS V14.01,2013-03-05 20:54:00,
2013-03-05 13:55:00,78.0,32.4,30.04,WSW,248,7.0,10.0,19,0.00,,SKC,0.00,VWS V14.01,2013-03-05 20:55:00,
2013-03-05 13:56:00,77.0,31.6,30.04,SW,225,9.0,10.0,19,0.00,,SKC,0.00,VWS V14.01,2013-03-05 20:56:00,
2013-03-05 13:57:00,78.0,32.4,30.04,WSW,248,7.0,10.0,19,0.00,,SKC,0.00,VWS V14.01,2013-03-05 20:57:00,
2013-03-05 13:58:00,77.0,31.6,30.04,WSW,248,6.0,6.0,19,0.00,,SKC,0.00,VWS V14.01,2013-03-05 20:58:00,
2013-03-05 13:59:00,77.0,31.6,30.04,WSW,248,10.0,10.0,19,0.00,,SKC,0.00,VWS V14.01,2013-03-05 20:59:00,
2013-03-05 14:00:00,77.0,30.3,30.04,SW,225,7.0,10.0,18,0.00,,SKC,0.00,VWS V14.01,2013-03-05 21:00:00,
2013-03-05 14:01:00,77.0,31.6,30.04,SW,225,7.0,8.0,19,0.00,,SKC,0.00,VWS V14.01,2013-03-05 21:01:00,
2013-03-05 14:02:00,77.0,30.3,30.04,SW,225,7.0,10.0,18,0.00,,SKC,0.00,VWS V14.01,2013-03-05 21:02:00,
2013-03-05 14:03:00,77.0,30.3,30.04,SSW,202,3.0,3.0,18,0.00,,SKC,0.00,VWS V14.01,2013-03-05 21:03:00,
2013-03-05 14:04:00,78.0,32.4,30.04,SSW,202,5.0,5.0,19,0.00,,SKC,0.00,VWS V14.01,2013-03-05 21:04:00,
2013-03-05 14:05:00,78.0,31.1,30.04,WSW,248,6.0,6.0,18,0.00,,SKC,0.00,VWS V14.01,2013-03-05 21:05:00,
2013-03-05 14:06:00,78.0,31.1,30.04,WSW,248,6.0,6.0,18,0.00,,SKC,0.00,VWS V14.01,2013-03-05 21:06:00,
2013-03-05 14:07:00,78.0,31.1,30.04,WSW,248,6.0,6.0,18,0.00,,SKC,0.00,VWS V14.01,2013-03-05 21:07:00,
2013-03-05 14:08:00,79.0,31.9,30.04,South,180,5.0,5.0,18,0.00,,SKC,0.00,VWS V14.01,2013-03-05 21:08:00,
2013-03-05 14:09:00,78.0,31.1,30.04,South,180,3.0,3.0,18,0.00,,SKC,0.00,VWS V14.01,2013-03-05 21:09:00,
2013-03-05 14:10:00,78.0,29.7,30.04,SSW,202,8.0,8.0,17,0.00,,SKC,0.00,VWS V14.01,2013-03-05 21:10:00,
2013-03-05 14:11:00,78.0,31.1,30.04,SSW,202,1.0,2.0,18,0.00,,SKC,0.00,VWS V14.01,2013-03-05 21:11:00,
2013-03-05 14:12:00,78.0,29.7,30.04,SSW,202,8.0,8.0,17,0.00,,SKC,0.00,VWS V14.01,2013-03-05 21:12:00,
2013-03-05 14:13:00,78.0,29.7,30.04,South,180,3.0,5.0,17,0.00,,SKC,0.00,VWS V14.01,2013-03-05 21:13:00,
2013-03-05 14:14:00,78.0,29.7,30.03,West,270,8.0,8.0,17,0.00,,SKC,0.00,VWS V14.01,2013-03-05 21:14:00,
2013-03-05 14:15:00,78.0,29.7,30.03,SW,225,8.0,8.0,17,0.00,,SKC,0.00,VWS V14.01,2013-03-05 21:15:00,
2013-03-05 14:16:00,78.0,31.1,30.03,SSW,202,2.0,2.0,18,0.00,,SKC,0.00,VWS V14.01,2013-03-05 21:16:00,
2013-03-05 14:17:00,78.0,29.7,30.03,SW,225,8.0,8.0,17,0.00,,SKC,0.00,VWS V14.01,2013-03-05 21:17:00,
2013-03-05 14:18:00,78.0,29.7,30.04,South,180,11.0,11.0,17,0.00,,SKC,0.00,VWS V14.01,2013-03-05 21:18:00,
2013-03-05 14:19:00,79.0,31.9,30.04,SW,225,6.0,8.0,18,0.00,,SKC,0.00,VWS V14.01,2013-03-05 21:19:00,
2013-03-05 14:20:00,78.0,29.7,30.03,SE,135,5.0,6.0,17,0.00,,SKC,0.00,VWS V14.01,2013-03-05 21:20:00,
2013-03-05 14:21:00,78.0,29.7,30.03,SW,225,3.0,3.0,17,0.00,,SKC,0.00,VWS V14.01,2013-03-05 21:21:00,
2013-03-05 14:22:00,78.0,29.7,30.03,SE,135,5.0,6.0,17,0.00,,SKC,0.00,VWS V14.01,2013-03-05 21:22:00,
2013-03-05 14:23:00,78.0,29.7,30.03,South,180,4.0,5.0,17,0.00,,SKC,0.00,VWS V14.01,2013-03-05 21:23:00,
2013-03-05 14:24:00,78.0,31.1,30.03,SSW,202,4.0,5.0,18,0.00,,SKC,0.00,VWS V14.01,2013-03-05 21:24:00,
2013-03-05 14:25:00,78.0,29.7,30.03,SW,225,7.0,10.0,17,0.00,,SKC,0.00,VWS V14.01,2013-03-05 21:25:00,
2013-03-05 14:26:00,78.0,31.1,30.03,WSW,248,8.0,8.0,18,0.00,,SKC,0.00,VWS V14.01,2013-03-05 21:26:00,
2013-03-05 14:27:00,78.0,29.7,30.03,SW,225,7.0,10.0,17,0.00,,SKC,0.00,VWS V14.01,2013-03-05 21:27:00,
2013-03-05 14:28:00,77.0,28.9,30.03,SW,225,14.0,14.0,17,0.00,,SKC,0.00,VWS V14.01,2013-03-05 21:28:00,
2013-03-05 14:29:00,77.0,28.9,30.03,WSW,248,10.0,10.0,17,0.00,,SKC,0.00,VWS V14.01,2013-03-05 21:29:00,
2013-03-05 14:30:00,77.0,28.9,30.03,WSW,248,8.0,9.0,17,0.00,,SKC,0.00,VWS V14.01,2013-03-05 21:30:00,
2013-03-05 14:31:00,77.0,28.9,30.03,SSW,202,10.0,10.0,17,0.00,,SKC,0.00,VWS V14.01,2013-03-05 21:31:00,
2013-03-05 14:32:00,77.0,28.9,30.03,WSW,248,8.0,9.0,17,0.00,,SKC,0.00,VWS V14.01,2013-03-05 21:32:00,
2013-03-05 14:33:00,77.0,30.3,30.03,South,180,4.0,4.0,18,0.00,,SKC,0.00,VWS V14.01,2013-03-05 21:33:00,
2013-03-05 14:34:00,78.0,29.7,30.03,SSE,158,10.0,10.0,17,0.00,,SKC,0.00,VWS V14.01,2013-03-05 21:34:00,
2013-03-05 14:35:00,78.0,29.7,30.03,SSW,202,5.0,5.0,17,0.00,,SKC,0.00,VWS V14.01,2013-03-05 21:35:00,
2013-03-05 14:36:00,77.0,28.9,30.03,WNW,292,5.0,7.0,17,0.00,,SKC,0.00,VWS V14.01,2013-03-05 21:36:00,
2013-03-05 14:37:00,78.0,29.7,30.03,SSW,202,5.0,5.0,17,0.00,,SKC,0.00,VWS V14.01,2013-03-05 21:37:00,
2013-03-05 14:38:00,78.0,29.7,30.03,South,180,3.0,3.0,17,0.00,,SKC,0.00,VWS V14.01,2013-03-05 21:38:00,
2013-03-05 14:39:00,78.0,29.7,30.03,SSW,202,5.0,5.0,17,0.00,,SKC,0.00,VWS V14.01,2013-03-05 21:39:00,
2013-03-05 14:40:00,79.0,30.5,30.03,SSW,202,2.0,3.0,17,0.00,,SKC,0.00,VWS V14.01,2013-03-05 21:40:00,
2013-03-05 14:41:00,78.0,29.7,30.03,SSE,158,6.0,6.0,17,0.00,,SKC,0.00,VWS V14.01,2013-03-05 21:41:00,
2013-03-05 14:42:00,79.0,30.5,30.03,SSW,202,2.0,3.0,17,0.00,,SKC,0.00,VWS V14.01,2013-03-05 21:42:00,
2013-03-05 14:43:00,79.0,30.5,30.03,WSW,248,3.0,5.0,17,0.00,,SKC,0.00,VWS V14.01,2013-03-05 21:43:00,
2013-03-05 14:44:00,79.0,30.5,30.03,South,180,2.0,3.0,17,0.00,,SKC,0.00,VWS V14.01,2013-03-05 21:44:00,
2013-03-05 14:45:00,79.0,30.5,30.03,SW,225,10.0,10.0,17,0.00,,SKC,0.00,VWS V14.01,2013-03-05 21:45:00,
2013-03-05 14:46:00,79.0,30.5,30.03,SE,135,3.0,5.0,17,0.00,,SKC,0.00,VWS V14.01,2013-03-05 21:46:00,
2013-03-05 14:47:00,79.0,30.5,30.03,SW,225,10.0,10.0,17,0.00,,SKC,0.00,VWS V14.01,2013-03-05 21:47:00,
2013-03-05 14:48:00,78.0,29.7,30.03,WSW,248,8.0,10.0,17,0.00,,SKC,0.00,VWS V14.01,2013-03-05 21:48:00,
2013-03-05 14:49:00,78.0,29.7,30.03,WSW,248,5.0,6.0,17,0.00,,SKC,0.00,VWS V14.01,2013-03-05 21:49:00,
2013-03-05 14:50:00,77.0,28.9,30.03,WNW,292,1.0,1.0,17,0.00,,SKC,0.00,VWS V14.01,2013-03-05 21:50:00,
2013-03-05 14:51:00,77.0,28.9,30.03,WNW,292,3.0,3.0,17,0.00,,SKC,0.00,VWS V14.01,2013-03-05 21:51:00,
2013-03-05 14:52:00,77.0,28.9,30.03,WNW,292,1.0,1.0,17,0.00,,SKC,0.00,VWS V14.01,2013-03-05 21:52:00,
2013-03-05 14:53:00,77.0,28.9,30.03,WNW,292,0.0,0.0,17,0.00,,SKC,0.00,VWS V14.01,2013-03-05 21:53:00,
2013-03-05 14:54:00,77.0,28.9,30.03,West,270,0.0,0.0,17,0.00,,SKC,0.00,VWS V14.01,2013-03-05 21:54:00,
2013-03-05 14:55:00,77.0,30.3,30.03,SSW,202,3.0,3.0,18,0.00,,SKC,0.00,VWS V14.01,2013-03-05 21:55:00,
2013-03-05 14:56:00,77.0,30.3,30.03,WSW,248,0.0,1.0,18,0.00,,SKC,0.00,VWS V14.01,2013-03-05 21:56:00,
2013-03-05 14:57:00,77.0,30.3,30.03,SSW,202,3.0,3.0,18,0.00,,SKC,0.00,VWS V14.01,2013-03-05 21:57:00,
2013-03-05 14:58:00,77.0,30.3,30.03,SSW,202,7.0,7.0,18,0.00,,SKC,0.00,VWS V14.01,2013-03-05 21:58:00,
2013-03-05 14:59:00,77.0,30.3,30.03,South,180,5.0,6.0,18,0.00,,SKC,0.00,VWS V14.01,2013-03-05 21:59:00,
2013-03-05 15:00:00,77.0,30.3,30.03,SSE,158,4.0,5.0,18,0.00,,SKC,0.00,VWS V14.01,2013-03-05 22:00:00,
2013-03-05 15:01:00,78.0,31.1,30.03,SW,225,5.0,5.0,18,0.00,,SKC,0.00,VWS V14.01,2013-03-05 22:01:00,
2013-03-05 15:02:00,77.0,30.3,30.03,SSE,158,4.0,5.0,18,0.00,,SKC,0.00,VWS V14.01,2013-03-05 22:02:00,
2013-03-05 15:03:00,77.0,30.3,30.03,SW,225,6.0,6.0,18,0.00,,SKC,0.00,VWS V14.01,2013-03-05 22:03:00,
2013-03-05 15:04:00,77.0,30.3,30.03,SW,225,5.0,7.0,18,0.00,,SKC,0.00,VWS V14.01,2013-03-05 22:04:00,
2013-03-05 15:05:00,77.0,30.3,30.03,SSE,158,8.0,11.0,18,0.00,,SKC,0.00,VWS V14.01,2013-03-05 22:05:00,
2013-03-05 15:06:00,77.0,30.3,30.03,SW,225,3.0,5.0,18,0.00,,SKC,0.00,VWS V14.01,2013-03-05 22:06:00,
2013-03-05 15:07:00,77.0,30.3,30.03,SSE,158,8.0,11.0,18,0.00,,SKC,0.00,VWS V14.01,2013-03-05 22:07:00,
2013-03-05 15:08:00,77.0,30.3,30.03,SSW,202,5.0,6.0,18,0.00,,SKC,0.00,VWS V14.01,2013-03-05 22:08:00,
2013-03-05 15:09:00,77.0,28.9,30.03,South,180,7.0,10.0,17,0.00,,SKC,0.00,VWS V14.01,2013-03-05 22:09:00,
2013-03-05 15:10:00,77.0,30.3,30.03,WSW,248,8.0,11.0,18,0.00,,SKC,0.00,VWS V14.01,2013-03-05 22:10:00,
2013-03-05 15:11:00,77.0,30.3,30.03,SSW,202,3.0,5.0,18,0.00,,SKC,0.00,VWS V14.01,2013-03-05 22:11:00,
2013-03-05 15:12:00,77.0,30.3,30.03,WSW,248,8.0,11.0,18,0.00,,SKC,0.00,VWS V14.01,2013-03-05 22:12:00,
2013-03-05 15:13:00,77.0,30.3,30.03,SW,225,11.0,11.0,18,0.00,,SKC,0.00,VWS V14.01,2013-03-05 22:13:00,
2013-03-05 15:14:00,76.0,29.5,30.03,South,180,8.0,10.0,18,0.00,,SKC,0.00,VWS V14.01,2013-03-05 22:14:00,
2013-03-05 15:15:00,76.0,29.5,30.02,WNW,292,4.0,8.0,18,0.00,,SKC,0.00,VWS V14.01,2013-03-05 22:15:00,
2013-03-05 15:16:00,77.0,30.3,30.03,SSW,202,6.0,6.0,18,0.00,,SKC,0.00,VWS V14.01,2013-03-05 22:16:00,
2013-03-05 15:17:00,76.0,29.5,30.02,WNW,292,4.0,8.0,18,0.00,,SKC,0.00,VWS V14.01,2013-03-05 22:17:00,
2013-03-05 15:18:00,77.0,30.3,30.03,SW,225,7.0,8.0,18,0.00,,SKC,0.00,VWS V14.01,2013-03-05 22:18:00,
2013-03-05 15:19:00,77.0,30.3,30.02,South,180,3.0,3.0,18,0.00,,SKC,0.00,VWS V14.01,2013-03-05 22:19:00,
2013-03-05 15:20:00,77.0,30.3,30.02,South,180,0.0,1.0,18,0.00,,SKC,0.00,VWS V14.01,2013-03-05 22:20:00,
2013-03-05 15:21:00,77.0,30.3,30.02,SE,135,0.0,1.0,18,0.00,,SKC,0.00,VWS V14.01,2013-03-05 22:21:00,
2013-03-05 15:22:00,77.0,30.3,30.02,South,180,0.0,1.0,18,0.00,,SKC,0.00,VWS V14.01,2013-03-05 22:22:00,
2013-03-05 15:23:00,77.0,30.3,30.02,SW,225,2.0,3.0,18,0.00,,SKC,0.00,VWS V14.01,2013-03-05 22:23:00,
2013-03-05 15:24:00,77.0,30.3,30.02,SW,225,0.0,1.0,18,0.00,,SKC,0.00,VWS V14.01,2013-03-05 22:24:00,
2013-03-05 15:25:00,77.0,30.3,30.02,SE,135,5.0,6.0,18,0.00,,SKC,0.00,VWS V14.01,2013-03-05 22:25:00,
2013-03-05 15:26:00,77.0,30.3,30.02,SE,135,6.0,6.0,18,0.00,,SKC,0.00,VWS V14.01,2013-03-05 22:26:00,
2013-03-05 15:27:00,77.0,30.3,30.02,SE,135,5.0,6.0,18,0.00,,SKC,0.00,VWS V14.01,2013-03-05 22:27:00,
2013-03-05 15:28:00,77.0,30.3,30.02,SSE,158,5.0,6.0,18,0.00,,SKC,0.00,VWS V14.01,2013-03-05 22:28:00,
2013-03-05 15:29:00,77.0,30.3,30.02,South,180,6.0,7.0,18,0.00,,SKC,0.00,VWS V14.01,2013-03-05 22:29:00,
2013-03-05 15:30:00,77.0,30.3,30.02,South,180,3.0,7.0,18,0.00,,SKC,0.00,VWS V14.01,2013-03-05 22:30:00,
2013-03-05 15:31:00,77.0,30.3,30.02,WSW,248,5.0,5.0,18,0.00,,SKC,0.00,VWS V14.01,2013-03-05 22:31:00,
2013-03-05 15:32:00,77.0,30.3,30.02,South,180,3.0,7.0,18,0.00,,SKC,0.00,VWS V14.01,2013-03-05 22:32:00,
2013-03-05 15:33:00,77.0,30.3,30.02,SE,135,4.0,5.0,18,0.00,,SKC,0.00,VWS V14.01,2013-03-05 22:33:00,
2013-03-05 15:34:00,77.0,30.3,30.02,ESE,112,8.0,10.0,18,0.00,,SKC,0.00,VWS V14.01,2013-03-05 22:34:00,
2013-03-05 15:35:00,76.0,29.5,30.02,SSE,158,6.0,8.0,18,0.00,,SKC,0.00,VWS V14.01,2013-03-05 22:35:00,
2013-03-05 15:36:00,77.0,30.3,30.02,SSE,158,9.0,9.0,18,0.00,,SKC,0.00,VWS V14.01,2013-03-05 22:36:00,
2013-03-05 15:37:00,76.0,29.5,30.02,SSE,158,6.0,8.0,18,0.00,,SKC,0.00,VWS V14.01,2013-03-05 22:37:00,
2013-03-05 15:38:00,76.0,29.5,30.02,SSE,158,5.0,6.0,18,0.00,,SKC,0.00,VWS V14.01,2013-03-05 22:38:00,
2013-03-05 15:39:00,76.0,29.5,30.02,SSW,202,3.0,3.0,18,0.00,,SKC,0.00,VWS V14.01,2013-03-05 22:39:00,
2013-03-05 15:40:00,76.0,29.5,30.03,South,180,5.0,6.0,18,0.00,,SKC,0.00,VWS V14.01,2013-03-05 22:40:00,
2013-03-05 15:41:00,76.0,29.5,30.03,SE,135,4.0,5.0,18,0.00,,SKC,0.00,VWS V14.01,2013-03-05 22:41:00,
2013-03-05 15:42:00,76.0,29.5,30.03,South,180,5.0,6.0,18,0.00,,SKC,0.00,VWS V14.01,2013-03-05 22:42:00,
2013-03-05 15:43:00,76.0,29.5,30.03,SW,225,4.0,5.0,18,0.00,,SKC,0.00,VWS V14.01,2013-03-05 22:43:00,
2013-03-05 15:44:00,76.0,29.5,30.03,SSW,202,5.0,6.0,18,0.00,,SKC,0.00,VWS V14.01,2013-03-05 22:44:00,
2013-03-05 15:45:00,76.0,29.5,30.03,SSW,202,3.0,4.0,18,0.00,,SKC,0.00,VWS V14.01,2013-03-05 22:45:00,
2013-03-05 15:46:00,76.0,29.5,30.03,WSW,248,5.0,5.0,18,0.00,,SKC,0.00,VWS V14.01,2013-03-05 22:46:00,
2013-03-05 15:47:00,76.0,29.5,30.03,SSW,202,3.0,4.0,18,0.00,,SKC,0.00,VWS V14.01,2013-03-05 22:47:00,
2013-03-05 15:48:00,76.0,29.5,30.03,SSE,158,5.0,6.0,18,0.00,,SKC,0.00,VWS V14.01,2013-03-05 22:48:00,
2013-03-05 15:49:00,76.0,29.5,30.03,South,180,1.0,2.0,18,0.00,,SKC,0.00,VWS V14.01,2013-03-05 22:49:00,
2013-03-05 15:50:00,76.0,29.5,30.02,South,180,3.0,3.0,18,0.00,,SKC,0.00,VWS V14.01,2013-03-05 22:50:00,
2013-03-05 15:51:00,76.0,29.5,30.02,SW,225,6.0,6.0,18,0.00,,SKC,0.00,VWS V14.01,2013-03-05 22:51:00,
2013-03-05 15:52:00,76.0,29.5,30.02,South,180,3.0,3.0,18,0.00,,SKC,0.00,VWS V14.01,2013-03-05 22:52:00,
2013-03-05 15:53:00,76.0,29.5,30.02,SSE,158,3.0,4.0,18,0.00,,SKC,0.00,VWS V14.01,2013-03-05 22:53:00,
2013-03-05 15:54:00,76.0,29.5,30.02,South,180,5.0,6.0,18,0.00,,SKC,0.00,VWS V14.01,2013-03-05 22:54:00,
2013-03-05 15:55:00,76.0,29.5,30.02,SW,225,3.0,4.0,18,0.00,,SKC,0.00,VWS V14.01,2013-03-05 22:55:00,
2013-03-05 15:56:00,76.0,29.5,30.02,SSW,202,3.0,3.0,18,0.00,,SKC,0.00,VWS V14.01,2013-03-05 22:56:00,
2013-03-05 15:57:00,76.0,29.5,30.02,SW,225,3.0,4.0,18,0.00,,SKC,0.00,VWS V14.01,2013-03-05 22:57:00,
2013-03-05 15:58:00,76.0,29.5,30.02,SW,225,4.0,5.0,18,0.00,,SKC,0.00,VWS V14.01,2013-03-05 22:58:00,
2013-03-05 15:59:00,76.0,29.5,30.02,SSE,158,3.0,3.0,18,0.00,,SKC,0.00,VWS V14.01,2013-03-05 22:59:00,
2013-03-05 16:00:00,76.0,28.1,30.02,WSW,248,3.0,4.0,17,0.00,,SKC,0.00,VWS V14.01,2013-03-05 23:00:00,
2013-03-05 16:01:00,76.0,29.5,30.02,SW,225,5.0,5.0,18,0.00,,SKC,0.00,VWS V14.01,2013-03-05 23:01:00,
2013-03-05 16:02:00,76.0,28.1,30.02,WSW,248,3.0,4.0,17,0.00,,SKC,0.00,VWS V14.01,2013-03-05 23:02:00,
2013-03-05 16:03:00,76.0,29.5,30.02,SW,225,3.0,5.0,18,0.00,,SKC,0.00,VWS V14.01,2013-03-05 23:03:00,
2013-03-05 16:04:00,76.0,29.5,30.03,WSW,248,3.0,5.0,18,0.00,,SKC,0.00,VWS V14.01,2013-03-05 23:04:00,
2013-03-05 16:05:00,76.0,29.5,30.02,SW,225,4.0,4.0,18,0.00,,SKC,0.00,VWS V14.01,2013-03-05 23:05:00,
2013-03-05 16:06:00,75.0,27.3,30.02,WNW,292,3.0,4.0,17,0.00,,SKC,0.00,VWS V14.01,2013-03-05 23:06:00,
2013-03-05 16:07:00,76.0,29.5,30.02,SW,225,4.0,4.0,18,0.00,,SKC,0.00,VWS V14.01,2013-03-05 23:07:00,
2013-03-05 16:08:00,76.0,29.5,30.02,SSW,202,1.0,3.0,18,0.00,,SKC,0.00,VWS V14.01,2013-03-05 23:08:00,
2013-03-05 16:09:00,76.0,29.5,30.02,SW,225,3.0,4.0,18,0.00,,SKC,0.00,VWS V14.01,2013-03-05 23:09:00,
2013-03-05 16:10:00,76.0,29.5,30.02,SW,225,3.0,3.0,18,0.00,,SKC,0.00,VWS V14.01,2013-03-05 23:10:00,
2013-03-05 16:11:00,76.0,29.5,30.02,SSW,202,4.0,5.0,18,0.00,,SKC,0.00,VWS V14.01,2013-03-05 23:11:00,
2013-03-05 16:12:00,76.0,29.5,30.02,SW,225,3.0,3.0,18,0.00,,SKC,0.00,VWS V14.01,2013-03-05 23:12:00,
2013-03-05 16:13:00,76.0,29.5,30.02,South,180,2.0,2.0,18,0.00,,SKC,0.00,VWS V14.01,2013-03-05 23:13:00,
2013-03-05 16:14:00,76.0,28.1,30.02,ESE,112,5.0,5.0,17,0.00,,SKC,0.00,VWS V14.01,2013-03-05 23:14:00,
2013-03-05 16:15:00,76.0,29.5,30.02,SW,225,2.0,3.0,18,0.00,,SKC,0.00,VWS V14.01,2013-03-05 23:15:00,
2013-03-05 16:16:00,75.0,28.7,30.02,SW,225,3.0,4.0,18,0.00,,SKC,0.00,VWS V14.01,2013-03-05 23:16:00,
2013-03-05 16:17:00,76.0,29.5,30.02,SW,225,2.0,3.0,18,0.00,,SKC,0.00,VWS V14.01,2013-03-05 23:17:00,
2013-03-05 16:18:00,76.0,29.5,30.02,South,180,5.0,5.0,18,0.00,,SKC,0.00,VWS V14.01,2013-03-05 23:18:00,
2013-03-05 16:19:00,75.0,27.3,30.02,SW,225,4.0,5.0,17,0.00,,SKC,0.00,VWS V14.01,2013-03-05 23:19:00,
2013-03-05 16:20:00,75.0,28.7,30.02,SW,225,3.0,4.0,18,0.00,,SKC,0.00,VWS V14.01,2013-03-05 23:20:00,
2013-03-05 16:21:00,75.0,28.7,30.02,SSW,202,3.0,3.0,18,0.00,,SKC,0.00,VWS V14.01,2013-03-05 23:21:00,
2013-03-05 16:22:00,75.0,28.7,30.02,SW,225,3.0,4.0,18,0.00,,SKC,0.00,VWS V14.01,2013-03-05 23:22:00,
2013-03-05 16:23:00,75.0,28.7,30.02,SW,225,3.0,3.0,18,0.00,,SKC,0.00,VWS V14.01,2013-03-05 23:23:00,
2013-03-05 16:24:00,75.0,28.7,30.02,SW,225,1.0,1.0,18,0.00,,SKC,0.00,VWS V14.01,2013-03-05 23:24:00,
2013-03-05 16:25:00,75.0,27.3,30.02,SW,225,5.0,5.0,17,0.00,,SKC,0.00,VWS V14.01,2013-03-05 23:25:00,
2013-03-05 16:26:00,75.0,28.7,30.02,SW,225,2.0,3.0,18,0.00,,SKC,0.00,VWS V14.01,2013-03-05 23:26:00,
2013-03-05 16:27:00,75.0,27.3,30.02,SW,225,5.0,5.0,17,0.00,,SKC,0.00,VWS V14.01,2013-03-05 23:27:00,
2013-03-05 16:28:00,75.0,28.7,30.02,WSW,248,5.0,5.0,18,0.00,,SKC,0.00,VWS V14.01,2013-03-05 23:28:00,
2013-03-05 16:29:00,75.0,28.7,30.02,WSW,248,4.0,5.0,18,0.00,,SKC,0.00,VWS V14.01,2013-03-05 23:29:00,
2013-03-05 16:30:00,75.0,28.7,30.02,WSW,248,5.0,5.0,18,0.00,,SKC,0.00,VWS V14.01,2013-03-05 23:30:00,
2013-03-05 16:31:00,75.0,28.7,30.02,SW,225,3.0,4.0,18,0.00,,SKC,0.00,VWS V14.01,2013-03-05 23:31:00,
2013-03-05 16:32:00,75.0,28.7,30.02,WSW,248,5.0,5.0,18,0.00,,SKC,0.00,VWS V14.01,2013-03-05 23:32:00,
2013-03-05 16:33:00,75.0,28.7,30.02,WSW,248,3.0,6.0,18,0.00,,SKC,0.00,VWS V14.01,2013-03-05 23:33:00,
2013-03-05 16:34:00,75.0,28.7,30.02,West,270,4.0,6.0,18,0.00,,SKC,0.00,VWS V14.01,2013-03-05 23:34:00,
2013-03-05 16:35:00,74.0,27.9,30.02,West,270,8.0,8.0,18,0.00,,SKC,0.00,VWS V14.01,2013-03-05 23:35:00,
2013-03-05 16:36:00,74.0,27.9,30.02,West,270,6.0,8.0,18,0.00,,SKC,0.00,VWS V14.01,2013-03-05 23:36:00,
2013-03-05 16:37:00,74.0,27.9,30.02,West,270,8.0,8.0,18,0.00,,SKC,0.00,VWS V14.01,2013-03-05 23:37:00,
2013-03-05 16:38:00,74.0,27.9,30.02,WSW,248,8.0,10.0,18,0.00,,SKC,0.00,VWS V14.01,2013-03-05 23:38:00,
2013-03-05 16:39:00,74.0,29.2,30.02,WSW,248,5.0,6.0,19,0.00,,SKC,0.00,VWS V14.01,2013-03-05 23:39:00,
2013-03-05 16:40:00,74.0,27.9,30.02,SW,225,5.0,6.0,18,0.00,,SKC,0.00,VWS V14.01,2013-03-05 23:40:00,
2013-03-05 16:41:00,74.0,27.9,30.02,WNW,292,8.0,10.0,18,0.00,,SKC,0.00,VWS V14.01,2013-03-05 23:41:00,
2013-03-05 16:42:00,74.0,27.9,30.02,SW,225,5.0,6.0,18,0.00,,SKC,0.00,VWS V14.01,2013-03-05 23:42:00,
2013-03-05 16:43:00,74.0,29.2,30.02,WNW,292,5.0,5.0,19,0.00,,SKC,0.00,VWS V14.01,2013-03-05 23:43:00,
2013-03-05 16:44:00,74.0,29.2,30.02,West,270,5.0,5.0,19,0.00,,SKC,0.00,VWS V14.01,2013-03-05 23:44:00,
2013-03-05 16:45:00,73.0,27.0,30.02,SW,225,6.0,7.0,18,0.00,,SKC,0.00,VWS V14.01,2013-03-05 23:45:00,
2013-03-05 16:46:00,74.0,29.2,30.02,WSW,248,9.0,9.0,19,0.00,,SKC,0.00,VWS V14.01,2013-03-05 23:46:00,
2013-03-05 16:47:00,73.0,27.0,30.02,SW,225,6.0,7.0,18,0.00,,SKC,0.00,VWS V14.01,2013-03-05 23:47:00,
2013-03-05 16:48:00,73.0,27.0,30.02,WSW,248,5.0,6.0,18,0.00,,SKC,0.00,VWS V14.01,2013-03-05 23:48:00,
2013-03-05 16:49:00,73.0,28.3,30.01,WSW,248,9.0,9.0,19,0.00,,SKC,0.00,VWS V14.01,2013-03-05 23:49:00,
2013-03-05 16:50:00,73.0,28.3,30.02,West,270,4.0,5.0,19,0.00,,SKC,0.00,VWS V14.01,2013-03-05 23:50:00,
2013-03-05 16:51:00,73.0,28.3,30.02,SW,225,3.0,5.0,19,0.00,,SKC,0.00,VWS V14.01,2013-03-05 23:51:00,
2013-03-05 16:52:00,73.0,28.3,30.02,West,270,4.0,5.0,19,0.00,,SKC,0.00,VWS V14.01,2013-03-05 23:52:00,
2013-03-05 16:53:00,73.0,27.0,30.01,West,270,6.0,8.0,18,0.00,,SKC,0.00,VWS V14.01,2013-03-05 23:53:00,
2013-03-05 16:54:00,73.0,28.3,30.01,WSW,248,3.0,5.0,19,0.00,,SKC,0.00,VWS V14.01,2013-03-05 23:54:00,
2013-03-05 16:55:00,73.0,28.3,30.01,WSW,248,5.0,5.0,19,0.00,,SKC,0.00,VWS V14.01,2013-03-05 23:55:00,
2013-03-05 16:56:00,73.0,27.0,30.01,SW,225,5.0,6.0,18,0.00,,SKC,0.00,VWS V14.01,2013-03-05 23:56:00,
2013-03-05 16:57:00,73.0,28.3,30.01,WSW,248,5.0,5.0,19,0.00,,SKC,0.00,VWS V14.01,2013-03-05 23:57:00,
2013-03-05 16:58:00,73.0,28.3,30.01,SW,225,5.0,5.0,19,0.00,,SKC,0.00,VWS V14.01,2013-03-05 23:58:00,
2013-03-05 16:59:00,73.0,28.3,30.01,SW,225,4.0,4.0,19,0.00,,SKC,0.00,VWS V14.01,2013-03-05 23:59:00,
2013-03-05 17:00:00,73.0,28.3,30.01,West,270,4.0,5.0,19,0.00,,SKC,0.00,VWS V14.01,2013-03-06 00:00:00,
2013-03-05 17:01:00,73.0,28.3,30.01,WSW,248,3.0,4.0,19,0.00,,SKC,0.00,VWS V14.01,2013-03-06 00:01:00,
2013-03-05 17:02:00,73.0,28.3,30.01,West,270,4.0,5.0,19,0.00,,SKC,0.00,VWS V14.01,2013-03-06 00:02:00,
2013-03-05 17:03:00,73.0,28.3,30.01,West,270,3.0,5.0,19,0.00,,SKC,0.00,VWS V14.01,2013-03-06 00:03:00,
2013-03-05 17:04:00,73.0,28.3,30.01,West,270,5.0,6.0,19,0.00,,SKC,0.00,VWS V14.01,2013-03-06 00:04:00,
2013-03-05 17:05:00,73.0,28.3,30.01,WSW,248,2.0,3.0,19,0.00,,SKC,0.00,VWS V14.01,2013-03-06 00:05:00,
2013-03-05 17:06:00,73.0,28.3,30.01,West,270,3.0,3.0,19,0.00,,SKC,0.00,VWS V14.01,2013-03-06 00:06:00,
2013-03-05 17:07:00,73.0,28.3,30.01,WSW,248,2.0,3.0,19,0.00,,SKC,0.00,VWS V14.01,2013-03-06 00:07:00,
2013-03-05 17:08:00,73.0,28.3,30.01,SW,225,2.0,3.0,19,0.00,,SKC,0.00,VWS V14.01,2013-03-06 00:08:00,
2013-03-05 17:09:00,73.0,28.3,30.01,SW,225,4.0,5.0,19,0.00,,SKC,0.00,VWS V14.01,2013-03-06 00:09:00,
2013-03-05 17:10:00,73.0,28.3,30.01,SSE,158,2.0,2.0,19,0.00,,SKC,0.00,VWS V14.01,2013-03-06 00:10:00,
2013-03-05 17:11:00,73.0,28.3,30.01,WSW,248,4.0,4.0,19,0.00,,SKC,0.00,VWS V14.01,2013-03-06 00:11:00,
2013-03-05 17:12:00,73.0,28.3,30.01,SSE,158,2.0,2.0,19,0.00,,SKC,0.00,VWS V14.01,2013-03-06 00:12:00,
2013-03-05 17:13:00,73.0,29.6,30.01,WNW,292,5.0,5.0,20,0.00,,SKC,0.00,VWS V14.01,2013-03-06 00:13:00,
2013-03-05 17:14:00,73.0,29.6,30.01,West,270,5.0,6.0,20,0.00,,SKC,0.00,VWS V14.01,2013-03-06 00:14:00,
2013-03-05 17:15:00,72.0,30.0,30.01,WNW,292,6.0,7.0,21,0.00,,SKC,0.00,VWS V14.01,2013-03-06 00:15:00,
2013-03-05 17:16:00,72.0,30.0,30.01,WNW,292,6.0,9.0,21,0.00,,SKC,0.00,VWS V14.01,2013-03-06 00:16:00,
2013-03-05 17:17:00,72.0,30.0,30.01,WNW,292,6.0,7.0,21,0.00,,SKC,0.00,VWS V14.01,2013-03-06 00:17:00,
2013-03-05 17:18:00,72.0,30.0,30.01,West,270,4.0,6.0,21,0.00,,SKC,0.00,VWS V14.01,2013-03-06 00:18:00,
2013-03-05 17:19:00,72.0,30.0,30.01,WSW,248,6.0,8.0,21,0.00,,SKC,0.00,VWS V14.01,2013-03-06 00:19:00,
2013-03-05 17:20:00,72.0,31.1,30.01,WSW,248,6.0,7.0,22,0.00,,SKC,0.00,VWS V14.01,2013-03-06 00:20:00,
2013-03-05 17:21:00,72.0,31.1,30.01,West,270,6.0,6.0,22,0.00,,SKC,0.00,VWS V14.01,2013-03-06 00:21:00,
2013-03-05 17:22:00,72.0,31.1,30.01,WSW,248,6.0,7.0,22,0.00,,SKC,0.00,VWS V14.01,2013-03-06 00:22:00,
2013-03-05 17:23:00,72.0,31.1,30.01,West,270,6.0,6.0,22,0.00,,SKC,0.00,VWS V14.01,2013-03-06 00:23:00,
2013-03-05 17:24:00,72.0,31.1,30.01,West,270,6.0,6.0,22,0.00,,SKC,0.00,VWS V14.01,2013-03-06 00:24:00,
2013-03-05 17:25:00,72.0,31.1,30.01,West,270,3.0,6.0,22,0.00,,SKC,0.00,VWS V14.01,2013-03-06 00:25:00,
2013-03-05 17:26:00,72.0,31.1,30.01,WNW,292,5.0,6.0,22,0.00,,SKC,0.00,VWS V14.01,2013-03-06 00:26:00,
2013-03-05 17:27:00,72.0,31.1,30.01,West,270,3.0,6.0,22,0.00,,SKC,0.00,VWS V14.01,2013-03-06 00:27:00,
2013-03-05 17:28:00,72.0,32.2,30.01,West,270,3.0,4.0,23,0.00,,SKC,0.00,VWS V14.01,2013-03-06 00:28:00,
2013-03-05 17:29:00,72.0,31.1,30.01,NW,315,8.0,8.0,22,0.00,,SKC,0.00,VWS V14.01,2013-03-06 00:29:00,
2013-03-05 17:30:00,72.0,31.1,30.01,WNW,292,5.0,6.0,22,0.00,,SKC,0.00,VWS V14.01,2013-03-06 00:30:00,
2013-03-05 17:31:00,72.0,31.1,30.01,West,270,6.0,8.0,22,0.00,,SKC,0.00,VWS V14.01,2013-03-06 00:31:00,
2013-03-05 17:32:00,72.0,31.1,30.01,WNW,292,5.0,6.0,22,0.00,,SKC,0.00,VWS V14.01,2013-03-06 00:32:00,
2013-03-05 17:33:00,72.0,31.1,30.01,West,270,5.0,6.0,22,0.00,,SKC,0.00,VWS V14.01,2013-03-06 00:33:00,
2013-03-05 17:34:00,71.0,31.4,30.01,West,270,7.0,7.0,23,0.00,,SKC,0.00,VWS V14.01,2013-03-06 00:34:00,
2013-03-05 17:35:00,71.0,31.4,30.01,West,270,4.0,5.0,23,0.00,,SKC,0.00,VWS V14.01,2013-03-06 00:35:00,
2013-03-05 17:36:00,71.0,31.4,30.01,West,270,5.0,6.0,23,0.00,,SKC,0.00,VWS V14.01,2013-03-06 00:36:00,
2013-03-05 17:37:00,71.0,31.4,30.01,West,270,4.0,5.0,23,0.00,,SKC,0.00,VWS V14.01,2013-03-06 00:37:00,
2013-03-05 17:38:00,71.0,31.4,30.01,West,270,5.0,6.0,23,0.00,,SKC,0.00,VWS V14.01,2013-03-06 00:38:00,
2013-03-05 17:39:00,71.0,31.4,30.01,West,270,5.0,5.0,23,0.00,,SKC,0.00,VWS V14.01,2013-03-06 00:39:00,
2013-03-05 17:40:00,71.0,31.4,30.01,West,270,5.0,6.0,23,0.00,,SKC,0.00,VWS V14.01,2013-03-06 00:40:00,
2013-03-05 17:41:00,71.0,31.4,30.01,West,270,6.0,7.0,23,0.00,,SKC,0.00,VWS V14.01,2013-03-06 00:41:00,
2013-03-05 17:42:00,71.0,31.4,30.01,West,270,5.0,6.0,23,0.00,,SKC,0.00,VWS V14.01,2013-03-06 00:42:00,
2013-03-05 17:43:00,71.0,32.4,30.01,West,270,8.0,9.0,24,0.00,,SKC,0.00,VWS V14.01,2013-03-06 00:43:00,
2013-03-05 17:44:00,71.0,32.4,30.01,West,270,5.0,6.0,24,0.00,,SKC,0.00,VWS V14.01,2013-03-06 00:44:00,
2013-03-05 17:45:00,71.0,32.4,30.02,West,270,6.0,8.0,24,0.00,,SKC,0.00,VWS V14.01,2013-03-06 00:45:00,
2013-03-05 17:46:00,71.0,32.4,30.02,West,270,7.0,7.0,24,0.00,,SKC,0.00,VWS V14.01,2013-03-06 00:46:00,
2013-03-05 17:47:00,71.0,32.4,30.02,West,270,6.0,8.0,24,0.00,,SKC,0.00,VWS V14.01,2013-03-06 00:47:00,
2013-03-05 17:48:00,71.0,32.4,30.02,West,270,5.0,5.0,24,0.00,,SKC,0.00,VWS V14.01,2013-03-06 00:48:00,
2013-03-05 17:49:00,71.0,32.4,30.02,West,270,6.0,6.0,24,0.00,,SKC,0.00,VWS V14.01,2013-03-06 00:49:00,
2013-03-05 17:50:00,71.0,32.4,30.02,WSW,248,6.0,6.0,24,0.00,,SKC,0.00,VWS V14.01,2013-03-06 00:50:00,
2013-03-05 17:51:00,71.0,32.4,30.02,West,270,6.0,6.0,24,0.00,,SKC,0.00,VWS V14.01,2013-03-06 00:51:00,
2013-03-05 17:52:00,71.0,32.4,30.02,WSW,248,6.0,6.0,24,0.00,,SKC,0.00,VWS V14.01,2013-03-06 00:52:00,
2013-03-05 17:53:00,70.0,31.6,30.02,West,270,6.0,8.0,24,0.00,,SKC,0.00,VWS V14.01,2013-03-06 00:53:00,
2013-03-05 17:54:00,70.0,31.6,30.02,West,270,5.0,6.0,24,0.00,,SKC,0.00,VWS V14.01,2013-03-06 00:54:00,
2013-03-05 17:55:00,70.0,31.6,30.02,West,270,8.0,8.0,24,0.00,,SKC,0.00,VWS V14.01,2013-03-06 00:55:00,
2013-03-05 17:56:00,70.0,31.6,30.02,WNW,292,10.0,10.0,24,0.00,,SKC,0.00,VWS V14.01,2013-03-06 00:56:00,
2013-03-05 17:57:00,70.0,31.6,30.02,West,270,8.0,8.0,24,0.00,,SKC,0.00,VWS V14.01,2013-03-06 00:57:00,
2013-03-05 17:58:00,70.0,31.6,30.02,WNW,292,5.0,5.0,24,0.00,,SKC,0.00,VWS V14.01,2013-03-06 00:58:00,
2013-03-05 17:59:00,70.0,31.6,30.02,West,270,6.0,6.0,24,0.00,,SKC,0.00,VWS V14.01,2013-03-06 00:59:00,
2013-03-05 18:00:00,70.0,31.6,30.02,WSW,248,5.0,5.0,24,0.00,,SKC,0.00,VWS V14.01,2013-03-06 01:00:00,
2013-03-05 18:01:00,70.0,31.6,30.02,WNW,292,5.0,5.0,24,0.00,,SKC,0.00,VWS V14.01,2013-03-06 01:01:00,
2013-03-05 18:02:00,70.0,31.6,30.02,WSW,248,5.0,5.0,24,0.00,,SKC,0.00,VWS V14.01,2013-03-06 01:02:00,
2013-03-05 18:03:00,70.0,31.6,30.02,West,270,4.0,5.0,24,0.00,,SKC,0.00,VWS V14.01,2013-03-06 01:03:00,
2013-03-05 18:04:00,70.0,32.6,30.02,WNW,292,5.0,6.0,25,0.00,,SKC,0.00,VWS V14.01,2013-03-06 01:04:00,
2013-03-05 18:05:00,70.0,32.6,30.02,WNW,292,2.0,2.0,25,0.00,,SKC,0.00,VWS V14.01,2013-03-06 01:05:00,
2013-03-05 18:06:00,70.0,32.6,30.02,WSW,248,5.0,5.0,25,0.00,,SKC,0.00,VWS V14.01,2013-03-06 01:06:00,
2013-03-05 18:07:00,70.0,32.6,30.02,WNW,292,2.0,2.0,25,0.00,,SKC,0.00,VWS V14.01,2013-03-06 01:07:00,
2013-03-05 18:08:00,70.0,32.6,30.02,West,270,2.0,3.0,25,0.00,,SKC,0.00,VWS V14.01,2013-03-06 01:08:00,
2013-03-05 18:09:00,70.0,32.6,30.02,WNW,292,6.0,6.0,25,0.00,,SKC,0.00,VWS V14.01,2013-03-06 01:09:00,
2013-03-05 18:10:00,70.0,32.6,30.02,WSW,248,3.0,3.0,25,0.00,,SKC,0.00,VWS V14.01,2013-03-06 01:10:00,
2013-03-05 18:11:00,70.0,32.6,30.02,West,270,3.0,5.0,25,0.00,,SKC,0.00,VWS V14.01,2013-03-06 01:11:00,
2013-03-05 18:12:00,70.0,32.6,30.02,WSW,248,3.0,3.0,25,0.00,,SKC,0.00,VWS V14.01,2013-03-06 01:12:00,
2013-03-05 18:13:00,70.0,32.6,30.03,WNW,292,4.0,4.0,25,0.00,,SKC,0.00,VWS V14.01,2013-03-06 01:13:00,
2013-03-05 18:14:00,70.0,32.6,30.03,WSW,248,3.0,3.0,25,0.00,,SKC,0.00,VWS V14.01,2013-03-06 01:14:00,
2013-03-05 18:15:00,70.0,32.6,30.03,WNW,292,0.0,0.0,25,0.00,,SKC,0.00,VWS V14.01,2013-03-06 01:15:00,
2013-03-05 18:16:00,70.0,32.6,30.03,WSW,248,0.0,0.0,25,0.00,,SKC,0.00,VWS V14.01,2013-03-06 01:16:00,
2013-03-05 18:17:00,70.0,32.6,30.03,WNW,292,0.0,0.0,25,0.00,,SKC,0.00,VWS V14.01,2013-03-06 01:17:00,
2013-03-05 18:18:00,70.0,32.6,30.03,WNW,292,0.0,0.0,25,0.00,,SKC,0.00,VWS V14.01,2013-03-06 01:18:00,
2013-03-05 18:19:00,70.0,32.6,30.03,WNW,292,0.0,0.0,25,0.00,,SKC,0.00,VWS V14.01,2013-03-06 01:19:00,
2013-03-05 18:20:00,69.0,31.8,30.03,WSW,248,0.0,0.0,25,0.00,,SKC,0.00,VWS V14.01,2013-03-06 01:20:00,
2013-03-05 18:21:00,70.0,32.6,30.03,WSW,248,0.0,0.0,25,0.00,,SKC,0.00,VWS V14.01,2013-03-06 01:21:00,
2013-03-05 18:22:00,69.0,31.8,30.03,WSW,248,0.0,0.0,25,0.00,,SKC,0.00,VWS V14.01,2013-03-06 01:22:00,
2013-03-05 18:23:00,69.0,31.8,30.03,WSW,248,0.0,0.0,25,0.00,,SKC,0.00,VWS V14.01,2013-03-06 01:23:00,
2013-03-05 18:24:00,69.0,31.8,30.03,WSW,248,0.0,0.0,25,0.00,,SKC,0.00,VWS V14.01,2013-03-06 01:24:00,
2013-03-05 18:25:00,69.0,31.8,30.03,SW,225,0.0,0.0,25,0.00,,SKC,0.00,VWS V14.01,2013-03-06 01:25:00,
2013-03-05 18:26:00,69.0,31.8,30.03,SW,225,0.0,0.0,25,0.00,,SKC,0.00,VWS V14.01,2013-03-06 01:26:00,
2013-03-05 18:27:00,69.0,31.8,30.03,SW,225,0.0,0.0,25,0.00,,SKC,0.00,VWS V14.01,2013-03-06 01:27:00,
2013-03-05 18:28:00,69.0,31.8,30.03,South,180,0.0,0.0,25,0.00,,SKC,0.00,VWS V14.01,2013-03-06 01:28:00,
2013-03-05 18:29:00,69.0,31.8,30.03,SSE,158,0.0,0.0,25,0.00,,SKC,0.00,VWS V14.01,2013-03-06 01:29:00,
2013-03-05 18:30:00,69.0,32.7,30.03,SSE,158,0.0,0.0,26,0.00,,SKC,0.00,VWS V14.01,2013-03-06 01:30:00,
2013-03-05 18:31:00,69.0,32.7,30.03,SSE,158,0.0,0.0,26,0.00,,SKC,0.00,VWS V14.01,2013-03-06 01:31:00,
2013-03-05 18:32:00,69.0,32.7,30.03,SSE,158,0.0,0.0,26,0.00,,SKC,0.00,VWS V14.01,2013-03-06 01:32:00,
2013-03-05 18:33:00,69.0,32.7,30.03,South,180,0.0,0.0,26,0.00,,SKC,0.00,VWS V14.01,2013-03-06 01:33:00,
2013-03-05 18:34:00,69.0,32.7,30.03,South,180,0.0,0.0,26,0.00,,SKC,0.00,VWS V14.01,2013-03-06 01:34:00,
2013-03-05 18:35:00,69.0,32.7,30.03,South,180,0.0,0.0,26,0.00,,SKC,0.00,VWS V14.01,2013-03-06 01:35:00,
2013-03-05 18:36:00,69.0,32.7,30.03,South,180,0.0,0.0,26,0.00,,SKC,0.00,VWS V14.01,2013-03-06 01:36:00,
2013-03-05 18:37:00,69.0,32.7,30.03,South,180,0.0,0.0,26,0.00,,SKC,0.00,VWS V14.01,2013-03-06 01:37:00,
2013-03-05 18:38:00,69.0,32.7,30.03,SSE,158,0.0,0.0,26,0.00,,SKC,0.00,VWS V14.01,2013-03-06 01:38:00,
2013-03-05 18:39:00,68.0,31.9,30.03,SSE,158,0.0,0.0,26,0.00,,SKC,0.00,VWS V14.01,2013-03-06 01:39:00,
2013-03-05 18:40:00,68.0,31.9,30.03,South,180,0.0,0.0,26,0.00,,SKC,0.00,VWS V14.01,2013-03-06 01:40:00,
2013-03-05 18:41:00,68.0,31.9,30.03,SSE,158,0.0,0.0,26,0.00,,SKC,0.00,VWS V14.01,2013-03-06 01:41:00,
2013-03-05 18:42:00,68.0,31.9,30.03,South,180,0.0,0.0,26,0.00,,SKC,0.00,VWS V14.01,2013-03-06 01:42:00,
2013-03-05 18:43:00,68.0,31.9,30.03,South,180,0.0,0.0,26,0.00,,SKC,0.00,VWS V14.01,2013-03-06 01:43:00,
2013-03-05 18:44:00,68.0,32.8,30.03,SSW,202,0.0,0.0,27,0.00,,SKC,0.00,VWS V14.01,2013-03-06 01:44:00,
2013-03-05 18:45:00,68.0,31.9,30.03,SSW,202,0.0,0.0,26,0.00,,SKC,0.00,VWS V14.01,2013-03-06 01:45:00,
2013-03-05 18:46:00,68.0,32.8,30.03,SSW,202,0.0,0.0,27,0.00,,SKC,0.00,VWS V14.01,2013-03-06 01:46:00,
2013-03-05 18:47:00,68.0,31.9,30.03,SSW,202,0.0,0.0,26,0.00,,SKC,0.00,VWS V14.01,2013-03-06 01:47:00,
2013-03-05 18:48:00,68.0,32.8,30.03,SSW,202,0.0,0.0,27,0.00,,SKC,0.00,VWS V14.01,2013-03-06 01:48:00,
2013-03-05 18:49:00,68.0,32.8,30.03,SSW,202,0.0,0.0,27,0.00,,SKC,0.00,VWS V14.01,2013-03-06 01:49:00,
2013-03-05 18:50:00,67.0,32.0,30.03,SSW,202,0.0,0.0,27,0.00,,SKC,0.00,VWS V14.01,2013-03-06 01:50:00,
2013-03-05 18:51:00,68.0,32.8,30.03,SSW,202,0.0,0.0,27,0.00,,SKC,0.00,VWS V14.01,2013-03-06 01:51:00,
2013-03-05 18:52:00,67.0,32.0,30.03,SSW,202,0.0,0.0,27,0.00,,SKC,0.00,VWS V14.01,2013-03-06 01:52:00,
2013-03-05 18:53:00,67.0,32.0,30.03,SSW,202,0.0,0.0,27,0.00,,SKC,0.00,VWS V14.01,2013-03-06 01:53:00,
2013-03-05 18:54:00,68.0,32.8,30.03,SSW,202,0.0,0.0,27,0.00,,SKC,0.00,VWS V14.01,2013-03-06 01:54:00,
2013-03-05 18:55:00,67.0,32.0,30.03,SSW,202,0.0,0.0,27,0.00,,SKC,0.00,VWS V14.01,2013-03-06 01:55:00,
2013-03-05 18:56:00,67.0,32.0,30.03,SSW,202,0.0,0.0,27,0.00,,SKC,0.00,VWS V14.01,2013-03-06 01:56:00,
2013-03-05 18:57:00,67.0,32.0,30.03,SSW,202,0.0,0.0,27,0.00,,SKC,0.00,VWS V14.01,2013-03-06 01:57:00,
2013-03-05 18:58:00,67.0,32.0,30.03,SSW,202,0.0,0.0,27,0.00,,SKC,0.00,VWS V14.01,2013-03-06 01:58:00,
2013-03-05 18:59:00,67.0,32.0,30.03,SSW,202,0.0,0.0,27,0.00,,SKC,0.00,VWS V14.01,2013-03-06 01:59:00,
2013-03-05 19:00:00,67.0,32.0,30.03,SSW,202,0.0,0.0,27,0.00,,SKC,0.00,VWS V14.01,2013-03-06 02:00:00,
2013-03-05 19:01:00,67.0,32.0,30.03,SSW,202,0.0,0.0,27,0.00,,SKC,0.00,VWS V14.01,2013-03-06 02:01:00,
2013-03-05 19:02:00,67.0,32.0,30.03,SSW,202,0.0,0.0,27,0.00,,SKC,0.00,VWS V14.01,2013-03-06 02:02:00,
2013-03-05 19:03:00,67.0,32.0,30.03,SSW,202,0.0,0.0,27,0.00,,SKC,0.00,VWS V14.01,2013-03-06 02:03:00,
2013-03-05 19:04:00,67.0,32.0,30.03,SSW,202,0.0,0.0,27,0.00,,SKC,0.00,VWS V14.01,2013-03-06 02:04:00,
2013-03-05 19:05:00,67.0,32.0,30.03,SSW,202,0.0,0.0,27,0.00,,SKC,0.00,VWS V14.01,2013-03-06 02:05:00,
2013-03-05 19:06:00,67.0,32.8,30.03,SSW,202,0.0,0.0,28,0.00,,SKC,0.00,VWS V14.01,2013-03-06 02:06:00,
2013-03-05 19:07:00,67.0,32.0,30.03,SSW,202,0.0,0.0,27,0.00,,SKC,0.00,VWS V14.01,2013-03-06 02:07:00,
2013-03-05 19:08:00,67.0,32.0,30.03,SSW,202,0.0,0.0,27,0.00,,SKC,0.00,VWS V14.01,2013-03-06 02:08:00,
2013-03-05 19:09:00,67.0,32.0,30.03,SSW,202,0.0,0.0,27,0.00,,SKC,0.00,VWS V14.01,2013-03-06 02:09:00,
2013-03-05 19:10:00,67.0,32.0,30.03,SSW,202,0.0,0.0,27,0.00,,SKC,0.00,VWS V14.01,2013-03-06 02:10:00,
2013-03-05 19:11:00,67.0,32.0,30.03,SSW,202,0.0,0.0,27,0.00,,SKC,0.00,VWS V14.01,2013-03-06 02:11:00,
2013-03-05 19:12:00,67.0,32.0,30.03,SSW,202,0.0,0.0,27,0.00,,SKC,0.00,VWS V14.01,2013-03-06 02:12:00,
2013-03-05 19:13:00,67.0,32.0,30.03,SSW,202,0.0,0.0,27,0.00,,SKC,0.00,VWS V14.01,2013-03-06 02:13:00,
2013-03-05 19:14:00,67.0,32.8,30.03,SSW,202,0.0,0.0,28,0.00,,SKC,0.00,VWS V14.01,2013-03-06 02:14:00,
2013-03-05 19:15:00,66.0,32.0,30.03,SSW,202,0.0,0.0,28,0.00,,SKC,0.00,VWS V14.01,2013-03-06 02:15:00,
2013-03-05 19:16:00,67.0,32.8,30.03,SSW,202,0.0,0.0,28,0.00,,SKC,0.00,VWS V14.01,2013-03-06 02:16:00,
2013-03-05 19:17:00,66.0,32.0,30.03,SSW,202,0.0,0.0,28,0.00,,SKC,0.00,VWS V14.01,2013-03-06 02:17:00,
2013-03-05 19:18:00,66.0,32.0,30.03,North,0,2.0,3.0,28,0.00,,SKC,0.00,VWS V14.01,2013-03-06 02:18:00,
2013-03-05 19:19:00,66.0,32.0,30.03,NNE,22,4.0,4.0,28,0.00,,SKC,0.00,VWS V14.01,2013-03-06 02:19:00,
2013-03-05 19:20:00,66.0,32.9,30.03,North,0,3.0,3.0,29,0.00,,SKC,0.00,VWS V14.01,2013-03-06 02:20:00,
2013-03-05 19:21:00,66.0,32.9,30.03,NNE,22,3.0,4.0,29,0.00,,SKC,0.00,VWS V14.01,2013-03-06 02:21:00,
2013-03-05 19:22:00,66.0,32.9,30.03,North,0,3.0,3.0,29,0.00,,SKC,0.00,VWS V14.01,2013-03-06 02:22:00,
2013-03-05 19:23:00,66.0,32.9,30.03,NNE,22,0.0,0.0,29,0.00,,SKC,0.00,VWS V14.01,2013-03-06 02:23:00,
2013-03-05 19:24:00,66.0,32.9,30.03,NE,45,2.0,2.0,29,0.00,,SKC,0.00,VWS V14.01,2013-03-06 02:24:00,
2013-03-05 19:25:00,66.0,32.9,30.03,North,0,2.0,3.0,29,0.00,,SKC,0.00,VWS V14.01,2013-03-06 02:25:00,
2013-03-05 19:26:00,66.0,32.9,30.03,NNE,22,0.0,1.0,29,0.00,,SKC,0.00,VWS V14.01,2013-03-06 02:26:00,
2013-03-05 19:27:00,66.0,32.9,30.03,North,0,2.0,3.0,29,0.00,,SKC,0.00,VWS V14.01,2013-03-06 02:27:00,
2013-03-05 19:28:00,66.0,32.9,30.03,NNE,22,3.0,4.0,29,0.00,,SKC,0.00,VWS V14.01,2013-03-06 02:28:00,
2013-03-05 19:29:00,66.0,32.9,30.03,NNE,22,2.0,3.0,29,0.00,,SKC,0.00,VWS V14.01,2013-03-06 02:29:00,
2013-03-05 19:30:00,66.0,32.9,30.03,North,0,1.0,2.0,29,0.00,,SKC,0.00,VWS V14.01,2013-03-06 02:30:00,
2013-03-05 19:31:00,66.0,32.9,30.03,North,0,3.0,3.0,29,0.00,,SKC,0.00,VWS V14.01,2013-03-06 02:31:00,
2013-03-05 19:32:00,66.0,32.9,30.03,North,0,1.0,2.0,29,0.00,,SKC,0.00,VWS V14.01,2013-03-06 02:32:00,
2013-03-05 19:33:00,66.0,32.9,30.03,North,0,1.0,3.0,29,0.00,,SKC,0.00,VWS V14.01,2013-03-06 02:33:00,
2013-03-05 19:34:00,66.0,33.7,30.03,NNE,22,2.0,3.0,30,0.00,,SKC,0.00,VWS V14.01,2013-03-06 02:34:00,
2013-03-05 19:35:00,65.0,32.8,30.03,North,0,0.0,0.0,30,0.00,,SKC,0.00,VWS V14.01,2013-03-06 02:35:00,
2013-03-05 19:36:00,65.0,32.8,30.03,North,0,4.0,5.0,30,0.00,,SKC,0.00,VWS V14.01,2013-03-06 02:36:00,
2013-03-05 19:37:00,65.0,32.8,30.03,North,0,0.0,0.0,30,0.00,,SKC,0.00,VWS V14.01,2013-03-06 02:37:00,
2013-03-05 19:38:00,65.0,32.8,30.03,North,0,2.0,3.0,30,0.00,,SKC,0.00,VWS V14.01,2013-03-06 02:38:00,
2013-03-05 19:39:00,65.0,32.8,30.03,NNE,22,4.0,4.0,30,0.00,,SKC,0.00,VWS V14.01,2013-03-06 02:39:00,
2013-03-05 19:40:00,65.0,32.8,30.03,NNW,338,3.0,6.0,30,0.00,,SKC,0.00,VWS V14.01,2013-03-06 02:40:00,
2013-03-05 19:41:00,65.0,32.8,30.03,NNE,22,5.0,5.0,30,0.00,,SKC,0.00,VWS V14.01,2013-03-06 02:41:00,
2013-03-05 19:42:00,65.0,32.8,30.03,NNW,338,3.0,6.0,30,0.00,,SKC,0.00,VWS V14.01,2013-03-06 02:42:00,
2013-03-05 19:43:00,65.0,32.8,30.03,North,0,4.0,4.0,30,0.00,,SKC,0.00,VWS V14.01,2013-03-06 02:43:00,
2013-03-05 19:44:00,65.0,32.8,30.03,North,0,3.0,3.0,30,0.00,,SKC,0.00,VWS V14.01,2013-03-06 02:44:00,
2013-03-05 19:45:00,65.0,32.8,30.03,North,0,1.0,2.0,30,0.00,,SKC,0.00,VWS V14.01,2013-03-06 02:45:00,
2013-03-05 19:46:00,65.0,32.8,30.03,NNE,22,2.0,3.0,30,0.00,,SKC,0.00,VWS V14.01,2013-03-06 02:46:00,
2013-03-05 19:47:00,65.0,32.8,30.03,North,0,1.0,2.0,30,0.00,,SKC,0.00,VWS V14.01,2013-03-06 02:47:00,
2013-03-05 19:48:00,65.0,32.8,30.03,North,0,0.0,0.0,30,0.00,,SKC,0.00,VWS V14.01,2013-03-06 02:48:00,
2013-03-05 19:49:00,65.0,33.7,30.03,North,0,1.0,2.0,31,0.00,,SKC,0.00,VWS V14.01,2013-03-06 02:49:00,
2013-03-05 19:50:00,65.0,33.7,30.04,North,0,0.0,0.0,31,0.00,,SKC,0.00,VWS V14.01,2013-03-06 02:50:00,
2013-03-05 19:51:00,65.0,33.7,30.04,North,0,0.0,0.0,31,0.00,,SKC,0.00,VWS V14.01,2013-03-06 02:51:00,
2013-03-05 19:52:00,65.0,33.7,30.04,North,0,0.0,0.0,31,0.00,,SKC,0.00,VWS V14.01,2013-03-06 02:52:00,
2013-03-05 19:53:00,65.0,33.7,30.04,NNW,338,0.0,0.0,31,0.00,,SKC,0.00,VWS V14.01,2013-03-06 02:53:00,
2013-03-05 19:54:00,65.0,33.7,30.04,NNW,338,0.0,0.0,31,0.00,,SKC,0.00,VWS V14.01,2013-03-06 02:54:00,
2013-03-05 19:55:00,64.0,32.8,30.04,NNW,338,0.0,0.0,31,0.00,,SKC,0.00,VWS V14.01,2013-03-06 02:55:00,
2013-03-05 19:56:00,64.0,32.8,30.04,NNW,338,0.0,0.0,31,0.00,,SKC,0.00,VWS V14.01,2013-03-06 02:56:00,
2013-03-05 19:57:00,64.0,32.8,30.04,NNW,338,0.0,0.0,31,0.00,,SKC,0.00,VWS V14.01,2013-03-06 02:57:00,
2013-03-05 19:58:00,64.0,32.8,30.04,NNW,338,0.0,0.0,31,0.00,,SKC,0.00,VWS V14.01,2013-03-06 02:58:00,
2013-03-05 19:59:00,64.0,32.8,30.04,NNW,338,0.0,0.0,31,0.00,,SKC,0.00,VWS V14.01,2013-03-06 02:59:00,
2013-03-05 20:00:00,64.0,32.8,30.04,NNW,338,0.0,0.0,31,0.00,,SKC,0.00,VWS V14.01,2013-03-06 03:00:00,
2013-03-05 20:01:00,64.0,32.8,30.04,NNW,338,0.0,0.0,31,0.00,,SKC,0.00,VWS V14.01,2013-03-06 03:01:00,
2013-03-05 20:02:00,64.0,32.8,30.05,NNW,338,0.0,0.0,31,0.00,,SKC,0.00,VWS V14.01,2013-03-06 03:02:00,
2013-03-05 20:03:00,64.0,32.8,30.05,NNW,338,0.0,0.0,31,0.00,,SKC,0.00,VWS V14.01,2013-03-06 03:03:00,
2013-03-05 20:04:00,64.0,32.8,30.05,NNW,338,0.0,0.0,31,0.00,,SKC,0.00,VWS V14.01,2013-03-06 03:04:00,
2013-03-05 20:05:00,64.0,33.6,30.05,North,0,0.0,1.0,32,0.00,,SKC,0.00,VWS V14.01,2013-03-06 03:05:00,
2013-03-05 20:06:00,64.0,33.6,30.05,North,0,0.0,0.0,32,0.00,,SKC,0.00,VWS V14.01,2013-03-06 03:06:00,
2013-03-05 20:07:00,64.0,33.6,30.05,North,0,0.0,0.0,32,0.00,,SKC,0.00,VWS V14.01,2013-03-06 03:07:00,
2013-03-05 20:08:00,64.0,33.6,30.05,North,0,0.0,0.0,32,0.00,,SKC,0.00,VWS V14.01,2013-03-06 03:08:00,
2013-03-05 20:09:00,64.0,33.6,30.05,North,0,0.0,0.0,32,0.00,,SKC,0.00,VWS V14.01,2013-03-06 03:09:00,
2013-03-05 20:10:00,64.0,33.6,30.05,North,0,0.0,0.0,32,0.00,,SKC,0.00,VWS V14.01,2013-03-06 03:10:00,
2013-03-05 20:11:00,64.0,33.6,30.05,North,0,0.0,0.0,32,0.00,,SKC,0.00,VWS V14.01,2013-03-06 03:11:00,
2013-03-05 20:12:00,63.0,33.5,30.05,North,0,0.0,0.0,33,0.00,,SKC,0.00,VWS V14.01,2013-03-06 03:12:00,
2013-03-05 20:13:00,64.0,34.3,30.05,North,0,0.0,0.0,33,0.00,,SKC,0.00,VWS V14.01,2013-03-06 03:13:00,
2013-03-05 20:14:00,63.0,33.5,30.05,North,0,0.0,0.0,33,0.00,,SKC,0.00,VWS V14.01,2013-03-06 03:14:00,
2013-03-05 20:15:00,63.0,33.5,30.05,North,0,0.0,0.0,33,0.00,,SKC,0.00,VWS V14.01,2013-03-06 03:15:00,
2013-03-05 20:16:00,63.0,33.5,30.05,North,0,0.0,0.0,33,0.00,,SKC,0.00,VWS V14.01,2013-03-06 03:16:00,
2013-03-05 20:17:00,63.0,33.5,30.05,North,0,0.0,0.0,33,0.00,,SKC,0.00,VWS V14.01,2013-03-06 03:17:00,
2013-03-05 20:18:00,63.0,33.5,30.05,North,0,0.0,0.0,33,0.00,,SKC,0.00,VWS V14.01,2013-03-06 03:18:00,
2013-03-05 20:19:00,63.0,33.5,30.05,North,0,0.0,0.0,33,0.00,,SKC,0.00,VWS V14.01,2013-03-06 03:19:00,
2013-03-05 20:20:00,63.0,33.5,30.05,North,0,0.0,0.0,33,0.00,,SKC,0.00,VWS V14.01,2013-03-06 03:20:00,
2013-03-05 20:21:00,63.0,33.5,30.05,North,0,0.0,0.0,33,0.00,,SKC,0.00,VWS V14.01,2013-03-06 03:21:00,
2013-03-05 20:22:00,63.0,33.5,30.05,North,0,0.0,0.0,33,0.00,,SKC,0.00,VWS V14.01,2013-03-06 03:22:00,
2013-03-05 20:23:00,63.0,33.5,30.05,North,0,0.0,0.0,33,0.00,,SKC,0.00,VWS V14.01,2013-03-06 03:23:00,
2013-03-05 20:24:00,63.0,33.5,30.05,North,0,0.0,0.0,33,0.00,,SKC,0.00,VWS V14.01,2013-03-06 03:24:00,
2013-03-05 20:25:00,63.0,33.5,30.05,North,0,0.0,0.0,33,0.00,,SKC,0.00,VWS V14.01,2013-03-06 03:25:00,
2013-03-05 20:26:00,63.0,33.5,30.05,North,0,0.0,0.0,33,0.00,,SKC,0.00,VWS V14.01,2013-03-06 03:26:00,
2013-03-05 20:27:00,63.0,33.5,30.05,North,0,0.0,0.0,33,0.00,,SKC,0.00,VWS V14.01,2013-03-06 03:27:00,
2013-03-05 20:28:00,63.0,33.5,30.05,North,0,0.0,0.0,33,0.00,,SKC,0.00,VWS V14.01,2013-03-06 03:28:00,
2013-03-05 20:29:00,63.0,33.5,30.05,North,0,0.0,0.0,33,0.00,,SKC,0.00,VWS V14.01,2013-03-06 03:29:00,
2013-03-05 20:30:00,63.0,33.5,30.05,North,0,0.0,0.0,33,0.00,,SKC,0.00,VWS V14.01,2013-03-06 03:30:00,
2013-03-05 20:31:00,63.0,33.5,30.05,North,0,0.0,0.0,33,0.00,,SKC,0.00,VWS V14.01,2013-03-06 03:31:00,
2013-03-05 20:32:00,63.0,33.5,30.05,North,0,0.0,0.0,33,0.00,,SKC,0.00,VWS V14.01,2013-03-06 03:32:00,
2013-03-05 20:33:00,63.0,33.5,30.05,North,0,0.0,0.0,33,0.00,,SKC,0.00,VWS V14.01,2013-03-06 03:33:00,
2013-03-05 20:34:00,63.0,33.5,30.05,NNE,22,0.0,0.0,33,0.00,,SKC,0.00,VWS V14.01,2013-03-06 03:34:00,
2013-03-05 20:35:00,63.0,33.5,30.05,North,0,0.0,0.0,33,0.00,,SKC,0.00,VWS V14.01,2013-03-06 03:35:00,
2013-03-05 20:36:00,63.0,33.5,30.05,NNE,22,0.0,0.0,33,0.00,,SKC,0.00,VWS V14.01,2013-03-06 03:36:00,
2013-03-05 20:37:00,63.0,33.5,30.05,North,0,0.0,0.0,33,0.00,,SKC,0.00,VWS V14.01,2013-03-06 03:37:00,
2013-03-05 20:38:00,63.0,33.5,30.05,North,0,0.0,0.0,33,0.00,,SKC,0.00,VWS V14.01,2013-03-06 03:38:00,
2013-03-05 20:39:00,63.0,33.5,30.06,North,0,0.0,0.0,33,0.00,,SKC,0.00,VWS V14.01,2013-03-06 03:39:00,
2013-03-05 20:40:00,63.0,33.5,30.05,North,0,0.0,0.0,33,0.00,,SKC,0.00,VWS V14.01,2013-03-06 03:40:00,
2013-03-05 20:41:00,63.0,33.5,30.06,North,0,0.0,0.0,33,0.00,,SKC,0.00,VWS V14.01,2013-03-06 03:41:00,
2013-03-05 20:42:00,63.0,33.5,30.05,North,0,0.0,0.0,33,0.00,,SKC,0.00,VWS V14.01,2013-03-06 03:42:00,
2013-03-05 20:43:00,63.0,33.5,30.05,North,0,0.0,0.0,33,0.00,,SKC,0.00,VWS V14.01,2013-03-06 03:43:00,
2013-03-05 20:44:00,63.0,33.5,30.05,NNE,22,0.0,0.0,33,0.00,,SKC,0.00,VWS V14.01,2013-03-06 03:44:00,
2013-03-05 20:45:00,63.0,33.5,30.05,NNE,22,0.0,0.0,33,0.00,,SKC,0.00,VWS V14.01,2013-03-06 03:45:00,
2013-03-05 20:46:00,63.0,33.5,30.05,NNE,22,0.0,0.0,33,0.00,,SKC,0.00,VWS V14.01,2013-03-06 03:46:00,
2013-03-05 20:47:00,63.0,33.5,30.05,NNE,22,0.0,0.0,33,0.00,,SKC,0.00,VWS V14.01,2013-03-06 03:47:00,
2013-03-05 20:48:00,63.0,33.5,30.05,NNE,22,0.0,1.0,33,0.00,,SKC,0.00,VWS V14.01,2013-03-06 03:48:00,
2013-03-05 20:49:00,63.0,33.5,30.05,North,0,1.0,3.0,33,0.00,,SKC,0.00,VWS V14.01,2013-03-06 03:49:00,
2013-03-05 20:50:00,63.0,33.5,30.05,North,0,3.0,4.0,33,0.00,,SKC,0.00,VWS V14.01,2013-03-06 03:50:00,
2013-03-05 20:51:00,63.0,33.5,30.05,North,0,1.0,3.0,33,0.00,,SKC,0.00,VWS V14.01,2013-03-06 03:51:00,
2013-03-05 20:52:00,63.0,33.5,30.05,North,0,3.0,3.0,33,0.00,,SKC,0.00,VWS V14.01,2013-03-06 03:52:00,
2013-03-05 20:53:00,63.0,33.5,30.05,NNE,22,3.0,4.0,33,0.00,,SKC,0.00,VWS V14.01,2013-03-06 03:53:00,
2013-03-05 20:54:00,63.0,33.5,30.05,NNE,22,2.0,3.0,33,0.00,,SKC,0.00,VWS V14.01,2013-03-06 03:54:00,
2013-03-05 20:55:00,63.0,33.5,30.05,North,0,0.0,0.0,33,0.00,,SKC,0.00,VWS V14.01,2013-03-06 03:55:00,
2013-03-05 20:56:00,63.0,33.5,30.05,NNE,22,2.0,3.0,33,0.00,,SKC,0.00,VWS V14.01,2013-03-06 03:56:00,
2013-03-05 20:57:00,63.0,33.5,30.05,NNE,22,2.0,2.0,33,0.00,,SKC,0.00,VWS V14.01,2013-03-06 03:57:00,
2013-03-05 20:58:00,63.0,33.5,30.05,North,0,3.0,3.0,33,0.00,,SKC,0.00,VWS V14.01,2013-03-06 03:58:00,
2013-03-05 20:59:00,63.0,33.5,30.05,North,0,3.0,3.0,33,0.00,,SKC,0.00,VWS V14.01,2013-03-06 03:59:00,
2013-03-05 21:00:00,63.0,33.5,30.05,North,0,0.0,1.0,33,0.00,,SKC,0.00,VWS V14.01,2013-03-06 04:00:00,
2013-03-05 21:01:00,63.0,33.5,30.05,North,0,2.0,2.0,33,0.00,,SKC,0.00,VWS V14.01,2013-03-06 04:01:00,
2013-03-05 21:02:00,63.0,33.5,30.05,North,0,0.0,1.0,33,0.00,,SKC,0.00,VWS V14.01,2013-03-06 04:02:00,
2013-03-05 21:03:00,63.0,33.5,30.05,North,0,0.0,0.0,33,0.00,,SKC,0.00,VWS V14.01,2013-03-06 04:03:00,
2013-03-05 21:04:00,63.0,34.2,30.05,North,0,0.0,0.0,34,0.00,,SKC,0.00,VWS V14.01,2013-03-06 04:04:00,
2013-03-05 21:05:00,63.0,34.2,30.05,NNW,338,1.0,1.0,34,0.00,,SKC,0.00,VWS V14.01,2013-03-06 04:05:00,
2013-03-05 21:06:00,63.0,34.2,30.05,North,0,2.0,3.0,34,0.00,,SKC,0.00,VWS V14.01,2013-03-06 04:06:00,
2013-03-05 21:07:00,63.0,34.2,30.05,North,0,2.0,3.0,34,0.00,,SKC,0.00,VWS V14.01,2013-03-06 04:07:00,
2013-03-05 21:08:00,63.0,34.2,30.05,North,0,2.0,3.0,34,0.00,,SKC,0.00,VWS V14.01,2013-03-06 04:08:00,
2013-03-05 21:09:00,63.0,34.2,30.05,North,0,2.0,3.0,34,0.00,,SKC,0.00,VWS V14.01,2013-03-06 04:09:00,
2013-03-05 21:10:00,63.0,34.2,30.05,North,0,4.0,5.0,34,0.00,,SKC,0.00,VWS V14.01,2013-03-06 04:10:00,
2013-03-05 21:11:00,63.0,34.2,30.05,North,0,4.0,4.0,34,0.00,,SKC,0.00,VWS V14.01,2013-03-06 04:11:00,
2013-03-05 21:12:00,63.0,34.2,30.05,North,0,3.0,3.0,34,0.00,,SKC,0.00,VWS V14.01,2013-03-06 04:12:00,
2013-03-05 21:13:00,63.0,34.2,30.05,North,0,1.0,3.0,34,0.00,,SKC,0.00,VWS V14.01,2013-03-06 04:13:00,
2013-03-05 21:14:00,63.0,34.2,30.05,North,0,3.0,3.0,34,0.00,,SKC,0.00,VWS V14.01,2013-03-06 04:14:00,
2013-03-05 21:15:00,63.0,34.2,30.05,North,0,3.0,6.0,34,0.00,,SKC,0.00,VWS V14.01,2013-03-06 04:15:00,
2013-03-05 21:16:00,63.0,34.2,30.05,NNE,22,5.0,5.0,34,0.00,,SKC,0.00,VWS V14.01,2013-03-06 04:16:00,
2013-03-05 21:17:00,63.0,34.2,30.05,NNE,22,5.0,5.0,34,0.00,,SKC,0.00,VWS V14.01,2013-03-06 04:17:00,
2013-03-05 21:18:00,62.0,34.1,30.05,NE,45,3.0,5.0,35,0.00,,SKC,0.00,VWS V14.01,2013-03-06 04:18:00,
2013-03-05 21:19:00,62.0,34.1,30.05,North,0,5.0,5.0,35,0.00,,SKC,0.00,VWS V14.01,2013-03-06 04:19:00,
2013-03-05 21:20:00,62.0,34.1,30.05,NE,45,3.0,5.0,35,0.00,,SKC,0.00,VWS V14.01,2013-03-06 04:20:00,
2013-03-05 21:21:00,62.0,34.1,30.05,NNE,22,3.0,5.0,35,0.00,,SKC,0.00,VWS V14.01,2013-03-06 04:21:00,
2013-03-05 21:22:00,62.0,34.1,30.05,North,0,3.0,5.0,35,0.00,,SKC,0.00,VWS V14.01,2013-03-06 04:22:00,
2013-03-05 21:23:00,62.0,34.1,30.05,NNW,338,3.0,3.0,35,0.00,,SKC,0.00,VWS V14.01,2013-03-06 04:23:00,
2013-03-05 21:24:00,62.0,34.1,30.06,NNE,22,4.0,5.0,35,0.00,,SKC,0.00,VWS V14.01,2013-03-06 04:24:00,
2013-03-05 21:25:00,62.0,34.1,30.06,NNE,22,4.0,4.0,35,0.00,,SKC,0.00,VWS V14.01,2013-03-06 04:25:00,
2013-03-05 21:26:00,62.0,34.1,30.06,NNE,22,4.0,5.0,35,0.00,,SKC,0.00,VWS V14.01,2013-03-06 04:26:00,
2013-03-05 21:27:00,62.0,34.1,30.05,North,0,3.0,3.0,35,0.00,,SKC,0.00,VWS V14.01,2013-03-06 04:27:00,
2013-03-05 21:28:00,62.0,34.1,30.06,NNE,22,4.0,5.0,35,0.00,,SKC,0.00,VWS V14.01,2013-03-06 04:28:00,
2013-03-05 21:29:00,62.0,34.1,30.06,North,0,6.0,6.0,35,0.00,,SKC,0.00,VWS V14.01,2013-03-06 04:29:00,
2013-03-05 21:30:00,62.0,34.1,30.06,North,0,1.0,1.0,35,0.00,,SKC,0.00,VWS V14.01,2013-03-06 04:30:00,
2013-03-05 21:31:00,62.0,34.1,30.06,North,0,6.0,6.0,35,0.00,,SKC,0.00,VWS V14.01,2013-03-06 04:31:00,
2013-03-05 21:32:00,62.0,34.1,30.06,North,0,4.0,5.0,35,0.00,,SKC,0.00,VWS V14.01,2013-03-06 04:32:00,
2013-03-05 21:33:00,62.0,34.1,30.06,NNE,22,5.0,6.0,35,0.00,,SKC,0.00,VWS V14.01,2013-03-06 04:33:00,
2013-03-05 21:34:00,62.0,34.1,30.06,NNE,22,4.0,5.0,35,0.00,,SKC,0.00,VWS V14.01,2013-03-06 04:34:00,
2013-03-05 21:35:00,62.0,34.1,30.06,North,0,3.0,3.0,35,0.00,,SKC,0.00,VWS V14.01,2013-03-06 04:35:00,
2013-03-05 21:36:00,62.0,34.1,30.06,North,0,1.0,2.0,35,0.00,,SKC,0.00,VWS V14.01,2013-03-06 04:36:00,
2013-03-05 21:37:00,62.0,34.1,30.06,North,0,3.0,3.0,35,0.00,,SKC,0.00,VWS V14.01,2013-03-06 04:37:00,
2013-03-05 21:38:00,62.0,34.1,30.06,North,0,3.0,3.0,35,0.00,,SKC,0.00,VWS V14.01,2013-03-06 04:38:00,
2013-03-05 21:39:00,62.0,34.1,30.06,NNE,22,3.0,3.0,35,0.00,,SKC,0.00,VWS V14.01,2013-03-06 04:39:00,
2013-03-05 21:40:00,62.0,34.1,30.06,NNE,22,4.0,4.0,35,0.00,,SKC,0.00,VWS V14.01,2013-03-06 04:40:00,
2013-03-05 21:41:00,62.0,34.1,30.06,NNE,22,3.0,3.0,35,0.00,,SKC,0.00,VWS V14.01,2013-03-06 04:41:00,
2013-03-05 21:42:00,62.0,34.1,30.06,NNE,22,2.0,3.0,35,0.00,,SKC,0.00,VWS V14.01,2013-03-06 04:42:00,
2013-03-05 21:43:00,62.0,34.1,30.06,NNE,22,3.0,3.0,35,0.00,,SKC,0.00,VWS V14.01,2013-03-06 04:43:00,
2013-03-05 21:44:00,62.0,33.3,30.06,North,0,3.0,5.0,34,0.00,,SKC,0.00,VWS V14.01,2013-03-06 04:44:00,
2013-03-05 21:45:00,62.0,33.3,30.06,NNE,22,1.0,2.0,34,0.00,,SKC,0.00,VWS V14.01,2013-03-06 04:45:00,
2013-03-05 21:46:00,62.0,33.3,30.06,NNE,22,3.0,3.0,34,0.00,,SKC,0.00,VWS V14.01,2013-03-06 04:46:00,
2013-03-05 21:47:00,62.0,34.1,30.06,North,0,4.0,4.0,35,0.00,,SKC,0.00,VWS V14.01,2013-03-06 04:47:00,
2013-03-05 21:48:00,62.0,34.1,30.06,NNW,338,3.0,5.0,35,0.00,,SKC,0.00,VWS V14.01,2013-03-06 04:48:00,
2013-03-05 21:49:00,62.0,34.1,30.06,North,0,4.0,4.0,35,0.00,,SKC,0.00,VWS V14.01,2013-03-06 04:49:00,
2013-03-05 21:50:00,62.0,34.1,30.06,North,0,5.0,5.0,35,0.00,,SKC,0.00,VWS V14.01,2013-03-06 04:50:00,
2013-03-05 21:51:00,62.0,34.1,30.06,NNE,22,3.0,4.0,35,0.00,,SKC,0.00,VWS V14.01,2013-03-06 04:51:00,
2013-03-05 21:52:00,62.0,34.1,30.06,NNW,338,4.0,4.0,35,0.00,,SKC,0.00,VWS V14.01,2013-03-06 04:52:00,
2013-03-05 21:53:00,62.0,34.1,30.06,North,0,3.0,5.0,35,0.00,,SKC,0.00,VWS V14.01,2013-03-06 04:53:00,
2013-03-05 21:54:00,62.0,34.1,30.06,NNW,338,4.0,4.0,35,0.00,,SKC,0.00,VWS V14.01,2013-03-06 04:54:00,
2013-03-05 21:55:00,62.0,34.1,30.07,North,0,4.0,5.0,35,0.00,,SKC,0.00,VWS V14.01,2013-03-06 04:55:00,
2013-03-05 21:56:00,62.0,34.1,30.07,North,0,3.0,3.0,35,0.00,,SKC,0.00,VWS V14.01,2013-03-06 04:56:00,
2013-03-05 21:57:00,62.0,34.8,30.06,NNE,22,3.0,3.0,36,0.00,,SKC,0.00,VWS V14.01,2013-03-06 04:57:00,
2013-03-05 21:58:00,62.0,34.8,30.06,North,0,4.0,5.0,36,0.00,,SKC,0.00,VWS V14.01,2013-03-06 04:58:00,
2013-03-05 21:59:00,62.0,34.8,30.06,NNE,22,3.0,3.0,36,0.00,,SKC,0.00,VWS V14.01,2013-03-06 04:59:00,
2013-03-05 22:00:00,61.0,33.9,30.07,North,0,2.0,3.0,36,0.00,,SKC,0.00,VWS V14.01,2013-03-06 05:00:00,
2013-03-05 22:01:00,62.0,34.8,30.06,North,0,2.0,3.0,36,0.00,,SKC,0.00,VWS V14.01,2013-03-06 05:01:00,
2013-03-05 22:02:00,61.0,33.9,30.07,NNW,338,3.0,3.0,36,0.00,,SKC,0.00,VWS V14.01,2013-03-06 05:02:00,
2013-03-05 22:03:00,61.0,33.9,30.06,NNW,338,2.0,2.0,36,0.00,,SKC,0.00,VWS V14.01,2013-03-06 05:03:00,
2013-03-05 22:04:00,61.0,33.9,30.07,NNW,338,3.0,3.0,36,0.00,,SKC,0.00,VWS V14.01,2013-03-06 05:04:00,
2013-03-05 22:05:00,61.0,33.9,30.07,North,0,3.0,3.0,36,0.00,,SKC,0.00,VWS V14.01,2013-03-06 05:05:00,
2013-03-05 22:06:00,61.0,33.9,30.07,NNE,22,2.0,3.0,36,0.00,,SKC,0.00,VWS V14.01,2013-03-06 05:06:00,
2013-03-05 22:07:00,61.0,34.6,30.07,NNE,22,4.0,5.0,37,0.00,,SKC,0.00,VWS V14.01,2013-03-06 05:07:00,
2013-03-05 22:08:00,61.0,34.6,30.07,North,0,6.0,6.0,37,0.00,,SKC,0.00,VWS V14.01,2013-03-06 05:08:00,
2013-03-05 22:09:00,61.0,34.6,30.07,NNE,22,4.0,5.0,37,0.00,,SKC,0.00,VWS V14.01,2013-03-06 05:09:00,
2013-03-05 22:10:00,61.0,34.6,30.06,North,0,5.0,6.0,37,0.00,,SKC,0.00,VWS V14.01,2013-03-06 05:10:00,
2013-03-05 22:11:00,61.0,34.6,30.07,NNE,22,4.0,5.0,37,0.00,,SKC,0.00,VWS V14.01,2013-03-06 05:11:00,
2013-03-05 22:12:00,61.0,34.6,30.07,North,0,3.0,5.0,37,0.00,,SKC,0.00,VWS V14.01,2013-03-06 05:12:00,
2013-03-05 22:13:00,61.0,34.6,30.07,North,0,2.0,3.0,37,0.00,,SKC,0.00,VWS V14.01,2013-03-06 05:13:00,
2013-03-05 22:14:00,61.0,34.6,30.07,North,0,3.0,5.0,37,0.00,,SKC,0.00,VWS V14.01,2013-03-06 05:14:00,
2013-03-05 22:15:00,61.0,34.6,30.07,North,0,2.0,3.0,37,0.00,,SKC,0.00,VWS V14.01,2013-03-06 05:15:00,
2013-03-05 22:16:00,61.0,34.6,30.07,North,0,3.0,4.0,37,0.00,,SKC,0.00,VWS V14.01,2013-03-06 05:16:00,
2013-03-05 22:17:00,61.0,34.6,30.07,North,0,3.0,3.0,37,0.00,,SKC,0.00,VWS V14.01,2013-03-06 05:17:00,
2013-03-05 22:18:00,61.0,34.6,30.06,North,0,4.0,5.0,37,0.00,,SKC,0.00,VWS V14.01,2013-03-06 05:18:00,
2013-03-05 22:19:00,61.0,34.6,30.06,NNE,22,5.0,5.0,37,0.00,,SKC,0.00,VWS V14.01,2013-03-06 05:19:00,
2013-03-05 22:20:00,61.0,34.6,30.06,North,0,5.0,6.0,37,0.00,,SKC,0.00,VWS V14.01,2013-03-06 05:20:00,
2013-03-05 22:21:00,61.0,34.6,30.06,NNE,22,5.0,5.0,37,0.00,,SKC,0.00,VWS V14.01,2013-03-06 05:21:00,
2013-03-05 22:22:00,61.0,34.6,30.06,North,0,5.0,6.0,37,0.00,,SKC,0.00,VWS V14.01,2013-03-06 05:22:00,
2013-03-05 22:23:00,61.0,34.6,30.06,North,0,3.0,4.0,37,0.00,,SKC,0.00,VWS V14.01,2013-03-06 05:23:00,
2013-03-05 22:24:00,61.0,34.6,30.06,North,0,3.0,4.0,37,0.00,,SKC,0.00,VWS V14.01,2013-03-06 05:24:00,
2013-03-05 22:25:00,61.0,34.6,30.06,NNW,338,3.0,6.0,37,0.00,,SKC,0.00,VWS V14.01,2013-03-06 05:25:00,
2013-03-05 22:26:00,61.0,34.6,30.06,North,0,5.0,6.0,37,0.00,,SKC,0.00,VWS V14.01,2013-03-06 05:26:00,
2013-03-05 22:27:00,61.0,34.6,30.06,North,0,5.0,6.0,37,0.00,,SKC,0.00,VWS V14.01,2013-03-06 05:27:00,
2013-03-05 22:28:00,61.0,34.6,30.06,North,0,5.0,6.0,37,0.00,,SKC,0.00,VWS V14.01,2013-03-06 05:28:00,
2013-03-05 22:29:00,61.0,34.6,30.06,North,0,6.0,6.0,37,0.00,,SKC,0.00,VWS V14.01,2013-03-06 05:29:00,
2013-03-05 22:30:00,61.0,34.6,30.06,North,0,5.0,6.0,37,0.00,,SKC,0.00,VWS V14.01,2013-03-06 05:30:00,
2013-03-05 22:31:00,61.0,34.6,30.06,North,0,3.0,6.0,37,0.00,,SKC,0.00,VWS V14.01,2013-03-06 05:31:00,
2013-03-05 22:32:00,61.0,34.6,30.06,North,0,4.0,4.0,37,0.00,,SKC,0.00,VWS V14.01,2013-03-06 05:32:00,
2013-03-05 22:33:00,61.0,34.6,30.06,North,0,3.0,3.0,37,0.00,,SKC,0.00,VWS V14.01,2013-03-06 05:33:00,
2013-03-05 22:34:00,61.0,34.6,30.06,North,0,4.0,4.0,37,0.00,,SKC,0.00,VWS V14.01,2013-03-06 05:34:00,
2013-03-05 22:35:00,61.0,34.6,30.06,North,0,5.0,5.0,37,0.00,,SKC,0.00,VWS V14.01,2013-03-06 05:35:00,
2013-03-05 22:36:00,61.0,34.6,30.06,North,0,5.0,5.0,37,0.00,,SKC,0.00,VWS V14.01,2013-03-06 05:36:00,
2013-03-05 22:37:00,61.0,34.6,30.06,North,0,3.0,3.0,37,0.00,,SKC,0.00,VWS V14.01,2013-03-06 05:37:00,
2013-03-05 22:38:00,61.0,34.6,30.06,North,0,2.0,3.0,37,0.00,,SKC,0.00,VWS V14.01,2013-03-06 05:38:00,
2013-03-05 22:39:00,61.0,34.6,30.06,North,0,3.0,3.0,37,0.00,,SKC,0.00,VWS V14.01,2013-03-06 05:39:00,
2013-03-05 22:40:00,61.0,34.6,30.06,NNE,22,1.0,2.0,37,0.00,,SKC,0.00,VWS V14.01,2013-03-06 05:40:00,
2013-03-05 22:41:00,61.0,34.6,30.06,North,0,3.0,4.0,37,0.00,,SKC,0.00,VWS V14.01,2013-03-06 05:41:00,
2013-03-05 22:42:00,61.0,34.6,30.06,North,0,3.0,4.0,37,0.00,,SKC,0.00,VWS V14.01,2013-03-06 05:42:00,
2013-03-05 22:43:00,61.0,34.6,30.06,North,0,2.0,3.0,37,0.00,,SKC,0.00,VWS V14.01,2013-03-06 05:43:00,
2013-03-05 22:44:00,61.0,34.6,30.06,North,0,3.0,4.0,37,0.00,,SKC,0.00,VWS V14.01,2013-03-06 05:44:00,
2013-03-05 22:45:00,61.0,34.6,30.06,North,0,3.0,4.0,37,0.00,,SKC,0.00,VWS V14.01,2013-03-06 05:45:00,
2013-03-05 22:46:00,61.0,34.6,30.06,North,0,3.0,3.0,37,0.00,,SKC,0.00,VWS V14.01,2013-03-06 05:46:00,
2013-03-05 22:47:00,61.0,34.6,30.06,North,0,4.0,4.0,37,0.00,,SKC,0.00,VWS V14.01,2013-03-06 05:47:00,
2013-03-05 22:48:00,61.0,34.6,30.06,North,0,2.0,3.0,37,0.00,,SKC,0.00,VWS V14.01,2013-03-06 05:48:00,
2013-03-05 22:49:00,61.0,34.6,30.06,North,0,4.0,4.0,37,0.00,,SKC,0.00,VWS V14.01,2013-03-06 05:49:00,
2013-03-05 22:50:00,61.0,33.9,30.06,North,0,5.0,5.0,36,0.00,,SKC,0.00,VWS V14.01,2013-03-06 05:50:00,
2013-03-05 22:51:00,61.0,33.9,30.06,North,0,3.0,5.0,36,0.00,,SKC,0.00,VWS V14.01,2013-03-06 05:51:00,
2013-03-05 22:52:00,61.0,33.9,30.06,North,0,2.0,3.0,36,0.00,,SKC,0.00,VWS V14.01,2013-03-06 05:52:00,
2013-03-05 22:53:00,61.0,33.9,30.06,North,0,2.0,3.0,36,0.00,,SKC,0.00,VWS V14.01,2013-03-06 05:53:00,
2013-03-05 22:54:00,61.0,33.9,30.06,North,0,2.0,3.0,36,0.00,,SKC,0.00,VWS V14.01,2013-03-06 05:54:00,
2013-03-05 22:55:00,61.0,33.9,30.06,North,0,2.0,2.0,36,0.00,,SKC,0.00,VWS V14.01,2013-03-06 05:55:00,
2013-03-05 22:56:00,61.0,33.9,30.06,North,0,1.0,1.0,36,0.00,,SKC,0.00,VWS V14.01,2013-03-06 05:56:00,
2013-03-05 22:57:00,61.0,33.9,30.06,NNE,22,1.0,2.0,36,0.00,,SKC,0.00,VWS V14.01,2013-03-06 05:57:00,
2013-03-05 22:58:00,61.0,33.9,30.06,North,0,0.0,1.0,36,0.00,,SKC,0.00,VWS V14.01,2013-03-06 05:58:00,
2013-03-05 22:59:00,61.0,33.9,30.06,North,0,3.0,3.0,36,0.00,,SKC,0.00,VWS V14.01,2013-03-06 05:59:00,
2013-03-05 23:00:00,61.0,33.2,30.06,North,0,0.0,0.0,35,0.00,,SKC,0.00,VWS V14.01,2013-03-06 06:00:00,
2013-03-05 23:01:00,61.0,33.2,30.06,North,0,0.0,0.0,35,0.00,,SKC,0.00,VWS V14.01,2013-03-06 06:01:00,
2013-03-05 23:02:00,61.0,33.2,30.06,North,0,0.0,0.0,35,0.00,,SKC,0.00,VWS V14.01,2013-03-06 06:02:00,
2013-03-05 23:03:00,61.0,33.2,30.06,North,0,0.0,0.0,35,0.00,,SKC,0.00,VWS V14.01,2013-03-06 06:03:00,
2013-03-05 23:04:00,61.0,33.2,30.06,North,0,0.0,0.0,35,0.00,,SKC,0.00,VWS V14.01,2013-03-06 06:04:00,
2013-03-05 23:05:00,61.0,33.2,30.06,North,0,3.0,3.0,35,0.00,,SKC,0.00,VWS V14.01,2013-03-06 06:05:00,
2013-03-05 23:06:00,61.0,33.2,30.06,North,0,2.0,2.0,35,0.00,,SKC,0.00,VWS V14.01,2013-03-06 06:06:00,
2013-03-05 23:07:00,61.0,33.2,30.06,North,0,3.0,3.0,35,0.00,,SKC,0.00,VWS V14.01,2013-03-06 06:07:00,
2013-03-05 23:08:00,61.0,33.2,30.06,North,0,3.0,3.0,35,0.00,,SKC,0.00,VWS V14.01,2013-03-06 06:08:00,
2013-03-05 23:09:00,61.0,33.2,30.06,North,0,1.0,3.0,35,0.00,,SKC,0.00,VWS V14.01,2013-03-06 06:09:00,
2013-03-05 23:10:00,61.0,33.2,30.06,North,0,0.0,0.0,35,0.00,,SKC,0.00,VWS V14.01,2013-03-06 06:10:00,
2013-03-05 23:11:00,61.0,33.2,30.05,North,0,1.0,2.0,35,0.00,,SKC,0.00,VWS V14.01,2013-03-06 06:11:00,
2013-03-05 23:12:00,61.0,33.2,30.05,North,0,0.0,0.0,35,0.00,,SKC,0.00,VWS V14.01,2013-03-06 06:12:00,
2013-03-05 23:13:00,61.0,33.2,30.05,North,0,1.0,2.0,35,0.00,,SKC,0.00,VWS V14.01,2013-03-06 06:13:00,
2013-03-05 23:14:00,61.0,33.2,30.05,North,0,0.0,0.0,35,0.00,,SKC,0.00,VWS V14.01,2013-03-06 06:14:00,
2013-03-05 23:15:00,61.0,33.9,30.05,North,0,0.0,0.0,36,0.00,,SKC,0.00,VWS V14.01,2013-03-06 06:15:00,
2013-03-05 23:16:00,61.0,33.2,30.05,North,0,1.0,1.0,35,0.00,,SKC,0.00,VWS V14.01,2013-03-06 06:16:00,
2013-03-05 23:17:00,61.0,33.2,30.05,NNE,22,3.0,3.0,35,0.00,,SKC,0.00,VWS V14.01,2013-03-06 06:17:00,
2013-03-05 23:18:00,61.0,33.2,30.05,NNE,22,0.0,0.0,35,0.00,,SKC,0.00,VWS V14.01,2013-03-06 06:18:00,
2013-03-05 23:19:00,61.0,33.2,30.05,NNE,22,3.0,3.0,35,0.00,,SKC,0.00,VWS V14.01,2013-03-06 06:19:00,
2013-03-05 23:20:00,61.0,33.2,30.05,North,0,3.0,3.0,35,0.00,,SKC,0.00,VWS V14.01,2013-03-06 06:20:00,
2013-03-05 23:21:00,61.0,33.9,30.05,North,0,3.0,3.0,36,0.00,,SKC,0.00,VWS V14.01,2013-03-06 06:21:00,
2013-03-05 23:22:00,61.0,33.9,30.05,NNE,22,4.0,4.0,36,0.00,,SKC,0.00,VWS V14.01,2013-03-06 06:22:00,
2013-03-05 23:24:00,61.0,33.9,30.05,NNE,22,4.0,4.0,36,0.00,,SKC,0.00,VWS V14.01,2013-03-06 06:24:00,
2013-03-05 23:25:00,61.0,33.9,30.05,North,0,3.0,3.0,36,0.00,,SKC,0.00,VWS V14.01,2013-03-06 06:25:00,
2013-03-05 23:26:00,61.0,33.9,30.05,North,0,4.0,4.0,36,0.00,,SKC,0.00,VWS V14.01,2013-03-06 06:26:00,
2013-03-05 23:27:00,61.0,33.9,30.05,North,0,3.0,5.0,36,0.00,,SKC,0.00,VWS V14.01,2013-03-06 06:27:00,
2013-03-05 23:28:00,61.0,33.9,30.05,North,0,3.0,4.0,36,0.00,,SKC,0.00,VWS V14.01,2013-03-06 06:28:00,
2013-03-05 23:29:00,61.0,33.9,30.05,North,0,3.0,5.0,36,0.00,,SKC,0.00,VWS V14.01,2013-03-06 06:29:00,
2013-03-05 23:30:00,61.0,33.9,30.05,NNW,338,3.0,3.0,36,0.00,,SKC,0.00,VWS V14.01,2013-03-06 06:30:00,
2013-03-05 23:31:00,61.0,33.9,30.05,NNE,22,3.0,4.0,36,0.00,,SKC,0.00,VWS V14.01,2013-03-06 06:31:00,
2013-03-05 23:32:00,61.0,33.9,30.05,North,0,3.0,3.0,36,0.00,,SKC,0.00,VWS V14.01,2013-03-06 06:32:00,
2013-03-05 23:33:00,61.0,33.9,30.05,NNE,22,3.0,4.0,36,0.00,,SKC,0.00,VWS V14.01,2013-03-06 06:33:00,
2013-03-05 23:34:00,61.0,33.9,30.05,North,0,3.0,3.0,36,0.00,,SKC,0.00,VWS V14.01,2013-03-06 06:34:00,
2013-03-05 23:35:00,61.0,33.9,30.05,North,0,3.0,3.0,36,0.00,,SKC,0.00,VWS V14.01,2013-03-06 06:35:00,
2013-03-05 23:36:00,61.0,33.9,30.05,North,0,3.0,3.0,36,0.00,,SKC,0.00,VWS V14.01,2013-03-06 06:36:00,
2013-03-05 23:37:00,61.0,33.9,30.05,North,0,3.0,4.0,36,0.00,,SKC,0.00,VWS V14.01,2013-03-06 06:37:00,
2013-03-05 23:38:00,61.0,33.9,30.05,NNE,22,4.0,4.0,36,0.00,,SKC,0.00,VWS V14.01,2013-03-06 06:38:00,
2013-03-05 23:39:00,61.0,33.9,30.05,North,0,3.0,4.0,36,0.00,,SKC,0.00,VWS V14.01,2013-03-06 06:39:00,
2013-03-05 23:40:00,61.0,33.9,30.05,NNE,22,3.0,4.0,36,0.00,,SKC,0.00,VWS V14.01,2013-03-06 06:40:00,
2013-03-05 23:41:00,61.0,33.9,30.05,North,0,4.0,4.0,36,0.00,,SKC,0.00,VWS V14.01,2013-03-06 06:41:00,
2013-03-05 23:42:00,61.0,33.9,30.05,North,0,2.0,2.0,36,0.00,,SKC,0.00,VWS V14.01,2013-03-06 06:42:00,
2013-03-05 23:43:00,61.0,33.9,30.05,North,0,5.0,5.0,36,0.00,,SKC,0.00,VWS V14.01,2013-03-06 06:43:00,
2013-03-05 23:44:00,61.0,33.9,30.05,NNE,22,4.0,4.0,36,0.00,,SKC,0.00,VWS V14.01,2013-03-06 06:44:00,
2013-03-05 23:45:00,61.0,33.9,30.05,North,0,5.0,5.0,36,0.00,,SKC,0.00,VWS V14.01,2013-03-06 06:45:00,
2013-03-05 23:46:00,61.0,33.9,30.05,NNE,22,3.0,4.0,36,0.00,,SKC,0.00,VWS V14.01,2013-03-06 06:46:00,
2013-03-05 23:47:00,61.0,33.9,30.05,NNE,22,4.0,4.0,36,0.00,,SKC,0.00,VWS V14.01,2013-03-06 06:47:00,
2013-03-05 23:48:00,61.0,33.9,30.05,NNE,22,4.0,5.0,36,0.00,,SKC,0.00,VWS V14.01,2013-03-06 06:48:00,
2013-03-05 23:49:00,61.0,33.9,30.05,North,0,3.0,4.0,36,0.00,,SKC,0.00,VWS V14.01,2013-03-06 06:49:00,
2013-03-05 23:50:00,61.0,33.9,30.05,NNE,22,3.0,5.0,36,0.00,,SKC,0.00,VWS V14.01,2013-03-06 06:50:00,
2013-03-05 23:51:00,61.0,33.9,30.05,North,0,3.0,4.0,36,0.00,,SKC,0.00,VWS V14.01,2013-03-06 06:51:00,
2013-03-05 23:52:00,61.0,33.9,30.05,NNE,22,5.0,5.0,36,0.00,,SKC,0.00,VWS V14.01,2013-03-06 06:52:00,
2013-03-05 23:53:00,61.0,33.9,30.05,NNE,22,3.0,5.0,36,0.00,,SKC,0.00,VWS V14.01,2013-03-06 06:53:00,
2013-03-05 23:54:00,61.0,33.9,30.05,North,0,5.0,5.0,36,0.00,,SKC,0.00,VWS V14.01,2013-03-06 06:54:00,
2013-03-05 23:55:00,61.0,33.9,30.05,North,0,6.0,6.0,36,0.00,,SKC,0.00,VWS V14.01,2013-03-06 06:55:00,
2013-03-05 23:56:00,61.0,33.9,30.05,North,0,5.0,5.0,36,0.00,,SKC,0.00,VWS V14.01,2013-03-06 06:56:00,
2013-03-05 23:57:00,61.0,33.9,30.05,North,0,3.0,5.0,36,0.00,,SKC,0.00,VWS V14.01,2013-03-06 06:57:00,
2013-03-05 23:58:00,61.0,33.9,30.05,NNE,22,4.0,5.0,36,0.00,,SKC,0.00,VWS V14.01,2013-03-06 06:58:00,
2013-03-05 23:59:00,61.0,34.6,30.05,NNE,22,4.0,5.0,37,0.00,,SKC,0.00,VWS V14.01,2013-03-06 06:59:00,